<?xml version="1.0" encoding="utf-8"?>
<gpx xmlns:xsi="http://www.w3.org/2001/XMLSchema-instance" xmlns:xsd="http://www.w3.org/2001/XMLSchema" version="1.1" creator="Shapelink.com" xmlns="http://www.topografix.com/GPX/1/1" xmlns:gpxtpx="http://www.garmin.com/xmlschemas/TrackPointExtension/v1">
  <metadata>
    <name>Cykling 19.74 km, 2012-09-25</name>
    <desc></desc>
    <author><name>Alexander Engvall</name></author> 
    <time>2012-09-25T18:08:10Z</time>
  </metadata>
  <trk>
    <name>Cykling 19.74 km, 2012-09-25</name>
    <trkseg>
      <trkpt lat="59.4573178641" lon="17.8049448004">
        <ele>52.2</ele>
        <time>2012-09-25T18:08:10Z</time>
      </trkpt>
      <trkpt lat="59.4572987534" lon="17.8050057368">
        <ele>52.2</ele>
        <time>2012-09-25T18:08:11Z</time>
      </trkpt>
      <trkpt lat="59.4572681595" lon="17.8050724567">
        <ele>52.6</ele>
        <time>2012-09-25T18:08:12Z</time>
      </trkpt>
      <trkpt lat="59.4571809877" lon="17.8052633964">
        <ele>52.6</ele>
        <time>2012-09-25T18:08:15Z</time>
      </trkpt>
      <trkpt lat="59.4571326241" lon="17.8055780529">
        <ele>52.6</ele>
        <time>2012-09-25T18:08:19Z</time>
      </trkpt>
      <trkpt lat="59.4571592786" lon="17.8056529033">
        <ele>52.6</ele>
        <time>2012-09-25T18:08:20Z</time>
      </trkpt>
      <trkpt lat="59.4572632141" lon="17.8058094772">
        <ele>52.6</ele>
        <time>2012-09-25T18:08:23Z</time>
      </trkpt>
      <trkpt lat="59.4572954844" lon="17.8058666417">
        <ele>52.6</ele>
        <time>2012-09-25T18:08:24Z</time>
      </trkpt>
      <trkpt lat="59.4573423393" lon="17.8059226328">
        <ele>52.6</ele>
        <time>2012-09-25T18:08:25Z</time>
      </trkpt>
      <trkpt lat="59.4574705823" lon="17.8060146661">
        <ele>52.6</ele>
        <time>2012-09-25T18:08:27Z</time>
      </trkpt>
      <trkpt lat="59.4578580776" lon="17.806216167">
        <ele>52.6</ele>
        <time>2012-09-25T18:08:32Z</time>
      </trkpt>
      <trkpt lat="59.4579364483" lon="17.8062598367">
        <ele>53</ele>
        <time>2012-09-25T18:08:33Z</time>
      </trkpt>
      <trkpt lat="59.4580159088" lon="17.8062997345">
        <ele>53.4</ele>
        <time>2012-09-25T18:08:34Z</time>
      </trkpt>
      <trkpt lat="59.4580988057" lon="17.8063486848">
        <ele>53.8</ele>
        <time>2012-09-25T18:08:35Z</time>
      </trkpt>
      <trkpt lat="59.4581834629" lon="17.8063881636">
        <ele>54.2</ele>
        <time>2012-09-25T18:08:36Z</time>
      </trkpt>
      <trkpt lat="59.4582638454" lon="17.8064235352">
        <ele>54.6</ele>
        <time>2012-09-25T18:08:37Z</time>
      </trkpt>
      <trkpt lat="59.4583451498" lon="17.8064511954">
        <ele>54.6</ele>
        <time>2012-09-25T18:08:38Z</time>
      </trkpt>
      <trkpt lat="59.4587463075" lon="17.8065722301">
        <ele>55.2</ele>
        <time>2012-09-25T18:08:43Z</time>
      </trkpt>
      <trkpt lat="59.4588261032" lon="17.8065878204">
        <ele>55.6</ele>
        <time>2012-09-25T18:08:44Z</time>
      </trkpt>
      <trkpt lat="59.4589060665" lon="17.8065977111">
        <ele>56</ele>
        <time>2012-09-25T18:08:45Z</time>
      </trkpt>
      <trkpt lat="59.4589837667" lon="17.8066023211">
        <ele>56.4</ele>
        <time>2012-09-25T18:08:46Z</time>
      </trkpt>
      <trkpt lat="59.4590648197" lon="17.8066076017">
        <ele>56.8</ele>
        <time>2012-09-25T18:08:47Z</time>
      </trkpt>
      <trkpt lat="59.4592210583" lon="17.8066198393">
        <ele>57.2</ele>
        <time>2012-09-25T18:08:49Z</time>
      </trkpt>
      <trkpt lat="59.4592941485" lon="17.8066299814">
        <ele>57.6</ele>
        <time>2012-09-25T18:08:50Z</time>
      </trkpt>
      <trkpt lat="59.4593666519" lon="17.8066404587">
        <ele>58</ele>
        <time>2012-09-25T18:08:51Z</time>
      </trkpt>
      <trkpt lat="59.4594413347" lon="17.8066490921">
        <ele>58.6</ele>
        <time>2012-09-25T18:08:52Z</time>
      </trkpt>
      <trkpt lat="59.4595145925" lon="17.8066578093">
        <ele>59</ele>
        <time>2012-09-25T18:08:53Z</time>
      </trkpt>
      <trkpt lat="59.4600951229" lon="17.8066946896">
        <ele>59</ele>
        <time>2012-09-25T18:09:01Z</time>
      </trkpt>
      <trkpt lat="59.4606248589" lon="17.8067381079">
        <ele>59</ele>
        <time>2012-09-25T18:09:08Z</time>
      </trkpt>
      <trkpt lat="59.4610859473" lon="17.8067395328">
        <ele>59</ele>
        <time>2012-09-25T18:09:14Z</time>
      </trkpt>
      <trkpt lat="59.4612358156" lon="17.8067401195">
        <ele>59</ele>
        <time>2012-09-25T18:09:16Z</time>
      </trkpt>
      <trkpt lat="59.461677877" lon="17.8066841284">
        <ele>59</ele>
        <time>2012-09-25T18:09:22Z</time>
      </trkpt>
      <trkpt lat="59.462179869" lon="17.8066638442">
        <ele>59</ele>
        <time>2012-09-25T18:09:29Z</time>
      </trkpt>
      <trkpt lat="59.4626488363" lon="17.8065141435">
        <ele>59</ele>
        <time>2012-09-25T18:09:35Z</time>
      </trkpt>
      <trkpt lat="59.4631677598" lon="17.8063452482">
        <ele>59</ele>
        <time>2012-09-25T18:09:42Z</time>
      </trkpt>
      <trkpt lat="59.4636258306" lon="17.8064257145">
        <ele>59</ele>
        <time>2012-09-25T18:09:48Z</time>
      </trkpt>
      <trkpt lat="59.4639318538" lon="17.8065508562">
        <ele>59</ele>
        <time>2012-09-25T18:09:51Z</time>
      </trkpt>
      <trkpt lat="59.4639943827" lon="17.8066073502">
        <ele>59</ele>
        <time>2012-09-25T18:09:53Z</time>
      </trkpt>
      <trkpt lat="59.4642037626" lon="17.8068332424">
        <ele>59</ele>
        <time>2012-09-25T18:09:56Z</time>
      </trkpt>
      <trkpt lat="59.464264699" lon="17.8069303887">
        <ele>59</ele>
        <time>2012-09-25T18:09:57Z</time>
      </trkpt>
      <trkpt lat="59.464411969" lon="17.8072920676">
        <ele>59</ele>
        <time>2012-09-25T18:10:00Z</time>
      </trkpt>
      <trkpt lat="59.4644486817" lon="17.8074167065">
        <ele>59</ele>
        <time>2012-09-25T18:10:01Z</time>
      </trkpt>
      <trkpt lat="59.4644729892" lon="17.8075691733">
        <ele>59</ele>
        <time>2012-09-25T18:10:02Z</time>
      </trkpt>
      <trkpt lat="59.4644585724" lon="17.8079573391">
        <ele>59</ele>
        <time>2012-09-25T18:10:04Z</time>
      </trkpt>
      <trkpt lat="59.4644325885" lon="17.8083212812">
        <ele>59</ele>
        <time>2012-09-25T18:10:06Z</time>
      </trkpt>
      <trkpt lat="59.4644241228" lon="17.8084865722">
        <ele>59</ele>
        <time>2012-09-25T18:10:07Z</time>
      </trkpt>
      <trkpt lat="59.4643905113" lon="17.809003484">
        <ele>59</ele>
        <time>2012-09-25T18:10:10Z</time>
      </trkpt>
      <trkpt lat="59.4643441594" lon="17.8100808096">
        <ele>59</ele>
        <time>2012-09-25T18:10:15Z</time>
      </trkpt>
      <trkpt lat="59.4644895854" lon="17.8107504396">
        <ele>59</ele>
        <time>2012-09-25T18:10:20Z</time>
      </trkpt>
      <trkpt lat="59.464669461" lon="17.8114293735">
        <ele>59</ele>
        <time>2012-09-25T18:10:26Z</time>
      </trkpt>
      <trkpt lat="59.4648121209" lon="17.8120416713">
        <ele>59.4</ele>
        <time>2012-09-25T18:10:31Z</time>
      </trkpt>
      <trkpt lat="59.4648459" lon="17.8121625383">
        <ele>59.8</ele>
        <time>2012-09-25T18:10:32Z</time>
      </trkpt>
      <trkpt lat="59.4648851273" lon="17.8122755263">
        <ele>60.2</ele>
        <time>2012-09-25T18:10:33Z</time>
      </trkpt>
      <trkpt lat="59.4649198283" lon="17.8123795457">
        <ele>60.6</ele>
        <time>2012-09-25T18:10:34Z</time>
      </trkpt>
      <trkpt lat="59.4649532721" lon="17.812473842">
        <ele>61</ele>
        <time>2012-09-25T18:10:35Z</time>
      </trkpt>
      <trkpt lat="59.4650359176" lon="17.8126503649">
        <ele>61</ele>
        <time>2012-09-25T18:10:37Z</time>
      </trkpt>
      <trkpt lat="59.4650792521" lon="17.8127210243">
        <ele>61.4</ele>
        <time>2012-09-25T18:10:38Z</time>
      </trkpt>
      <trkpt lat="59.4651238438" lon="17.8127910131">
        <ele>61.8</ele>
        <time>2012-09-25T18:10:39Z</time>
      </trkpt>
      <trkpt lat="59.4651585448" lon="17.8128497703">
        <ele>62.2</ele>
        <time>2012-09-25T18:10:40Z</time>
      </trkpt>
      <trkpt lat="59.4651807569" lon="17.8129228604">
        <ele>62.6</ele>
        <time>2012-09-25T18:10:41Z</time>
      </trkpt>
      <trkpt lat="59.4652029689" lon="17.8129694638">
        <ele>63</ele>
        <time>2012-09-25T18:10:42Z</time>
      </trkpt>
      <trkpt lat="59.4652940802" lon="17.8130664424">
        <ele>63</ele>
        <time>2012-09-25T18:10:45Z</time>
      </trkpt>
      <trkpt lat="59.4653513285" lon="17.8130495109">
        <ele>63</ele>
        <time>2012-09-25T18:10:46Z</time>
      </trkpt>
      <trkpt lat="59.4654674179" lon="17.8129112096">
        <ele>63</ele>
        <time>2012-09-25T18:10:48Z</time>
      </trkpt>
      <trkpt lat="59.4655871952" lon="17.8126014984">
        <ele>63</ele>
        <time>2012-09-25T18:10:51Z</time>
      </trkpt>
      <trkpt lat="59.465619717" lon="17.8124843194">
        <ele>63</ele>
        <time>2012-09-25T18:10:52Z</time>
      </trkpt>
      <trkpt lat="59.4658601937" lon="17.8117581116">
        <ele>63</ele>
        <time>2012-09-25T18:10:58Z</time>
      </trkpt>
      <trkpt lat="59.4661717489" lon="17.8108214343">
        <ele>63</ele>
        <time>2012-09-25T18:11:05Z</time>
      </trkpt>
      <trkpt lat="59.4665470904" lon="17.8100078871">
        <ele>63</ele>
        <time>2012-09-25T18:11:11Z</time>
      </trkpt>
      <trkpt lat="59.4666254612" lon="17.8099014369">
        <ele>63</ele>
        <time>2012-09-25T18:11:12Z</time>
      </trkpt>
      <trkpt lat="59.4667073523" lon="17.8097944839">
        <ele>62.6</ele>
        <time>2012-09-25T18:11:13Z</time>
      </trkpt>
      <trkpt lat="59.466794105" lon="17.8096951584">
        <ele>62.2</ele>
        <time>2012-09-25T18:11:14Z</time>
      </trkpt>
      <trkpt lat="59.4668838751" lon="17.8096048015">
        <ele>61.8</ele>
        <time>2012-09-25T18:11:15Z</time>
      </trkpt>
      <trkpt lat="59.4669766628" lon="17.8095261793">
        <ele>61.4</ele>
        <time>2012-09-25T18:11:16Z</time>
      </trkpt>
      <trkpt lat="59.4670712106" lon="17.8094609681">
        <ele>61</ele>
        <time>2012-09-25T18:11:17Z</time>
      </trkpt>
      <trkpt lat="59.4672706998" lon="17.8093462199">
        <ele>61</ele>
        <time>2012-09-25T18:11:19Z</time>
      </trkpt>
      <trkpt lat="59.4676735339" lon="17.8092572041">
        <ele>60.6</ele>
        <time>2012-09-25T18:11:23Z</time>
      </trkpt>
      <trkpt lat="59.4677746196" lon="17.8092504986">
        <ele>60</ele>
        <time>2012-09-25T18:11:24Z</time>
      </trkpt>
      <trkpt lat="59.4678739452" lon="17.8092631553">
        <ele>59.4</ele>
        <time>2012-09-25T18:11:25Z</time>
      </trkpt>
      <trkpt lat="59.4679736898" lon="17.8092839424">
        <ele>58.8</ele>
        <time>2012-09-25T18:11:26Z</time>
      </trkpt>
      <trkpt lat="59.4680683214" lon="17.8093144525">
        <ele>58</ele>
        <time>2012-09-25T18:11:27Z</time>
      </trkpt>
      <trkpt lat="59.4681647971" lon="17.8093629837">
        <ele>57.4</ele>
        <time>2012-09-25T18:11:28Z</time>
      </trkpt>
      <trkpt lat="59.4682521365" lon="17.8094134427">
        <ele>56.8</ele>
        <time>2012-09-25T18:11:29Z</time>
      </trkpt>
      <trkpt lat="59.4683616041" lon="17.8095115948">
        <ele>56.4</ele>
        <time>2012-09-25T18:11:31Z</time>
      </trkpt>
      <trkpt lat="59.468395467" lon="17.8095596231">
        <ele>55.8</ele>
        <time>2012-09-25T18:11:32Z</time>
      </trkpt>
      <trkpt lat="59.4684270667" lon="17.8095879539">
        <ele>55.4</ele>
        <time>2012-09-25T18:11:33Z</time>
      </trkpt>
      <trkpt lat="59.4684539726" lon="17.8096199727">
        <ele>55</ele>
        <time>2012-09-25T18:11:34Z</time>
      </trkpt>
      <trkpt lat="59.4684798727" lon="17.8096632233">
        <ele>54.6</ele>
        <time>2012-09-25T18:11:35Z</time>
      </trkpt>
      <trkpt lat="59.4685336845" lon="17.8097688353">
        <ele>54.6</ele>
        <time>2012-09-25T18:11:37Z</time>
      </trkpt>
      <trkpt lat="59.4685994824" lon="17.8098822424">
        <ele>54.6</ele>
        <time>2012-09-25T18:11:39Z</time>
      </trkpt>
      <trkpt lat="59.4686905937" lon="17.8099749462">
        <ele>54.6</ele>
        <time>2012-09-25T18:11:41Z</time>
      </trkpt>
      <trkpt lat="59.4688065154" lon="17.8098929712">
        <ele>54.6</ele>
        <time>2012-09-25T18:11:43Z</time>
      </trkpt>
      <trkpt lat="59.4688858919" lon="17.8095203119">
        <ele>54.6</ele>
        <time>2012-09-25T18:11:46Z</time>
      </trkpt>
      <trkpt lat="59.4688891609" lon="17.8092012968">
        <ele>54.6</ele>
        <time>2012-09-25T18:11:48Z</time>
      </trkpt>
      <trkpt lat="59.4689148095" lon="17.8088656856">
        <ele>54.6</ele>
        <time>2012-09-25T18:11:50Z</time>
      </trkpt>
      <trkpt lat="59.4690291386" lon="17.8078155173">
        <ele>54.6</ele>
        <time>2012-09-25T18:11:56Z</time>
      </trkpt>
      <trkpt lat="59.4691605668" lon="17.8069278741">
        <ele>54.6</ele>
        <time>2012-09-25T18:12:01Z</time>
      </trkpt>
      <trkpt lat="59.4693805079" lon="17.8058072979">
        <ele>54.6</ele>
        <time>2012-09-25T18:12:07Z</time>
      </trkpt>
      <trkpt lat="59.4694255187" lon="17.8056166097">
        <ele>54.2</ele>
        <time>2012-09-25T18:12:08Z</time>
      </trkpt>
      <trkpt lat="59.4694797496" lon="17.8054231554">
        <ele>53.8</ele>
        <time>2012-09-25T18:12:09Z</time>
      </trkpt>
      <trkpt lat="59.469539764" lon="17.8052276895">
        <ele>53.2</ele>
        <time>2012-09-25T18:12:10Z</time>
      </trkpt>
      <trkpt lat="59.4695956712" lon="17.8050088381">
        <ele>52.8</ele>
        <time>2012-09-25T18:12:11Z</time>
      </trkpt>
      <trkpt lat="59.4696465494" lon="17.8048018052">
        <ele>52.4</ele>
        <time>2012-09-25T18:12:12Z</time>
      </trkpt>
      <trkpt lat="59.4698044644" lon="17.8041698937">
        <ele>51.6</ele>
        <time>2012-09-25T18:12:15Z</time>
      </trkpt>
      <trkpt lat="59.4698570189" lon="17.8039473543">
        <ele>51</ele>
        <time>2012-09-25T18:12:16Z</time>
      </trkpt>
      <trkpt lat="59.4699115012" lon="17.8037303469">
        <ele>49.8</ele>
        <time>2012-09-25T18:12:17Z</time>
      </trkpt>
      <trkpt lat="59.4699598648" lon="17.803508478">
        <ele>48.6</ele>
        <time>2012-09-25T18:12:18Z</time>
      </trkpt>
      <trkpt lat="59.4700072225" lon="17.8032794845">
        <ele>47.6</ele>
        <time>2012-09-25T18:12:19Z</time>
      </trkpt>
      <trkpt lat="59.4700466175" lon="17.8030555201">
        <ele>46.4</ele>
        <time>2012-09-25T18:12:20Z</time>
      </trkpt>
      <trkpt lat="59.4700745292" lon="17.8028206593">
        <ele>45.2</ele>
        <time>2012-09-25T18:12:21Z</time>
      </trkpt>
      <trkpt lat="59.4700877726" lon="17.8025791767">
        <ele>44.8</ele>
        <time>2012-09-25T18:12:22Z</time>
      </trkpt>
      <trkpt lat="59.4700872697" lon="17.8023409631">
        <ele>44.2</ele>
        <time>2012-09-25T18:12:23Z</time>
      </trkpt>
      <trkpt lat="59.4700619563" lon="17.8021084492">
        <ele>43.4</ele>
        <time>2012-09-25T18:12:24Z</time>
      </trkpt>
      <trkpt lat="59.4700309433" lon="17.8018769412">
        <ele>42</ele>
        <time>2012-09-25T18:12:25Z</time>
      </trkpt>
      <trkpt lat="59.4699807357" lon="17.8016480315">
        <ele>41.2</ele>
        <time>2012-09-25T18:12:26Z</time>
      </trkpt>
      <trkpt lat="59.4699160275" lon="17.8014303535">
        <ele>40.6</ele>
        <time>2012-09-25T18:12:27Z</time>
      </trkpt>
      <trkpt lat="59.4698272631" lon="17.801210161">
        <ele>40</ele>
        <time>2012-09-25T18:12:28Z</time>
      </trkpt>
      <trkpt lat="59.469736571" lon="17.8010023737">
        <ele>39.6</ele>
        <time>2012-09-25T18:12:29Z</time>
      </trkpt>
      <trkpt lat="59.4696422746" lon="17.8007891382">
        <ele>39.2</ele>
        <time>2012-09-25T18:12:30Z</time>
      </trkpt>
      <trkpt lat="59.4695483135" lon="17.8005967736">
        <ele>38.6</ele>
        <time>2012-09-25T18:12:31Z</time>
      </trkpt>
      <trkpt lat="59.4694572023" lon="17.8004081808">
        <ele>38.2</ele>
        <time>2012-09-25T18:12:32Z</time>
      </trkpt>
      <trkpt lat="59.469273471" lon="17.8000459989">
        <ele>37.6</ele>
        <time>2012-09-25T18:12:34Z</time>
      </trkpt>
      <trkpt lat="59.4691806834" lon="17.7998927778">
        <ele>37</ele>
        <time>2012-09-25T18:12:35Z</time>
      </trkpt>
      <trkpt lat="59.4690878119" lon="17.7997029278">
        <ele>36.6</ele>
        <time>2012-09-25T18:12:36Z</time>
      </trkpt>
      <trkpt lat="59.4690110337" lon="17.7995273269">
        <ele>36</ele>
        <time>2012-09-25T18:12:37Z</time>
      </trkpt>
      <trkpt lat="59.4689468284" lon="17.7993647181">
        <ele>35.4</ele>
        <time>2012-09-25T18:12:38Z</time>
      </trkpt>
      <trkpt lat="59.4689091098" lon="17.7991809868">
        <ele>35.4</ele>
        <time>2012-09-25T18:12:39Z</time>
      </trkpt>
      <trkpt lat="59.4688874007" lon="17.7989994349">
        <ele>35.4</ele>
        <time>2012-09-25T18:12:40Z</time>
      </trkpt>
      <trkpt lat="59.4688785997" lon="17.7987982693">
        <ele>35</ele>
        <time>2012-09-25T18:12:41Z</time>
      </trkpt>
      <trkpt lat="59.4688876521" lon="17.7986068267">
        <ele>34.6</ele>
        <time>2012-09-25T18:12:42Z</time>
      </trkpt>
      <trkpt lat="59.4689119597" lon="17.7984185692">
        <ele>34.2</ele>
        <time>2012-09-25T18:12:43Z</time>
      </trkpt>
      <trkpt lat="59.4689474151" lon="17.7982272104">
        <ele>33.8</ele>
        <time>2012-09-25T18:12:44Z</time>
      </trkpt>
      <trkpt lat="59.4689959463" lon="17.7980615841">
        <ele>33.4</ele>
        <time>2012-09-25T18:12:45Z</time>
      </trkpt>
      <trkpt lat="59.4690601516" lon="17.7979040044">
        <ele>33.4</ele>
        <time>2012-09-25T18:12:46Z</time>
      </trkpt>
      <trkpt lat="59.4693008798" lon="17.7975611008">
        <ele>33.4</ele>
        <time>2012-09-25T18:12:49Z</time>
      </trkpt>
      <trkpt lat="59.4693798373" lon="17.7974574167">
        <ele>33.8</ele>
        <time>2012-09-25T18:12:50Z</time>
      </trkpt>
      <trkpt lat="59.4694535142" lon="17.7973521401">
        <ele>34.2</ele>
        <time>2012-09-25T18:12:51Z</time>
      </trkpt>
      <trkpt lat="59.4695261015" lon="17.7972635434">
        <ele>34.6</ele>
        <time>2012-09-25T18:12:52Z</time>
      </trkpt>
      <trkpt lat="59.4695949169" lon="17.7971744438">
        <ele>35</ele>
        <time>2012-09-25T18:12:53Z</time>
      </trkpt>
      <trkpt lat="59.4696618882" lon="17.7970828296">
        <ele>35.4</ele>
        <time>2012-09-25T18:12:54Z</time>
      </trkpt>
      <trkpt lat="59.4697294464" lon="17.7969926404">
        <ele>35.4</ele>
        <time>2012-09-25T18:12:55Z</time>
      </trkpt>
      <trkpt lat="59.4702101483" lon="17.796371374">
        <ele>35.4</ele>
        <time>2012-09-25T18:13:02Z</time>
      </trkpt>
      <trkpt lat="59.4706803729" lon="17.796019418">
        <ele>35.4</ele>
        <time>2012-09-25T18:13:08Z</time>
      </trkpt>
      <trkpt lat="59.4710832909" lon="17.7957295719">
        <ele>35.4</ele>
        <time>2012-09-25T18:13:13Z</time>
      </trkpt>
      <trkpt lat="59.4716342331" lon="17.7951141728">
        <ele>35.4</ele>
        <time>2012-09-25T18:13:20Z</time>
      </trkpt>
      <trkpt lat="59.4720268413" lon="17.7948463711">
        <ele>35.4</ele>
        <time>2012-09-25T18:13:25Z</time>
      </trkpt>
      <trkpt lat="59.4723230577" lon="17.7945877895">
        <ele>35</ele>
        <time>2012-09-25T18:13:29Z</time>
      </trkpt>
      <trkpt lat="59.4723771209" lon="17.7944644079">
        <ele>34.6</ele>
        <time>2012-09-25T18:13:30Z</time>
      </trkpt>
      <trkpt lat="59.4724232214" lon="17.7943396852">
        <ele>34.2</ele>
        <time>2012-09-25T18:13:31Z</time>
      </trkpt>
      <trkpt lat="59.4724611914" lon="17.7941990369">
        <ele>33.8</ele>
        <time>2012-09-25T18:13:32Z</time>
      </trkpt>
      <trkpt lat="59.472493797" lon="17.7940568799">
        <ele>33.4</ele>
        <time>2012-09-25T18:13:33Z</time>
      </trkpt>
      <trkpt lat="59.4725243071" lon="17.7939018148">
        <ele>33.4</ele>
        <time>2012-09-25T18:13:34Z</time>
      </trkpt>
      <trkpt lat="59.472551213" lon="17.7937600768">
        <ele>33.4</ele>
        <time>2012-09-25T18:13:35Z</time>
      </trkpt>
      <trkpt lat="59.4726479401" lon="17.7931497907">
        <ele>33.4</ele>
        <time>2012-09-25T18:13:39Z</time>
      </trkpt>
      <trkpt lat="59.4726981477" lon="17.7928327034">
        <ele>33.4</ele>
        <time>2012-09-25T18:13:41Z</time>
      </trkpt>
      <trkpt lat="59.4728635226" lon="17.7917759135">
        <ele>33.4</ele>
        <time>2012-09-25T18:13:48Z</time>
      </trkpt>
      <trkpt lat="59.4729541309" lon="17.7912010828">
        <ele>32.8</ele>
        <time>2012-09-25T18:13:52Z</time>
      </trkpt>
      <trkpt lat="59.4729776841" lon="17.7910691517">
        <ele>32.4</ele>
        <time>2012-09-25T18:13:53Z</time>
      </trkpt>
      <trkpt lat="59.4730103735" lon="17.7909514698">
        <ele>32</ele>
        <time>2012-09-25T18:13:54Z</time>
      </trkpt>
      <trkpt lat="59.4730391234" lon="17.790832363">
        <ele>31.6</ele>
        <time>2012-09-25T18:13:55Z</time>
      </trkpt>
      <trkpt lat="59.4730722319" lon="17.7907090652">
        <ele>31.2</ele>
        <time>2012-09-25T18:13:56Z</time>
      </trkpt>
      <trkpt lat="59.4731822024" lon="17.7903423571">
        <ele>31.2</ele>
        <time>2012-09-25T18:13:59Z</time>
      </trkpt>
      <trkpt lat="59.4732537839" lon="17.790111771">
        <ele>31.6</ele>
        <time>2012-09-25T18:14:01Z</time>
      </trkpt>
      <trkpt lat="59.4732966154" lon="17.7899945921">
        <ele>32</ele>
        <time>2012-09-25T18:14:02Z</time>
      </trkpt>
      <trkpt lat="59.4733361779" lon="17.7898843701">
        <ele>32.4</ele>
        <time>2012-09-25T18:14:03Z</time>
      </trkpt>
      <trkpt lat="59.4733675262" lon="17.7897877268">
        <ele>33.6</ele>
        <time>2012-09-25T18:14:04Z</time>
      </trkpt>
      <trkpt lat="59.4733946836" lon="17.7897004712">
        <ele>34</ele>
        <time>2012-09-25T18:14:05Z</time>
      </trkpt>
      <trkpt lat="59.4734205837" lon="17.7896132156">
        <ele>34.6</ele>
        <time>2012-09-25T18:14:06Z</time>
      </trkpt>
      <trkpt lat="59.4734437177" lon="17.7895216853">
        <ele>35.2</ele>
        <time>2012-09-25T18:14:07Z</time>
      </trkpt>
      <trkpt lat="59.4734651754" lon="17.7894247905">
        <ele>35.6</ele>
        <time>2012-09-25T18:14:08Z</time>
      </trkpt>
      <trkpt lat="59.4734883094" lon="17.7893356909">
        <ele>36.2</ele>
        <time>2012-09-25T18:14:09Z</time>
      </trkpt>
      <trkpt lat="59.4735135389" lon="17.7892548056">
        <ele>36.6</ele>
        <time>2012-09-25T18:14:10Z</time>
      </trkpt>
      <trkpt lat="59.4735356672" lon="17.7891697293">
        <ele>37</ele>
        <time>2012-09-25T18:14:11Z</time>
      </trkpt>
      <trkpt lat="59.4735612319" lon="17.7890790371">
        <ele>37.4</ele>
        <time>2012-09-25T18:14:12Z</time>
      </trkpt>
      <trkpt lat="59.4736397704" lon="17.788696571">
        <ele>37.4</ele>
        <time>2012-09-25T18:14:16Z</time>
      </trkpt>
      <trkpt lat="59.4736618986" lon="17.7885915458">
        <ele>38</ele>
        <time>2012-09-25T18:14:17Z</time>
      </trkpt>
      <trkpt lat="59.4736805902" lon="17.7884798989">
        <ele>38.4</ele>
        <time>2012-09-25T18:14:18Z</time>
      </trkpt>
      <trkpt lat="59.4737063226" lon="17.7883659889">
        <ele>38.8</ele>
        <time>2012-09-25T18:14:19Z</time>
      </trkpt>
      <trkpt lat="59.4737305463" lon="17.7882585329">
        <ele>39.2</ele>
        <time>2012-09-25T18:14:20Z</time>
      </trkpt>
      <trkpt lat="59.4737587933" lon="17.7881517475">
        <ele>39.6</ele>
        <time>2012-09-25T18:14:21Z</time>
      </trkpt>
      <trkpt lat="59.4737962604" lon="17.7880489016">
        <ele>39.6</ele>
        <time>2012-09-25T18:14:22Z</time>
      </trkpt>
      <trkpt lat="59.473843702" lon="17.7879545214">
        <ele>39.6</ele>
        <time>2012-09-25T18:14:23Z</time>
      </trkpt>
      <trkpt lat="59.4740865256" lon="17.7876000509">
        <ele>39.6</ele>
        <time>2012-09-25T18:14:27Z</time>
      </trkpt>
      <trkpt lat="59.4741631362" lon="17.7875265416">
        <ele>39.6</ele>
        <time>2012-09-25T18:14:28Z</time>
      </trkpt>
      <trkpt lat="59.4744084744" lon="17.7873382841">
        <ele>39.6</ele>
        <time>2012-09-25T18:14:31Z</time>
      </trkpt>
      <trkpt lat="59.4745741007" lon="17.7872073589">
        <ele>39.2</ele>
        <time>2012-09-25T18:14:33Z</time>
      </trkpt>
      <trkpt lat="59.4746577521" lon="17.7871460034">
        <ele>38.8</ele>
        <time>2012-09-25T18:14:34Z</time>
      </trkpt>
      <trkpt lat="59.4747445886" lon="17.7870804569">
        <ele>38.2</ele>
        <time>2012-09-25T18:14:35Z</time>
      </trkpt>
      <trkpt lat="59.474831928" lon="17.7870291597">
        <ele>37.8</ele>
        <time>2012-09-25T18:14:36Z</time>
      </trkpt>
      <trkpt lat="59.4749196027" lon="17.7869797903">
        <ele>37.4</ele>
        <time>2012-09-25T18:14:37Z</time>
      </trkpt>
      <trkpt lat="59.4750087861" lon="17.7869364559">
        <ele>37.4</ele>
        <time>2012-09-25T18:14:38Z</time>
      </trkpt>
      <trkpt lat="59.4755458144" lon="17.7867178559">
        <ele>37.4</ele>
        <time>2012-09-25T18:14:44Z</time>
      </trkpt>
      <trkpt lat="59.4757181463" lon="17.7866601046">
        <ele>37.4</ele>
        <time>2012-09-25T18:14:46Z</time>
      </trkpt>
      <trkpt lat="59.4762964136" lon="17.7864922152">
        <ele>37.4</ele>
        <time>2012-09-25T18:14:53Z</time>
      </trkpt>
      <trkpt lat="59.4763771313" lon="17.7864738588">
        <ele>37.4</ele>
        <time>2012-09-25T18:14:54Z</time>
      </trkpt>
      <trkpt lat="59.4769568235" lon="17.7863164467">
        <ele>37</ele>
        <time>2012-09-25T18:15:01Z</time>
      </trkpt>
      <trkpt lat="59.4770373735" lon="17.7862793987">
        <ele>36.6</ele>
        <time>2012-09-25T18:15:02Z</time>
      </trkpt>
      <trkpt lat="59.477122366" lon="17.7862535825">
        <ele>36.2</ele>
        <time>2012-09-25T18:15:03Z</time>
      </trkpt>
      <trkpt lat="59.4772038381" lon="17.7862251678">
        <ele>35.8</ele>
        <time>2012-09-25T18:15:04Z</time>
      </trkpt>
      <trkpt lat="59.4772906745" lon="17.7861991001">
        <ele>35.4</ele>
        <time>2012-09-25T18:15:05Z</time>
      </trkpt>
      <trkpt lat="59.4776098573" lon="17.7861068154">
        <ele>35.4</ele>
        <time>2012-09-25T18:15:09Z</time>
      </trkpt>
      <trkpt lat="59.4780979353" lon="17.7859003692">
        <ele>35.4</ele>
        <time>2012-09-25T18:15:16Z</time>
      </trkpt>
      <trkpt lat="59.4784140168" lon="17.7857085075">
        <ele>35.4</ele>
        <time>2012-09-25T18:15:21Z</time>
      </trkpt>
      <trkpt lat="59.4785345485" lon="17.7856192403">
        <ele>35.4</ele>
        <time>2012-09-25T18:15:23Z</time>
      </trkpt>
      <trkpt lat="59.4789361253" lon="17.7852556335">
        <ele>35.4</ele>
        <time>2012-09-25T18:15:30Z</time>
      </trkpt>
      <trkpt lat="59.4790959682" lon="17.785093779">
        <ele>35.8</ele>
        <time>2012-09-25T18:15:33Z</time>
      </trkpt>
      <trkpt lat="59.4791450023" lon="17.7850325073">
        <ele>36.2</ele>
        <time>2012-09-25T18:15:34Z</time>
      </trkpt>
      <trkpt lat="59.4791968024" lon="17.7849692239">
        <ele>36.6</ele>
        <time>2012-09-25T18:15:35Z</time>
      </trkpt>
      <trkpt lat="59.4792413941" lon="17.7849107183">
        <ele>37</ele>
        <time>2012-09-25T18:15:36Z</time>
      </trkpt>
      <trkpt lat="59.479285902" lon="17.7848449204">
        <ele>37.6</ele>
        <time>2012-09-25T18:15:37Z</time>
      </trkpt>
      <trkpt lat="59.4793321701" lon="17.7847832296">
        <ele>37.6</ele>
        <time>2012-09-25T18:15:38Z</time>
      </trkpt>
      <trkpt lat="59.4795167395" lon="17.784518613">
        <ele>38</ele>
        <time>2012-09-25T18:15:42Z</time>
      </trkpt>
      <trkpt lat="59.4795638458" lon="17.7844448523">
        <ele>38.8</ele>
        <time>2012-09-25T18:15:43Z</time>
      </trkpt>
      <trkpt lat="59.4796036598" lon="17.7843737738">
        <ele>39.4</ele>
        <time>2012-09-25T18:15:44Z</time>
      </trkpt>
      <trkpt lat="59.479640624" lon="17.7843039525">
        <ele>39.8</ele>
        <time>2012-09-25T18:15:45Z</time>
      </trkpt>
      <trkpt lat="59.479680438" lon="17.78423564">
        <ele>39.8</ele>
        <time>2012-09-25T18:15:46Z</time>
      </trkpt>
      <trkpt lat="59.4798363414" lon="17.7839436985">
        <ele>40.2</ele>
        <time>2012-09-25T18:15:50Z</time>
      </trkpt>
      <trkpt lat="59.4798740599" lon="17.7838661659">
        <ele>40.6</ele>
        <time>2012-09-25T18:15:51Z</time>
      </trkpt>
      <trkpt lat="59.4799120299" lon="17.7837860349">
        <ele>41</ele>
        <time>2012-09-25T18:15:52Z</time>
      </trkpt>
      <trkpt lat="59.4799483236" lon="17.7837087538">
        <ele>41.4</ele>
        <time>2012-09-25T18:15:53Z</time>
      </trkpt>
      <trkpt lat="59.4799841981" lon="17.7836273656">
        <ele>41.8</ele>
        <time>2012-09-25T18:15:54Z</time>
      </trkpt>
      <trkpt lat="59.4800188992" lon="17.7835439657">
        <ele>41.8</ele>
        <time>2012-09-25T18:15:55Z</time>
      </trkpt>
      <trkpt lat="59.480261639" lon="17.782935775">
        <ele>42.2</ele>
        <time>2012-09-25T18:16:02Z</time>
      </trkpt>
      <trkpt lat="59.4802942446" lon="17.7828397184">
        <ele>42.6</ele>
        <time>2012-09-25T18:16:03Z</time>
      </trkpt>
      <trkpt lat="59.4803281075" lon="17.782745422">
        <ele>43</ele>
        <time>2012-09-25T18:16:04Z</time>
      </trkpt>
      <trkpt lat="59.4803612998" lon="17.7826414027">
        <ele>43.4</ele>
        <time>2012-09-25T18:16:05Z</time>
      </trkpt>
      <trkpt lat="59.4803960008" lon="17.7825423286">
        <ele>44</ele>
        <time>2012-09-25T18:16:06Z</time>
      </trkpt>
      <trkpt lat="59.4805391637" lon="17.7820394984">
        <ele>44</ele>
        <time>2012-09-25T18:16:11Z</time>
      </trkpt>
      <trkpt lat="59.4807031975" lon="17.7814218362">
        <ele>44</ele>
        <time>2012-09-25T18:16:17Z</time>
      </trkpt>
      <trkpt lat="59.4808898624" lon="17.7806824688">
        <ele>44</ele>
        <time>2012-09-25T18:16:24Z</time>
      </trkpt>
      <trkpt lat="59.4809142537" lon="17.7805833948">
        <ele>44.4</ele>
        <time>2012-09-25T18:16:25Z</time>
      </trkpt>
      <trkpt lat="59.4809408243" lon="17.7804839016">
        <ele>44.8</ele>
        <time>2012-09-25T18:16:26Z</time>
      </trkpt>
      <trkpt lat="59.480965551" lon="17.7803808881">
        <ele>45.2</ele>
        <time>2012-09-25T18:16:27Z</time>
      </trkpt>
      <trkpt lat="59.4809897746" lon="17.7802747732">
        <ele>45.8</ele>
        <time>2012-09-25T18:16:28Z</time>
      </trkpt>
      <trkpt lat="59.4810130763" lon="17.780174358">
        <ele>46.2</ele>
        <time>2012-09-25T18:16:29Z</time>
      </trkpt>
      <trkpt lat="59.4810826461" lon="17.7798899602">
        <ele>46.2</ele>
        <time>2012-09-25T18:16:32Z</time>
      </trkpt>
      <trkpt lat="59.4811338595" lon="17.7797082406">
        <ele>46.6</ele>
        <time>2012-09-25T18:16:34Z</time>
      </trkpt>
      <trkpt lat="59.4811583347" lon="17.7796148662">
        <ele>47</ele>
        <time>2012-09-25T18:16:35Z</time>
      </trkpt>
      <trkpt lat="59.4811824745" lon="17.7795193964">
        <ele>47.6</ele>
        <time>2012-09-25T18:16:36Z</time>
      </trkpt>
      <trkpt lat="59.481203094" lon="17.7794247647">
        <ele>48</ele>
        <time>2012-09-25T18:16:37Z</time>
      </trkpt>
      <trkpt lat="59.481226731" lon="17.7793328991">
        <ele>48.4</ele>
        <time>2012-09-25T18:16:38Z</time>
      </trkpt>
      <trkpt lat="59.481271155" lon="17.7791475753">
        <ele>48.4</ele>
        <time>2012-09-25T18:16:40Z</time>
      </trkpt>
      <trkpt lat="59.4814284833" lon="17.7785097127">
        <ele>48.4</ele>
        <time>2012-09-25T18:16:47Z</time>
      </trkpt>
      <trkpt lat="59.4814520364" lon="17.7784107225">
        <ele>48.8</ele>
        <time>2012-09-25T18:16:48Z</time>
      </trkpt>
      <trkpt lat="59.4814732426" lon="17.7783210361">
        <ele>49.4</ele>
        <time>2012-09-25T18:16:49Z</time>
      </trkpt>
      <trkpt lat="59.4814949518" lon="17.7782267398">
        <ele>49.8</ele>
        <time>2012-09-25T18:16:50Z</time>
      </trkpt>
      <trkpt lat="59.4815155712" lon="17.7781185294">
        <ele>50.2</ele>
        <time>2012-09-25T18:16:51Z</time>
      </trkpt>
      <trkpt lat="59.481536526" lon="17.7780182819">
        <ele>50.6</ele>
        <time>2012-09-25T18:16:52Z</time>
      </trkpt>
      <trkpt lat="59.4815839675" lon="17.7778378196">
        <ele>50.6</ele>
        <time>2012-09-25T18:16:54Z</time>
      </trkpt>
      <trkpt lat="59.4816260447" lon="17.7776339718">
        <ele>51</ele>
        <time>2012-09-25T18:16:56Z</time>
      </trkpt>
      <trkpt lat="59.4816482567" lon="17.7775453751">
        <ele>51.8</ele>
        <time>2012-09-25T18:16:57Z</time>
      </trkpt>
      <trkpt lat="59.4816645176" lon="17.7774493185">
        <ele>52.2</ele>
        <time>2012-09-25T18:16:58Z</time>
      </trkpt>
      <trkpt lat="59.4816835445" lon="17.7773450477">
        <ele>52.6</ele>
        <time>2012-09-25T18:16:59Z</time>
      </trkpt>
      <trkpt lat="59.4817112886" lon="17.7772474824">
        <ele>52.6</ele>
        <time>2012-09-25T18:17:00Z</time>
      </trkpt>
      <trkpt lat="59.4817873962" lon="17.7769536968">
        <ele>53</ele>
        <time>2012-09-25T18:17:03Z</time>
      </trkpt>
      <trkpt lat="59.4818137154" lon="17.7768583108">
        <ele>53.6</ele>
        <time>2012-09-25T18:17:04Z</time>
      </trkpt>
      <trkpt lat="59.4818285514" lon="17.776757225">
        <ele>54</ele>
        <time>2012-09-25T18:17:05Z</time>
      </trkpt>
      <trkpt lat="59.4818515178" lon="17.7766486794">
        <ele>54.4</ele>
        <time>2012-09-25T18:17:06Z</time>
      </trkpt>
      <trkpt lat="59.4818749871" lon="17.776539128">
        <ele>55</ele>
        <time>2012-09-25T18:17:07Z</time>
      </trkpt>
      <trkpt lat="59.4818915833" lon="17.7764506151">
        <ele>55</ele>
        <time>2012-09-25T18:17:08Z</time>
      </trkpt>
      <trkpt lat="59.4819251109" lon="17.7762463482">
        <ele>55</ele>
        <time>2012-09-25T18:17:10Z</time>
      </trkpt>
      <trkpt lat="59.4819564592" lon="17.7760408241">
        <ele>55.4</ele>
        <time>2012-09-25T18:17:12Z</time>
      </trkpt>
      <trkpt lat="59.4819712951" lon="17.7759192027">
        <ele>55.8</ele>
        <time>2012-09-25T18:17:13Z</time>
      </trkpt>
      <trkpt lat="59.4819873884" lon="17.7758116629">
        <ele>56.2</ele>
        <time>2012-09-25T18:17:14Z</time>
      </trkpt>
      <trkpt lat="59.4820074211" lon="17.7756969147">
        <ele>56.6</ele>
        <time>2012-09-25T18:17:15Z</time>
      </trkpt>
      <trkpt lat="59.4820252746" lon="17.7755866089">
        <ele>57</ele>
        <time>2012-09-25T18:17:16Z</time>
      </trkpt>
      <trkpt lat="59.4820698663" lon="17.7752533445">
        <ele>57</ele>
        <time>2012-09-25T18:17:19Z</time>
      </trkpt>
      <trkpt lat="59.4820849537" lon="17.7751498281">
        <ele>57.4</ele>
        <time>2012-09-25T18:17:20Z</time>
      </trkpt>
      <trkpt lat="59.4820967722" lon="17.7750509217">
        <ele>58</ele>
        <time>2012-09-25T18:17:21Z</time>
      </trkpt>
      <trkpt lat="59.4821111052" lon="17.774944723">
        <ele>59</ele>
        <time>2012-09-25T18:17:22Z</time>
      </trkpt>
      <trkpt lat="59.4821246839" lon="17.7748459004">
        <ele>59.4</ele>
        <time>2012-09-25T18:17:23Z</time>
      </trkpt>
      <trkpt lat="59.4821859556" lon="17.774366791">
        <ele>59.4</ele>
        <time>2012-09-25T18:17:28Z</time>
      </trkpt>
      <trkpt lat="59.482208" lon="17.7741712413">
        <ele>59.8</ele>
        <time>2012-09-25T18:17:30Z</time>
      </trkpt>
      <trkpt lat="59.4822210758" lon="17.7740767772">
        <ele>60.2</ele>
        <time>2012-09-25T18:17:31Z</time>
      </trkpt>
      <trkpt lat="59.4822333133" lon="17.773981978">
        <ele>60.6</ele>
        <time>2012-09-25T18:17:32Z</time>
      </trkpt>
      <trkpt lat="59.4822465567" lon="17.7738882683">
        <ele>61</ele>
        <time>2012-09-25T18:17:33Z</time>
      </trkpt>
      <trkpt lat="59.4822597163" lon="17.7737896134">
        <ele>61.4</ele>
        <time>2012-09-25T18:17:34Z</time>
      </trkpt>
      <trkpt lat="59.4822981054" lon="17.773487362">
        <ele>61.4</ele>
        <time>2012-09-25T18:17:37Z</time>
      </trkpt>
      <trkpt lat="59.4823980177" lon="17.772704744">
        <ele>61.4</ele>
        <time>2012-09-25T18:17:44Z</time>
      </trkpt>
      <trkpt lat="59.4825339721" lon="17.7716107384">
        <ele>61.4</ele>
        <time>2012-09-25T18:17:53Z</time>
      </trkpt>
      <trkpt lat="59.4826293581" lon="17.7707986162">
        <ele>61.4</ele>
        <time>2012-09-25T18:17:59Z</time>
      </trkpt>
      <trkpt lat="59.4827710122" lon="17.7696832367">
        <ele>61.4</ele>
        <time>2012-09-25T18:18:07Z</time>
      </trkpt>
      <trkpt lat="59.4828067191" lon="17.7693927201">
        <ele>61</ele>
        <time>2012-09-25T18:18:09Z</time>
      </trkpt>
      <trkpt lat="59.482823902" lon="17.7692488028">
        <ele>60.6</ele>
        <time>2012-09-25T18:18:10Z</time>
      </trkpt>
      <trkpt lat="59.4828425098" lon="17.7691011976">
        <ele>60.2</ele>
        <time>2012-09-25T18:18:11Z</time>
      </trkpt>
      <trkpt lat="59.4828637998" lon="17.7689509939">
        <ele>59.2</ele>
        <time>2012-09-25T18:18:12Z</time>
      </trkpt>
      <trkpt lat="59.482943847" lon="17.7682847167">
        <ele>59.2</ele>
        <time>2012-09-25T18:18:16Z</time>
      </trkpt>
      <trkpt lat="59.4829681545" lon="17.768107691">
        <ele>58.8</ele>
        <time>2012-09-25T18:18:17Z</time>
      </trkpt>
      <trkpt lat="59.4829946413" lon="17.7679235406">
        <ele>58.4</ele>
        <time>2012-09-25T18:18:18Z</time>
      </trkpt>
      <trkpt lat="59.4830181106" lon="17.7677305055">
        <ele>57.8</ele>
        <time>2012-09-25T18:18:19Z</time>
      </trkpt>
      <trkpt lat="59.4830437592" lon="17.7675372189">
        <ele>57.4</ele>
        <time>2012-09-25T18:18:20Z</time>
      </trkpt>
      <trkpt lat="59.4830722577" lon="17.7673438484">
        <ele>57</ele>
        <time>2012-09-25T18:18:21Z</time>
      </trkpt>
      <trkpt lat="59.4830953917" lon="17.7671390786">
        <ele>56.4</ele>
        <time>2012-09-25T18:18:22Z</time>
      </trkpt>
      <trkpt lat="59.4831190287" lon="17.7669286091">
        <ele>56</ele>
        <time>2012-09-25T18:18:23Z</time>
      </trkpt>
      <trkpt lat="59.4831440906" lon="17.7667248451">
        <ele>55.6</ele>
        <time>2012-09-25T18:18:24Z</time>
      </trkpt>
      <trkpt lat="59.4831726729" lon="17.7665181475">
        <ele>55</ele>
        <time>2012-09-25T18:18:25Z</time>
      </trkpt>
      <trkpt lat="59.4832001655" lon="17.7663120365">
        <ele>54.6</ele>
        <time>2012-09-25T18:18:26Z</time>
      </trkpt>
      <trkpt lat="59.4832223775" lon="17.7660973761">
        <ele>54</ele>
        <time>2012-09-25T18:18:27Z</time>
      </trkpt>
      <trkpt lat="59.4832459307" lon="17.7658820451">
        <ele>53.4</ele>
        <time>2012-09-25T18:18:28Z</time>
      </trkpt>
      <trkpt lat="59.4832710764" lon="17.765669983">
        <ele>53</ele>
        <time>2012-09-25T18:18:29Z</time>
      </trkpt>
      <trkpt lat="59.4832965573" lon="17.7654532271">
        <ele>52.4</ele>
        <time>2012-09-25T18:18:30Z</time>
      </trkpt>
      <trkpt lat="59.483323128" lon="17.765226329">
        <ele>51.8</ele>
        <time>2012-09-25T18:18:31Z</time>
      </trkpt>
      <trkpt lat="59.4833535543" lon="17.7650062203">
        <ele>51.4</ele>
        <time>2012-09-25T18:18:32Z</time>
      </trkpt>
      <trkpt lat="59.4833804602" lon="17.7647840162">
        <ele>50.6</ele>
        <time>2012-09-25T18:18:33Z</time>
      </trkpt>
      <trkpt lat="59.4834082881" lon="17.7645652486">
        <ele>49.8</ele>
        <time>2012-09-25T18:18:34Z</time>
      </trkpt>
      <trkpt lat="59.4834372056" lon="17.7643382667">
        <ele>49.2</ele>
        <time>2012-09-25T18:18:35Z</time>
      </trkpt>
      <trkpt lat="59.4834665423" lon="17.7641162302">
        <ele>47.6</ele>
        <time>2012-09-25T18:18:36Z</time>
      </trkpt>
      <trkpt lat="59.483498142" lon="17.7638856441">
        <ele>46.8</ele>
        <time>2012-09-25T18:18:37Z</time>
      </trkpt>
      <trkpt lat="59.4835295742" lon="17.7636465923">
        <ele>46</ele>
        <time>2012-09-25T18:18:38Z</time>
      </trkpt>
      <trkpt lat="59.4835519538" lon="17.7634219574">
        <ele>45.4</ele>
        <time>2012-09-25T18:18:39Z</time>
      </trkpt>
      <trkpt lat="59.4835714837" lon="17.7631958976">
        <ele>44.6</ele>
        <time>2012-09-25T18:18:40Z</time>
      </trkpt>
      <trkpt lat="59.4836040893" lon="17.7629761242">
        <ele>43.8</ele>
        <time>2012-09-25T18:18:41Z</time>
      </trkpt>
      <trkpt lat="59.4836034187" lon="17.7627412633">
        <ele>43.2</ele>
        <time>2012-09-25T18:18:42Z</time>
      </trkpt>
      <trkpt lat="59.4836017423" lon="17.7625198135">
        <ele>42.6</ele>
        <time>2012-09-25T18:18:43Z</time>
      </trkpt>
      <trkpt lat="59.4835885827" lon="17.7623037281">
        <ele>42.2</ele>
        <time>2012-09-25T18:18:44Z</time>
      </trkpt>
      <trkpt lat="59.4835605034" lon="17.7620898221">
        <ele>41.6</ele>
        <time>2012-09-25T18:18:45Z</time>
      </trkpt>
      <trkpt lat="59.4835299933" lon="17.7618812804">
        <ele>41</ele>
        <time>2012-09-25T18:18:46Z</time>
      </trkpt>
      <trkpt lat="59.4834923585" lon="17.7616949507">
        <ele>40.4</ele>
        <time>2012-09-25T18:18:47Z</time>
      </trkpt>
      <trkpt lat="59.4834465095" lon="17.7615020832">
        <ele>39.8</ele>
        <time>2012-09-25T18:18:48Z</time>
      </trkpt>
      <trkpt lat="59.4834058573" lon="17.7613344452">
        <ele>39</ele>
        <time>2012-09-25T18:18:49Z</time>
      </trkpt>
      <trkpt lat="59.4833616847" lon="17.7611663043">
        <ele>38.4</ele>
        <time>2012-09-25T18:18:50Z</time>
      </trkpt>
      <trkpt lat="59.4833093816" lon="17.7610167712">
        <ele>38.4</ele>
        <time>2012-09-25T18:18:51Z</time>
      </trkpt>
      <trkpt lat="59.4831428333" lon="17.7605858577">
        <ele>38.4</ele>
        <time>2012-09-25T18:18:54Z</time>
      </trkpt>
      <trkpt lat="59.4830176077" lon="17.7603595464">
        <ele>38.4</ele>
        <time>2012-09-25T18:18:56Z</time>
      </trkpt>
      <trkpt lat="59.4828780491" lon="17.7601881366">
        <ele>38.4</ele>
        <time>2012-09-25T18:18:58Z</time>
      </trkpt>
      <trkpt lat="59.4826565993" lon="17.7600301378">
        <ele>38.4</ele>
        <time>2012-09-25T18:19:01Z</time>
      </trkpt>
      <trkpt lat="59.482584012" lon="17.7599926707">
        <ele>38.4</ele>
        <time>2012-09-25T18:19:02Z</time>
      </trkpt>
      <trkpt lat="59.4822312179" lon="17.7598689538">
        <ele>38.4</ele>
        <time>2012-09-25T18:19:07Z</time>
      </trkpt>
      <trkpt lat="59.482037093" lon="17.7598140524">
        <ele>38.4</ele>
        <time>2012-09-25T18:19:10Z</time>
      </trkpt>
      <trkpt lat="59.4819110293" lon="17.7597576422">
        <ele>38.4</ele>
        <time>2012-09-25T18:19:12Z</time>
      </trkpt>
      <trkpt lat="59.4815729034" lon="17.7595620087">
        <ele>38.4</ele>
        <time>2012-09-25T18:19:18Z</time>
      </trkpt>
      <trkpt lat="59.4814052654" lon="17.7594112183">
        <ele>39</ele>
        <time>2012-09-25T18:19:22Z</time>
      </trkpt>
      <trkpt lat="59.4813791139" lon="17.7593755952">
        <ele>39.4</ele>
        <time>2012-09-25T18:19:23Z</time>
      </trkpt>
      <trkpt lat="59.4813536329" lon="17.759342822">
        <ele>39.8</ele>
        <time>2012-09-25T18:19:24Z</time>
      </trkpt>
      <trkpt lat="59.481329074" lon="17.7593111384">
        <ele>40.8</ele>
        <time>2012-09-25T18:19:25Z</time>
      </trkpt>
      <trkpt lat="59.481286913" lon="17.7593154132">
        <ele>40.8</ele>
        <time>2012-09-25T18:19:27Z</time>
      </trkpt>
      <trkpt lat="59.4812889247" lon="17.759368722">
        <ele>40.8</ele>
        <time>2012-09-25T18:19:28Z</time>
      </trkpt>
      <trkpt lat="59.4814053492" lon="17.7595216079">
        <ele>40.8</ele>
        <time>2012-09-25T18:19:31Z</time>
      </trkpt>
      <trkpt lat="59.481678683" lon="17.7597347596">
        <ele>40.8</ele>
        <time>2012-09-25T18:19:36Z</time>
      </trkpt>
      <trkpt lat="59.4820362549" lon="17.7599091031">
        <ele>40.8</ele>
        <time>2012-09-25T18:19:40Z</time>
      </trkpt>
      <trkpt lat="59.4825588663" lon="17.7601054072">
        <ele>40.8</ele>
        <time>2012-09-25T18:19:45Z</time>
      </trkpt>
      <trkpt lat="59.4828562561" lon="17.760400031">
        <ele>40.8</ele>
        <time>2012-09-25T18:19:48Z</time>
      </trkpt>
      <trkpt lat="59.4829455234" lon="17.76051721">
        <ele>40.4</ele>
        <time>2012-09-25T18:19:49Z</time>
      </trkpt>
      <trkpt lat="59.4830306835" lon="17.7606519071">
        <ele>39.4</ele>
        <time>2012-09-25T18:19:50Z</time>
      </trkpt>
      <trkpt lat="59.4831101439" lon="17.7607975007">
        <ele>39</ele>
        <time>2012-09-25T18:19:51Z</time>
      </trkpt>
      <trkpt lat="59.4831796298" lon="17.7609526497">
        <ele>38.6</ele>
        <time>2012-09-25T18:19:52Z</time>
      </trkpt>
      <trkpt lat="59.4832468527" lon="17.7611463554">
        <ele>38.6</ele>
        <time>2012-09-25T18:19:53Z</time>
      </trkpt>
      <trkpt lat="59.4833576614" lon="17.7614957968">
        <ele>38.6</ele>
        <time>2012-09-25T18:19:55Z</time>
      </trkpt>
      <trkpt lat="59.4834878323" lon="17.7620756566">
        <ele>38.6</ele>
        <time>2012-09-25T18:19:58Z</time>
      </trkpt>
      <trkpt lat="59.4835504451" lon="17.7628600348">
        <ele>38.6</ele>
        <time>2012-09-25T18:20:02Z</time>
      </trkpt>
      <trkpt lat="59.4834760138" lon="17.7635900983">
        <ele>38.6</ele>
        <time>2012-09-25T18:20:06Z</time>
      </trkpt>
      <trkpt lat="59.4834401393" lon="17.7637486839">
        <ele>38.6</ele>
        <time>2012-09-25T18:20:07Z</time>
      </trkpt>
      <trkpt lat="59.4833639478" lon="17.7642391089">
        <ele>39</ele>
        <time>2012-09-25T18:20:10Z</time>
      </trkpt>
      <trkpt lat="59.4833439151" lon="17.7643955989">
        <ele>39.4</ele>
        <time>2012-09-25T18:20:11Z</time>
      </trkpt>
      <trkpt lat="59.483323128" lon="17.7645501612">
        <ele>39.8</ele>
        <time>2012-09-25T18:20:12Z</time>
      </trkpt>
      <trkpt lat="59.4833043525" lon="17.7647047234">
        <ele>40.2</ele>
        <time>2012-09-25T18:20:13Z</time>
      </trkpt>
      <trkpt lat="59.4832850741" lon="17.7648644824">
        <ele>40.6</ele>
        <time>2012-09-25T18:20:14Z</time>
      </trkpt>
      <trkpt lat="59.4832607666" lon="17.7650211401">
        <ele>41.4</ele>
        <time>2012-09-25T18:20:15Z</time>
      </trkpt>
      <trkpt lat="59.4832387222" lon="17.7651710085">
        <ele>41.8</ele>
        <time>2012-09-25T18:20:16Z</time>
      </trkpt>
      <trkpt lat="59.4832190248" lon="17.7653188652">
        <ele>42.4</ele>
        <time>2012-09-25T18:20:17Z</time>
      </trkpt>
      <trkpt lat="59.4832024286" lon="17.7654619442">
        <ele>42.8</ele>
        <time>2012-09-25T18:20:18Z</time>
      </trkpt>
      <trkpt lat="59.4831113174" lon="17.7662231884">
        <ele>43.2</ele>
        <time>2012-09-25T18:20:23Z</time>
      </trkpt>
      <trkpt lat="59.4830891891" lon="17.7663714642">
        <ele>43.6</ele>
        <time>2012-09-25T18:20:24Z</time>
      </trkpt>
      <trkpt lat="59.4830672286" lon="17.7665220031">
        <ele>44</ele>
        <time>2012-09-25T18:20:25Z</time>
      </trkpt>
      <trkpt lat="59.4830471958" lon="17.7666731288">
        <ele>44.6</ele>
        <time>2012-09-25T18:20:26Z</time>
      </trkpt>
      <trkpt lat="59.4830248161" lon="17.7668405153">
        <ele>45.2</ele>
        <time>2012-09-25T18:20:27Z</time>
      </trkpt>
      <trkpt lat="59.4830078009" lon="17.7669801578">
        <ele>45.8</ele>
        <time>2012-09-25T18:20:28Z</time>
      </trkpt>
      <trkpt lat="59.4829910371" lon="17.7671331275">
        <ele>46.4</ele>
        <time>2012-09-25T18:20:29Z</time>
      </trkpt>
      <trkpt lat="59.4829749438" lon="17.7672859295">
        <ele>47</ele>
        <time>2012-09-25T18:20:30Z</time>
      </trkpt>
      <trkpt lat="59.482958683" lon="17.7674363008">
        <ele>47.4</ele>
        <time>2012-09-25T18:20:31Z</time>
      </trkpt>
      <trkpt lat="59.4829417515" lon="17.767589019">
        <ele>47.8</ele>
        <time>2012-09-25T18:20:32Z</time>
      </trkpt>
      <trkpt lat="59.4829228084" lon="17.7677401447">
        <ele>48.4</ele>
        <time>2012-09-25T18:20:33Z</time>
      </trkpt>
      <trkpt lat="59.4829027757" lon="17.7678838104">
        <ele>48.8</ele>
        <time>2012-09-25T18:20:34Z</time>
      </trkpt>
      <trkpt lat="59.4828838326" lon="17.7680231176">
        <ele>49.6</ele>
        <time>2012-09-25T18:20:35Z</time>
      </trkpt>
      <trkpt lat="59.4828664821" lon="17.7681573118">
        <ele>50.2</ele>
        <time>2012-09-25T18:20:36Z</time>
      </trkpt>
      <trkpt lat="59.4828509755" lon="17.7682848843">
        <ele>51.2</ele>
        <time>2012-09-25T18:20:37Z</time>
      </trkpt>
      <trkpt lat="59.4828346308" lon="17.7684213417">
        <ele>52.2</ele>
        <time>2012-09-25T18:20:38Z</time>
      </trkpt>
      <trkpt lat="59.4828148495" lon="17.7685489142">
        <ele>53</ele>
        <time>2012-09-25T18:20:39Z</time>
      </trkpt>
      <trkpt lat="59.4827963255" lon="17.7686729663">
        <ele>55</ele>
        <time>2012-09-25T18:20:40Z</time>
      </trkpt>
      <trkpt lat="59.4827695035" lon="17.7689065699">
        <ele>55</ele>
        <time>2012-09-25T18:20:42Z</time>
      </trkpt>
      <trkpt lat="59.4826884505" lon="17.769548791">
        <ele>55</ele>
        <time>2012-09-25T18:20:47Z</time>
      </trkpt>
      <trkpt lat="59.4826703456" lon="17.7696849969">
        <ele>55.4</ele>
        <time>2012-09-25T18:20:48Z</time>
      </trkpt>
      <trkpt lat="59.4826542523" lon="17.7698098034">
        <ele>56</ele>
        <time>2012-09-25T18:20:49Z</time>
      </trkpt>
      <trkpt lat="59.4826388296" lon="17.7699362863">
        <ele>56.4</ele>
        <time>2012-09-25T18:20:50Z</time>
      </trkpt>
      <trkpt lat="59.482625251" lon="17.7700663734">
        <ele>57</ele>
        <time>2012-09-25T18:20:51Z</time>
      </trkpt>
      <trkpt lat="59.4826109179" lon="17.770199897">
        <ele>57.8</ele>
        <time>2012-09-25T18:20:52Z</time>
      </trkpt>
      <trkpt lat="59.4825983451" lon="17.7703236139">
        <ele>58.4</ele>
        <time>2012-09-25T18:20:53Z</time>
      </trkpt>
      <trkpt lat="59.482584012" lon="17.7704480851">
        <ele>59</ele>
        <time>2012-09-25T18:20:54Z</time>
      </trkpt>
      <trkpt lat="59.4825664939" lon="17.7705829499">
        <ele>59.6</ele>
        <time>2012-09-25T18:20:55Z</time>
      </trkpt>
      <trkpt lat="59.4825498977" lon="17.7707251069">
        <ele>59.6</ele>
        <time>2012-09-25T18:20:56Z</time>
      </trkpt>
      <trkpt lat="59.4824580321" lon="17.7714244088">
        <ele>59.6</ele>
        <time>2012-09-25T18:21:01Z</time>
      </trkpt>
      <trkpt lat="59.4824406815" lon="17.7715560885">
        <ele>60</ele>
        <time>2012-09-25T18:21:02Z</time>
      </trkpt>
      <trkpt lat="59.4824265999" lon="17.7716917914">
        <ele>60.4</ele>
        <time>2012-09-25T18:21:03Z</time>
      </trkpt>
      <trkpt lat="59.4824110096" lon="17.7718290869">
        <ele>61.4</ele>
        <time>2012-09-25T18:21:04Z</time>
      </trkpt>
      <trkpt lat="59.4823929047" lon="17.771970322">
        <ele>61.8</ele>
        <time>2012-09-25T18:21:05Z</time>
      </trkpt>
      <trkpt lat="59.4823750513" lon="17.7721121437">
        <ele>61.8</ele>
        <time>2012-09-25T18:21:06Z</time>
      </trkpt>
      <trkpt lat="59.4822992789" lon="17.7727194962">
        <ele>61.8</ele>
        <time>2012-09-25T18:21:11Z</time>
      </trkpt>
      <trkpt lat="59.4822836885" lon="17.7728333224">
        <ele>61.8</ele>
        <time>2012-09-25T18:21:12Z</time>
      </trkpt>
      <trkpt lat="59.4822595487" lon="17.7730447977">
        <ele>61.8</ele>
        <time>2012-09-25T18:21:14Z</time>
      </trkpt>
      <trkpt lat="59.482238091" lon="17.7732398445">
        <ele>61.8</ele>
        <time>2012-09-25T18:21:16Z</time>
      </trkpt>
      <trkpt lat="59.4822245962" lon="17.7733358173">
        <ele>61.8</ele>
        <time>2012-09-25T18:21:17Z</time>
      </trkpt>
      <trkpt lat="59.4821787472" lon="17.7736270883">
        <ele>61.8</ele>
        <time>2012-09-25T18:21:20Z</time>
      </trkpt>
      <trkpt lat="59.4821687727" lon="17.7737223067">
        <ele>61.8</ele>
        <time>2012-09-25T18:21:21Z</time>
      </trkpt>
      <trkpt lat="59.4820779129" lon="17.7744988059">
        <ele>61.8</ele>
        <time>2012-09-25T18:21:29Z</time>
      </trkpt>
      <trkpt lat="59.4819767434" lon="17.7753281111">
        <ele>61.8</ele>
        <time>2012-09-25T18:21:37Z</time>
      </trkpt>
      <trkpt lat="59.4818665214" lon="17.7761502917">
        <ele>61.8</ele>
        <time>2012-09-25T18:21:44Z</time>
      </trkpt>
      <trkpt lat="59.4817998853" lon="17.7765294888">
        <ele>61.2</ele>
        <time>2012-09-25T18:21:47Z</time>
      </trkpt>
      <trkpt lat="59.4817719736" lon="17.7766565584">
        <ele>60.8</ele>
        <time>2012-09-25T18:21:48Z</time>
      </trkpt>
      <trkpt lat="59.4817412958" lon="17.7767839633">
        <ele>60.4</ele>
        <time>2012-09-25T18:21:49Z</time>
      </trkpt>
      <trkpt lat="59.4817110371" lon="17.7769146371">
        <ele>59.8</ele>
        <time>2012-09-25T18:21:50Z</time>
      </trkpt>
      <trkpt lat="59.4816816167" lon="17.7770443889">
        <ele>59.4</ele>
        <time>2012-09-25T18:21:51Z</time>
      </trkpt>
      <trkpt lat="59.4815537089" lon="17.7775916432">
        <ele>59</ele>
        <time>2012-09-25T18:21:55Z</time>
      </trkpt>
      <trkpt lat="59.4815177505" lon="17.7777281005">
        <ele>58.6</ele>
        <time>2012-09-25T18:21:56Z</time>
      </trkpt>
      <trkpt lat="59.4814816245" lon="17.7778629653">
        <ele>58.2</ele>
        <time>2012-09-25T18:21:57Z</time>
      </trkpt>
      <trkpt lat="59.4814504439" lon="17.7779928009">
        <ele>57.6</ele>
        <time>2012-09-25T18:21:58Z</time>
      </trkpt>
      <trkpt lat="59.4814229512" lon="17.778118278">
        <ele>57</ele>
        <time>2012-09-25T18:21:59Z</time>
      </trkpt>
      <trkpt lat="59.4813947042" lon="17.778239145">
        <ele>56.4</ele>
        <time>2012-09-25T18:22:00Z</time>
      </trkpt>
      <trkpt lat="59.4813647808" lon="17.7783489479">
        <ele>55.8</ele>
        <time>2012-09-25T18:22:01Z</time>
      </trkpt>
      <trkpt lat="59.4813325105" lon="17.7784610139">
        <ele>55.2</ele>
        <time>2012-09-25T18:22:02Z</time>
      </trkpt>
      <trkpt lat="59.4812821353" lon="17.778664694">
        <ele>54.8</ele>
        <time>2012-09-25T18:22:04Z</time>
      </trkpt>
      <trkpt lat="59.4812652877" lon="17.7787451603">
        <ele>54.2</ele>
        <time>2012-09-25T18:22:05Z</time>
      </trkpt>
      <trkpt lat="59.4812569058" lon="17.7788138918">
        <ele>53.8</ele>
        <time>2012-09-25T18:22:06Z</time>
      </trkpt>
      <trkpt lat="59.4812669641" lon="17.7788646862">
        <ele>53.4</ele>
        <time>2012-09-25T18:22:07Z</time>
      </trkpt>
      <trkpt lat="59.4812947082" lon="17.7788801089">
        <ele>52.8</ele>
        <time>2012-09-25T18:22:08Z</time>
      </trkpt>
      <trkpt lat="59.481326727" lon="17.7788516942">
        <ele>52.4</ele>
        <time>2012-09-25T18:22:09Z</time>
      </trkpt>
      <trkpt lat="59.4813537167" lon="17.7788005646">
        <ele>52</ele>
        <time>2012-09-25T18:22:10Z</time>
      </trkpt>
      <trkpt lat="59.481377689" lon="17.7787319169">
        <ele>51.6</ele>
        <time>2012-09-25T18:22:11Z</time>
      </trkpt>
      <trkpt lat="59.4813925249" lon="17.7786564798">
        <ele>51.2</ele>
        <time>2012-09-25T18:22:12Z</time>
      </trkpt>
      <trkpt lat="59.4814078638" lon="17.7785807074">
        <ele>50.8</ele>
        <time>2012-09-25T18:22:13Z</time>
      </trkpt>
      <trkpt lat="59.4814258011" lon="17.778500325">
        <ele>50.8</ele>
        <time>2012-09-25T18:22:14Z</time>
      </trkpt>
      <trkpt lat="59.4814623462" lon="17.7783193597">
        <ele>50.8</ele>
        <time>2012-09-25T18:22:16Z</time>
      </trkpt>
      <trkpt lat="59.4815260486" lon="17.7780505522">
        <ele>51.2</ele>
        <time>2012-09-25T18:22:19Z</time>
      </trkpt>
      <trkpt lat="59.4815487636" lon="17.777966817">
        <ele>51.6</ele>
        <time>2012-09-25T18:22:20Z</time>
      </trkpt>
      <trkpt lat="59.4815701374" lon="17.7778829142">
        <ele>52</ele>
        <time>2012-09-25T18:22:21Z</time>
      </trkpt>
      <trkpt lat="59.4815917627" lon="17.7777930602">
        <ele>52.4</ele>
        <time>2012-09-25T18:22:22Z</time>
      </trkpt>
      <trkpt lat="59.4816127175" lon="17.7777106662">
        <ele>52.8</ele>
        <time>2012-09-25T18:22:23Z</time>
      </trkpt>
      <trkpt lat="59.4816526153" lon="17.7775436987">
        <ele>52.8</ele>
        <time>2012-09-25T18:22:25Z</time>
      </trkpt>
      <trkpt lat="59.4817118753" lon="17.7772949239">
        <ele>53.2</ele>
        <time>2012-09-25T18:22:28Z</time>
      </trkpt>
      <trkpt lat="59.4817323272" lon="17.7772129489">
        <ele>53.8</ele>
        <time>2012-09-25T18:22:29Z</time>
      </trkpt>
      <trkpt lat="59.4817521923" lon="17.7771324827">
        <ele>54.2</ele>
        <time>2012-09-25T18:22:30Z</time>
      </trkpt>
      <trkpt lat="59.4817713868" lon="17.7770479932">
        <ele>54.6</ele>
        <time>2012-09-25T18:22:31Z</time>
      </trkpt>
      <trkpt lat="59.4817903299" lon="17.776967024">
        <ele>55</ele>
        <time>2012-09-25T18:22:32Z</time>
      </trkpt>
      <trkpt lat="59.4818255339" lon="17.7768029902">
        <ele>55</ele>
        <time>2012-09-25T18:22:34Z</time>
      </trkpt>
      <trkpt lat="59.4818738975" lon="17.7765494377">
        <ele>55</ele>
        <time>2012-09-25T18:22:37Z</time>
      </trkpt>
      <trkpt lat="59.4819024797" lon="17.7763706518">
        <ele>55.4</ele>
        <time>2012-09-25T18:22:39Z</time>
      </trkpt>
      <trkpt lat="59.4819151364" lon="17.7762803788">
        <ele>55.8</ele>
        <time>2012-09-25T18:22:40Z</time>
      </trkpt>
      <trkpt lat="59.4819295533" lon="17.7761897704">
        <ele>56.2</ele>
        <time>2012-09-25T18:22:41Z</time>
      </trkpt>
      <trkpt lat="59.4819469038" lon="17.7761002517">
        <ele>56.6</ele>
        <time>2012-09-25T18:22:42Z</time>
      </trkpt>
      <trkpt lat="59.4819624941" lon="17.7760087214">
        <ele>57</ele>
        <time>2012-09-25T18:22:43Z</time>
      </trkpt>
      <trkpt lat="59.4820152163" lon="17.7756400016">
        <ele>57</ele>
        <time>2012-09-25T18:22:47Z</time>
      </trkpt>
      <trkpt lat="59.4820277053" lon="17.7755511535">
        <ele>57.6</ele>
        <time>2012-09-25T18:22:48Z</time>
      </trkpt>
      <trkpt lat="59.4820393562" lon="17.7754623053">
        <ele>58</ele>
        <time>2012-09-25T18:22:49Z</time>
      </trkpt>
      <trkpt lat="59.4820511746" lon="17.7753722837">
        <ele>58.4</ele>
        <time>2012-09-25T18:22:50Z</time>
      </trkpt>
      <trkpt lat="59.4820650886" lon="17.7752822621">
        <ele>58.8</ele>
        <time>2012-09-25T18:22:51Z</time>
      </trkpt>
      <trkpt lat="59.4820773262" lon="17.7751947551">
        <ele>59.2</ele>
        <time>2012-09-25T18:22:52Z</time>
      </trkpt>
      <trkpt lat="59.4820993706" lon="17.775018819">
        <ele>59.2</ele>
        <time>2012-09-25T18:22:54Z</time>
      </trkpt>
      <trkpt lat="59.4821100156" lon="17.7749304738">
        <ele>59.2</ele>
        <time>2012-09-25T18:22:55Z</time>
      </trkpt>
      <trkpt lat="59.4821330658" lon="17.7747532804">
        <ele>59.6</ele>
        <time>2012-09-25T18:22:57Z</time>
      </trkpt>
      <trkpt lat="59.482145471" lon="17.7746673659">
        <ele>60</ele>
        <time>2012-09-25T18:22:58Z</time>
      </trkpt>
      <trkpt lat="59.4821572895" lon="17.774580278">
        <ele>60.4</ele>
        <time>2012-09-25T18:22:59Z</time>
      </trkpt>
      <trkpt lat="59.4821682698" lon="17.7744919328">
        <ele>60.8</ele>
        <time>2012-09-25T18:23:00Z</time>
      </trkpt>
      <trkpt lat="59.4821811779" lon="17.7743990613">
        <ele>61.2</ele>
        <time>2012-09-25T18:23:01Z</time>
      </trkpt>
      <trkpt lat="59.4821914038" lon="17.7743097102">
        <ele>61.2</ele>
        <time>2012-09-25T18:23:02Z</time>
      </trkpt>
      <trkpt lat="59.4822016297" lon="17.774219521">
        <ele>61.2</ele>
        <time>2012-09-25T18:23:03Z</time>
      </trkpt>
      <trkpt lat="59.4823023802" lon="17.7734540021">
        <ele>61.2</ele>
        <time>2012-09-25T18:23:11Z</time>
      </trkpt>
      <trkpt lat="59.4824032144" lon="17.7726273791">
        <ele>61.2</ele>
        <time>2012-09-25T18:23:19Z</time>
      </trkpt>
      <trkpt lat="59.4825000254" lon="17.7717994988">
        <ele>61.2</ele>
        <time>2012-09-25T18:23:26Z</time>
      </trkpt>
      <trkpt lat="59.4826128458" lon="17.7709537651">
        <ele>61.2</ele>
        <time>2012-09-25T18:23:33Z</time>
      </trkpt>
      <trkpt lat="59.4827529073" lon="17.7698258967">
        <ele>61.2</ele>
        <time>2012-09-25T18:23:42Z</time>
      </trkpt>
      <trkpt lat="59.4828816533" lon="17.7687959288">
        <ele>60.8</ele>
        <time>2012-09-25T18:23:49Z</time>
      </trkpt>
      <trkpt lat="59.4829009317" lon="17.7686357507">
        <ele>60.4</ele>
        <time>2012-09-25T18:23:50Z</time>
      </trkpt>
      <trkpt lat="59.4829224731" lon="17.7684712978">
        <ele>59.8</ele>
        <time>2012-09-25T18:23:51Z</time>
      </trkpt>
      <trkpt lat="59.4829459425" lon="17.7683051685">
        <ele>59.4</ele>
        <time>2012-09-25T18:23:52Z</time>
      </trkpt>
      <trkpt lat="59.4829701662" lon="17.7681324176">
        <ele>59</ele>
        <time>2012-09-25T18:23:53Z</time>
      </trkpt>
      <trkpt lat="59.4830208767" lon="17.7677649551">
        <ele>58.6</ele>
        <time>2012-09-25T18:23:55Z</time>
      </trkpt>
      <trkpt lat="59.4830451842" lon="17.7675821458">
        <ele>58.2</ele>
        <time>2012-09-25T18:23:56Z</time>
      </trkpt>
      <trkpt lat="59.4830682344" lon="17.7673929664">
        <ele>57.4</ele>
        <time>2012-09-25T18:23:57Z</time>
      </trkpt>
      <trkpt lat="59.4830921228" lon="17.7672010209">
        <ele>56.8</ele>
        <time>2012-09-25T18:23:58Z</time>
      </trkpt>
      <trkpt lat="59.4831168494" lon="17.7670046329">
        <ele>56.4</ele>
        <time>2012-09-25T18:23:59Z</time>
      </trkpt>
      <trkpt lat="59.4831416598" lon="17.7668026291">
        <ele>56</ele>
        <time>2012-09-25T18:24:00Z</time>
      </trkpt>
      <trkpt lat="59.4831660512" lon="17.7666038943">
        <ele>55.6</ele>
        <time>2012-09-25T18:24:01Z</time>
      </trkpt>
      <trkpt lat="59.4831921189" lon="17.7663858811">
        <ele>55.2</ele>
        <time>2012-09-25T18:24:02Z</time>
      </trkpt>
      <trkpt lat="59.4832185219" lon="17.7661620005">
        <ele>54.6</ele>
        <time>2012-09-25T18:24:03Z</time>
      </trkpt>
      <trkpt lat="59.4832434161" lon="17.7659474239">
        <ele>54.2</ele>
        <time>2012-09-25T18:24:04Z</time>
      </trkpt>
      <trkpt lat="59.4832674721" lon="17.7657294107">
        <ele>53.8</ele>
        <time>2012-09-25T18:24:05Z</time>
      </trkpt>
      <trkpt lat="59.4832942104" lon="17.7655114813">
        <ele>53.4</ele>
        <time>2012-09-25T18:24:06Z</time>
      </trkpt>
      <trkpt lat="59.4833213678" lon="17.7652941386">
        <ele>52.8</ele>
        <time>2012-09-25T18:24:07Z</time>
      </trkpt>
      <trkpt lat="59.4833480222" lon="17.7650726888">
        <ele>52.2</ele>
        <time>2012-09-25T18:24:08Z</time>
      </trkpt>
      <trkpt lat="59.4833766883" lon="17.7648314577">
        <ele>51.6</ele>
        <time>2012-09-25T18:24:09Z</time>
      </trkpt>
      <trkpt lat="59.483402756" lon="17.764611349">
        <ele>50.8</ele>
        <time>2012-09-25T18:24:10Z</time>
      </trkpt>
      <trkpt lat="59.4834295781" lon="17.7644009633">
        <ele>50</ele>
        <time>2012-09-25T18:24:11Z</time>
      </trkpt>
      <trkpt lat="59.4834570707" lon="17.764172808">
        <ele>49.2</ele>
        <time>2012-09-25T18:24:12Z</time>
      </trkpt>
      <trkpt lat="59.4834895925" lon="17.7639347621">
        <ele>48.4</ele>
        <time>2012-09-25T18:24:13Z</time>
      </trkpt>
      <trkpt lat="59.4835174204" lon="17.7637061038">
        <ele>47.8</ele>
        <time>2012-09-25T18:24:14Z</time>
      </trkpt>
      <trkpt lat="59.4835423985" lon="17.7634761045">
        <ele>47.2</ele>
        <time>2012-09-25T18:24:15Z</time>
      </trkpt>
      <trkpt lat="59.4835636047" lon="17.7632456861">
        <ele>46.6</ele>
        <time>2012-09-25T18:24:16Z</time>
      </trkpt>
      <trkpt lat="59.4835811228" lon="17.7630176984">
        <ele>46</ele>
        <time>2012-09-25T18:24:17Z</time>
      </trkpt>
      <trkpt lat="59.483592606" lon="17.7627897945">
        <ele>45.2</ele>
        <time>2012-09-25T18:24:18Z</time>
      </trkpt>
      <trkpt lat="59.4835932766" lon="17.7625659978">
        <ele>44.6</ele>
        <time>2012-09-25T18:24:19Z</time>
      </trkpt>
      <trkpt lat="59.4835803685" lon="17.7623377587">
        <ele>44</ele>
        <time>2012-09-25T18:24:20Z</time>
      </trkpt>
      <trkpt lat="59.4835561448" lon="17.762126451">
        <ele>43.4</ele>
        <time>2012-09-25T18:24:21Z</time>
      </trkpt>
      <trkpt lat="59.4835235392" lon="17.7619286381">
        <ele>42.2</ele>
        <time>2012-09-25T18:24:22Z</time>
      </trkpt>
      <trkpt lat="59.4834869941" lon="17.7617386204">
        <ele>41.6</ele>
        <time>2012-09-25T18:24:23Z</time>
      </trkpt>
      <trkpt lat="59.4834487726" lon="17.7615542186">
        <ele>41</ele>
        <time>2012-09-25T18:24:24Z</time>
      </trkpt>
      <trkpt lat="59.4834079528" lon="17.7613797913">
        <ele>40.4</ele>
        <time>2012-09-25T18:24:25Z</time>
      </trkpt>
      <trkpt lat="59.483362942" lon="17.7612186074">
        <ele>40</ele>
        <time>2012-09-25T18:24:26Z</time>
      </trkpt>
      <trkpt lat="59.483315249" lon="17.7610702477">
        <ele>39.6</ele>
        <time>2012-09-25T18:24:27Z</time>
      </trkpt>
      <trkpt lat="59.4832658796" lon="17.7609315273">
        <ele>39</ele>
        <time>2012-09-25T18:24:28Z</time>
      </trkpt>
      <trkpt lat="59.4832151691" lon="17.7607964949">
        <ele>38.6</ele>
        <time>2012-09-25T18:24:29Z</time>
      </trkpt>
      <trkpt lat="59.4831058691" lon="17.760557946">
        <ele>38.6</ele>
        <time>2012-09-25T18:24:31Z</time>
      </trkpt>
      <trkpt lat="59.4829886902" lon="17.7603546849">
        <ele>38.6</ele>
        <time>2012-09-25T18:24:33Z</time>
      </trkpt>
      <trkpt lat="59.4829265803" lon="17.7602690219">
        <ele>38.6</ele>
        <time>2012-09-25T18:24:34Z</time>
      </trkpt>
      <trkpt lat="59.4827264205" lon="17.7600943431">
        <ele>38.6</ele>
        <time>2012-09-25T18:24:37Z</time>
      </trkpt>
      <trkpt lat="59.4823321359" lon="17.7599034034">
        <ele>38.6</ele>
        <time>2012-09-25T18:24:43Z</time>
      </trkpt>
      <trkpt lat="59.4820916592" lon="17.7598365159">
        <ele>38.6</ele>
        <time>2012-09-25T18:24:47Z</time>
      </trkpt>
      <trkpt lat="59.4820364225" lon="17.7598136333">
        <ele>38.6</ele>
        <time>2012-09-25T18:24:48Z</time>
      </trkpt>
      <trkpt lat="59.4817648489" lon="17.7596827918">
        <ele>38.6</ele>
        <time>2012-09-25T18:24:53Z</time>
      </trkpt>
      <trkpt lat="59.4815121347" lon="17.7595140642">
        <ele>39</ele>
        <time>2012-09-25T18:24:58Z</time>
      </trkpt>
      <trkpt lat="59.4814725721" lon="17.7594758427">
        <ele>39.4</ele>
        <time>2012-09-25T18:24:59Z</time>
      </trkpt>
      <trkpt lat="59.4814366137" lon="17.7594399682">
        <ele>39.8</ele>
        <time>2012-09-25T18:25:00Z</time>
      </trkpt>
      <trkpt lat="59.4814018288" lon="17.7594279821">
        <ele>40.4</ele>
        <time>2012-09-25T18:25:01Z</time>
      </trkpt>
      <trkpt lat="59.481379533" lon="17.7594564805">
        <ele>40.8</ele>
        <time>2012-09-25T18:25:02Z</time>
      </trkpt>
      <trkpt lat="59.4814307464" lon="17.7595634336">
        <ele>40.8</ele>
        <time>2012-09-25T18:25:05Z</time>
      </trkpt>
      <trkpt lat="59.4816166569" lon="17.759701232">
        <ele>40.8</ele>
        <time>2012-09-25T18:25:09Z</time>
      </trkpt>
      <trkpt lat="59.4819650925" lon="17.7598944348">
        <ele>40.8</ele>
        <time>2012-09-25T18:25:14Z</time>
      </trkpt>
      <trkpt lat="59.4825544239" lon="17.7601137053">
        <ele>40.8</ele>
        <time>2012-09-25T18:25:21Z</time>
      </trkpt>
      <trkpt lat="59.4828899514" lon="17.7604529208">
        <ele>40.8</ele>
        <time>2012-09-25T18:25:25Z</time>
      </trkpt>
      <trkpt lat="59.4829659752" lon="17.7605603768">
        <ele>40.4</ele>
        <time>2012-09-25T18:25:26Z</time>
      </trkpt>
      <trkpt lat="59.4830383948" lon="17.760673281">
        <ele>40</ele>
        <time>2012-09-25T18:25:27Z</time>
      </trkpt>
      <trkpt lat="59.4831060368" lon="17.760794567">
        <ele>39.4</ele>
        <time>2012-09-25T18:25:28Z</time>
      </trkpt>
      <trkpt lat="59.4831704097" lon="17.760932114">
        <ele>39</ele>
        <time>2012-09-25T18:25:29Z</time>
      </trkpt>
      <trkpt lat="59.4832264847" lon="17.7610719241">
        <ele>38.6</ele>
        <time>2012-09-25T18:25:30Z</time>
      </trkpt>
      <trkpt lat="59.4833755148" lon="17.7615233733">
        <ele>38.6</ele>
        <time>2012-09-25T18:25:33Z</time>
      </trkpt>
      <trkpt lat="59.4834532989" lon="17.7618497644">
        <ele>38.6</ele>
        <time>2012-09-25T18:25:35Z</time>
      </trkpt>
      <trkpt lat="59.4835184262" lon="17.762185711">
        <ele>38.2</ele>
        <time>2012-09-25T18:25:37Z</time>
      </trkpt>
      <trkpt lat="59.4835407221" lon="17.762354271">
        <ele>37.8</ele>
        <time>2012-09-25T18:25:38Z</time>
      </trkpt>
      <trkpt lat="59.4835555581" lon="17.7625258485">
        <ele>37.4</ele>
        <time>2012-09-25T18:25:39Z</time>
      </trkpt>
      <trkpt lat="59.4835599166" lon="17.7626961687">
        <ele>37</ele>
        <time>2012-09-25T18:25:40Z</time>
      </trkpt>
      <trkpt lat="59.4835543008" lon="17.7628604539">
        <ele>36.6</ele>
        <time>2012-09-25T18:25:41Z</time>
      </trkpt>
      <trkpt lat="59.483506021" lon="17.763336965">
        <ele>36.6</ele>
        <time>2012-09-25T18:25:44Z</time>
      </trkpt>
      <trkpt lat="59.4834652012" lon="17.7636228716">
        <ele>37</ele>
        <time>2012-09-25T18:25:46Z</time>
      </trkpt>
      <trkpt lat="59.4834382953" lon="17.7637542159">
        <ele>37.4</ele>
        <time>2012-09-25T18:25:47Z</time>
      </trkpt>
      <trkpt lat="59.483411557" lon="17.7638832972">
        <ele>38</ele>
        <time>2012-09-25T18:25:48Z</time>
      </trkpt>
      <trkpt lat="59.4833888421" lon="17.764007014">
        <ele>38.4</ele>
        <time>2012-09-25T18:25:49Z</time>
      </trkpt>
      <trkpt lat="59.4833724135" lon="17.7641347542">
        <ele>38.8</ele>
        <time>2012-09-25T18:25:50Z</time>
      </trkpt>
      <trkpt lat="59.4833429092" lon="17.7644023044">
        <ele>39.2</ele>
        <time>2012-09-25T18:25:52Z</time>
      </trkpt>
      <trkpt lat="59.483325894" lon="17.7645323077">
        <ele>39.6</ele>
        <time>2012-09-25T18:25:53Z</time>
      </trkpt>
      <trkpt lat="59.4833069509" lon="17.7646597126">
        <ele>40</ele>
        <time>2012-09-25T18:25:54Z</time>
      </trkpt>
      <trkpt lat="59.4832914444" lon="17.7647851896">
        <ele>40.4</ele>
        <time>2012-09-25T18:25:55Z</time>
      </trkpt>
      <trkpt lat="59.4832766084" lon="17.7649184618">
        <ele>41</ele>
        <time>2012-09-25T18:25:56Z</time>
      </trkpt>
      <trkpt lat="59.4832441705" lon="17.7651827432">
        <ele>41.4</ele>
        <time>2012-09-25T18:25:58Z</time>
      </trkpt>
      <trkpt lat="59.4832264008" lon="17.7653260736">
        <ele>41.8</ele>
        <time>2012-09-25T18:25:59Z</time>
      </trkpt>
      <trkpt lat="59.4832087988" lon="17.7654602679">
        <ele>42.2</ele>
        <time>2012-09-25T18:26:00Z</time>
      </trkpt>
      <trkpt lat="59.4831919512" lon="17.7655916961">
        <ele>43</ele>
        <time>2012-09-25T18:26:01Z</time>
      </trkpt>
      <trkpt lat="59.4831756065" lon="17.7657239624">
        <ele>43.6</ele>
        <time>2012-09-25T18:26:02Z</time>
      </trkpt>
      <trkpt lat="59.4831590942" lon="17.7658585758">
        <ele>44</ele>
        <time>2012-09-25T18:26:03Z</time>
      </trkpt>
      <trkpt lat="59.4831399834" lon="17.7659914289">
        <ele>44.4</ele>
        <time>2012-09-25T18:26:04Z</time>
      </trkpt>
      <trkpt lat="59.4831220462" lon="17.766126126">
        <ele>44.8</ele>
        <time>2012-09-25T18:26:05Z</time>
      </trkpt>
      <trkpt lat="59.4831043604" lon="17.7662583924">
        <ele>45.2</ele>
        <time>2012-09-25T18:26:06Z</time>
      </trkpt>
      <trkpt lat="59.4830873451" lon="17.7663851267">
        <ele>45.6</ele>
        <time>2012-09-25T18:26:07Z</time>
      </trkpt>
      <trkpt lat="59.4830717548" lon="17.7665095141">
        <ele>46.2</ele>
        <time>2012-09-25T18:26:08Z</time>
      </trkpt>
      <trkpt lat="59.4830578408" lon="17.7666328119">
        <ele>46.6</ele>
        <time>2012-09-25T18:26:09Z</time>
      </trkpt>
      <trkpt lat="59.4830419152" lon="17.7667539303">
        <ele>47.2</ele>
        <time>2012-09-25T18:26:10Z</time>
      </trkpt>
      <trkpt lat="59.4830273307" lon="17.7668742106">
        <ele>47.8</ele>
        <time>2012-09-25T18:26:11Z</time>
      </trkpt>
      <trkpt lat="59.4830130815" lon="17.7669959996">
        <ele>48.2</ele>
        <time>2012-09-25T18:26:12Z</time>
      </trkpt>
      <trkpt lat="59.4829984132" lon="17.7671192135">
        <ele>48.6</ele>
        <time>2012-09-25T18:26:13Z</time>
      </trkpt>
      <trkpt lat="59.4829844992" lon="17.7672502226">
        <ele>49</ele>
        <time>2012-09-25T18:26:14Z</time>
      </trkpt>
      <trkpt lat="59.4829721778" lon="17.7673761187">
        <ele>49.4</ele>
        <time>2012-09-25T18:26:15Z</time>
      </trkpt>
      <trkpt lat="59.4829587668" lon="17.7675022663">
        <ele>49.8</ele>
        <time>2012-09-25T18:26:16Z</time>
      </trkpt>
      <trkpt lat="59.4829446852" lon="17.7676254803">
        <ele>50.4</ele>
        <time>2012-09-25T18:26:17Z</time>
      </trkpt>
      <trkpt lat="59.4829293463" lon="17.7677491133">
        <ele>50.8</ele>
        <time>2012-09-25T18:26:18Z</time>
      </trkpt>
      <trkpt lat="59.4829141751" lon="17.7678717405">
        <ele>51.2</ele>
        <time>2012-09-25T18:26:19Z</time>
      </trkpt>
      <trkpt lat="59.4828995067" lon="17.7679899253">
        <ele>51.8</ele>
        <time>2012-09-25T18:26:20Z</time>
      </trkpt>
      <trkpt lat="59.4828856766" lon="17.7681082777">
        <ele>52.2</ele>
        <time>2012-09-25T18:26:21Z</time>
      </trkpt>
      <trkpt lat="59.4828364749" lon="17.7685773288">
        <ele>52.6</ele>
        <time>2012-09-25T18:26:25Z</time>
      </trkpt>
      <trkpt lat="59.4828224771" lon="17.7686858744">
        <ele>53</ele>
        <time>2012-09-25T18:26:26Z</time>
      </trkpt>
      <trkpt lat="59.4828109939" lon="17.7687874631">
        <ele>53.4</ele>
        <time>2012-09-25T18:26:27Z</time>
      </trkpt>
      <trkpt lat="59.4828013547" lon="17.7688854475">
        <ele>54.2</ele>
        <time>2012-09-25T18:26:28Z</time>
      </trkpt>
      <trkpt lat="59.482792889" lon="17.7689756367">
        <ele>54.8</ele>
        <time>2012-09-25T18:26:29Z</time>
      </trkpt>
      <trkpt lat="59.4827836689" lon="17.7690623056">
        <ele>55.4</ele>
        <time>2012-09-25T18:26:30Z</time>
      </trkpt>
      <trkpt lat="59.4827750355" lon="17.7691503993">
        <ele>56</ele>
        <time>2012-09-25T18:26:31Z</time>
      </trkpt>
      <trkpt lat="59.4827642229" lon="17.7692290216">
        <ele>56.6</ele>
        <time>2012-09-25T18:26:32Z</time>
      </trkpt>
      <trkpt lat="59.4827078965" lon="17.7695783792">
        <ele>56.6</ele>
        <time>2012-09-25T18:26:37Z</time>
      </trkpt>
      <trkpt lat="59.4826487203" lon="17.7700903456">
        <ele>56.6</ele>
        <time>2012-09-25T18:26:42Z</time>
      </trkpt>
      <trkpt lat="59.4826374885" lon="17.7701990588">
        <ele>57.2</ele>
        <time>2012-09-25T18:26:43Z</time>
      </trkpt>
      <trkpt lat="59.4826258377" lon="17.7703024077">
        <ele>57.6</ele>
        <time>2012-09-25T18:26:44Z</time>
      </trkpt>
      <trkpt lat="59.4826119237" lon="17.7704005597">
        <ele>58</ele>
        <time>2012-09-25T18:26:45Z</time>
      </trkpt>
      <trkpt lat="59.4825978422" lon="17.7705042438">
        <ele>58.4</ele>
        <time>2012-09-25T18:26:46Z</time>
      </trkpt>
      <trkpt lat="59.482584012" lon="17.7706049943">
        <ele>59</ele>
        <time>2012-09-25T18:26:47Z</time>
      </trkpt>
      <trkpt lat="59.4825690084" lon="17.7707010508">
        <ele>59</ele>
        <time>2012-09-25T18:26:48Z</time>
      </trkpt>
      <trkpt lat="59.4824768075" lon="17.7713215629">
        <ele>59</ele>
        <time>2012-09-25T18:26:55Z</time>
      </trkpt>
      <trkpt lat="59.482420565" lon="17.7717347067">
        <ele>59</ele>
        <time>2012-09-25T18:26:59Z</time>
      </trkpt>
      <trkpt lat="59.4824074892" lon="17.771828584">
        <ele>59.4</ele>
        <time>2012-09-25T18:27:00Z</time>
      </trkpt>
      <trkpt lat="59.482396928" lon="17.7719243053">
        <ele>59.8</ele>
        <time>2012-09-25T18:27:01Z</time>
      </trkpt>
      <trkpt lat="59.4823880432" lon="17.7720134049">
        <ele>60.2</ele>
        <time>2012-09-25T18:27:02Z</time>
      </trkpt>
      <trkpt lat="59.4823792422" lon="17.7720989841">
        <ele>60.6</ele>
        <time>2012-09-25T18:27:03Z</time>
      </trkpt>
      <trkpt lat="59.482370525" lon="17.7721822164">
        <ele>61</ele>
        <time>2012-09-25T18:27:04Z</time>
      </trkpt>
      <trkpt lat="59.4822965129" lon="17.7727286324">
        <ele>61</ele>
        <time>2012-09-25T18:27:11Z</time>
      </trkpt>
      <trkpt lat="59.4822488198" lon="17.7731097574">
        <ele>61</ele>
        <time>2012-09-25T18:27:16Z</time>
      </trkpt>
      <trkpt lat="59.4822128615" lon="17.7734304489">
        <ele>61</ele>
        <time>2012-09-25T18:27:20Z</time>
      </trkpt>
      <trkpt lat="59.4821886378" lon="17.7736037866">
        <ele>61.4</ele>
        <time>2012-09-25T18:27:22Z</time>
      </trkpt>
      <trkpt lat="59.4821772384" lon="17.7736948141">
        <ele>61.8</ele>
        <time>2012-09-25T18:27:23Z</time>
      </trkpt>
      <trkpt lat="59.4821655038" lon="17.7737851709">
        <ele>62.2</ele>
        <time>2012-09-25T18:27:24Z</time>
      </trkpt>
      <trkpt lat="59.4821551102" lon="17.7738822333">
        <ele>62.6</ele>
        <time>2012-09-25T18:27:25Z</time>
      </trkpt>
      <trkpt lat="59.4821466445" lon="17.773975943">
        <ele>63</ele>
        <time>2012-09-25T18:27:26Z</time>
      </trkpt>
      <trkpt lat="59.4821042321" lon="17.7743614266">
        <ele>63</ele>
        <time>2012-09-25T18:27:30Z</time>
      </trkpt>
      <trkpt lat="59.4819956026" lon="17.7752058192">
        <ele>63</ele>
        <time>2012-09-25T18:27:38Z</time>
      </trkpt>
      <trkpt lat="59.4818828661" lon="17.7759901136">
        <ele>63</ele>
        <time>2012-09-25T18:27:44Z</time>
      </trkpt>
      <trkpt lat="59.4818355084" lon="17.7762648722">
        <ele>62.6</ele>
        <time>2012-09-25T18:27:46Z</time>
      </trkpt>
      <trkpt lat="59.4818093568" lon="17.7764114717">
        <ele>62.2</ele>
        <time>2012-09-25T18:27:47Z</time>
      </trkpt>
      <trkpt lat="59.4817841273" lon="17.7765559756">
        <ele>61.8</ele>
        <time>2012-09-25T18:27:48Z</time>
      </trkpt>
      <trkpt lat="59.4817587301" lon="17.7766993061">
        <ele>61.4</ele>
        <time>2012-09-25T18:27:49Z</time>
      </trkpt>
      <trkpt lat="59.4817310699" lon="17.7768437263">
        <ele>61</ele>
        <time>2012-09-25T18:27:50Z</time>
      </trkpt>
      <trkpt lat="59.4816997216" lon="17.7769889008">
        <ele>61</ele>
        <time>2012-09-25T18:27:51Z</time>
      </trkpt>
      <trkpt lat="59.4816277211" lon="17.7772889728">
        <ele>60.4</ele>
        <time>2012-09-25T18:27:53Z</time>
      </trkpt>
      <trkpt lat="59.481591176" lon="17.7774436188">
        <ele>60</ele>
        <time>2012-09-25T18:27:54Z</time>
      </trkpt>
      <trkpt lat="59.481550859" lon="17.7776069821">
        <ele>59.6</ele>
        <time>2012-09-25T18:27:55Z</time>
      </trkpt>
      <trkpt lat="59.4815145654" lon="17.7777688366">
        <ele>59</ele>
        <time>2012-09-25T18:27:56Z</time>
      </trkpt>
      <trkpt lat="59.4814755896" lon="17.7779268354">
        <ele>58.6</ele>
        <time>2012-09-25T18:27:57Z</time>
      </trkpt>
      <trkpt lat="59.4814356917" lon="17.7780870135">
        <ele>58.6</ele>
        <time>2012-09-25T18:27:58Z</time>
      </trkpt>
      <trkpt lat="59.4813968835" lon="17.7782492032">
        <ele>58.2</ele>
        <time>2012-09-25T18:27:59Z</time>
      </trkpt>
      <trkpt lat="59.4813563989" lon="17.7784098843">
        <ele>57.6</ele>
        <time>2012-09-25T18:28:00Z</time>
      </trkpt>
      <trkpt lat="59.4813155791" lon="17.7785713197">
        <ele>57.2</ele>
        <time>2012-09-25T18:28:01Z</time>
      </trkpt>
      <trkpt lat="59.4812758489" lon="17.7787335094">
        <ele>56.6</ele>
        <time>2012-09-25T18:28:02Z</time>
      </trkpt>
      <trkpt lat="59.4812331012" lon="17.7789039135">
        <ele>56.2</ele>
        <time>2012-09-25T18:28:03Z</time>
      </trkpt>
      <trkpt lat="59.4811096358" lon="17.7793976912">
        <ele>55.8</ele>
        <time>2012-09-25T18:28:06Z</time>
      </trkpt>
      <trkpt lat="59.4810643736" lon="17.7795722862">
        <ele>55.4</ele>
        <time>2012-09-25T18:28:07Z</time>
      </trkpt>
      <trkpt lat="59.4810222126" lon="17.7797436122">
        <ele>55</ele>
        <time>2012-09-25T18:28:08Z</time>
      </trkpt>
      <trkpt lat="59.4809818957" lon="17.779916447">
        <ele>54.6</ele>
        <time>2012-09-25T18:28:09Z</time>
      </trkpt>
      <trkpt lat="59.4809419978" lon="17.7800937242">
        <ele>54.2</ele>
        <time>2012-09-25T18:28:10Z</time>
      </trkpt>
      <trkpt lat="59.4808616992" lon="17.7804455963">
        <ele>53.8</ele>
        <time>2012-09-25T18:28:12Z</time>
      </trkpt>
      <trkpt lat="59.4808213823" lon="17.7806206942">
        <ele>53.2</ele>
        <time>2012-09-25T18:28:13Z</time>
      </trkpt>
      <trkpt lat="59.480780311" lon="17.7807904277">
        <ele>52.8</ele>
        <time>2012-09-25T18:28:14Z</time>
      </trkpt>
      <trkpt lat="59.48073815" lon="17.7809620052">
        <ele>52.4</ele>
        <time>2012-09-25T18:28:15Z</time>
      </trkpt>
      <trkpt lat="59.4806977492" lon="17.781130649">
        <ele>52</ele>
        <time>2012-09-25T18:28:16Z</time>
      </trkpt>
      <trkpt lat="59.480535308" lon="17.7817867841">
        <ele>51.6</ele>
        <time>2012-09-25T18:28:20Z</time>
      </trkpt>
      <trkpt lat="59.4804958293" lon="17.78193967">
        <ele>51.2</ele>
        <time>2012-09-25T18:28:21Z</time>
      </trkpt>
      <trkpt lat="59.4804535007" lon="17.782093897">
        <ele>50.6</ele>
        <time>2012-09-25T18:28:22Z</time>
      </trkpt>
      <trkpt lat="59.4804113397" lon="17.7822420889">
        <ele>50.2</ele>
        <time>2012-09-25T18:28:23Z</time>
      </trkpt>
      <trkpt lat="59.4803706037" lon="17.782387934">
        <ele>49.6</ele>
        <time>2012-09-25T18:28:24Z</time>
      </trkpt>
      <trkpt lat="59.4803281913" lon="17.7825286661">
        <ele>49.2</ele>
        <time>2012-09-25T18:28:25Z</time>
      </trkpt>
      <trkpt lat="59.4802833481" lon="17.7826708231">
        <ele>48.6</ele>
        <time>2012-09-25T18:28:26Z</time>
      </trkpt>
      <trkpt lat="59.4802374153" lon="17.7828108847">
        <ele>48.2</ele>
        <time>2012-09-25T18:28:27Z</time>
      </trkpt>
      <trkpt lat="59.480189387" lon="17.7829517844">
        <ele>47.6</ele>
        <time>2012-09-25T18:28:28Z</time>
      </trkpt>
      <trkpt lat="59.4800888042" lon="17.7832267946">
        <ele>47.6</ele>
        <time>2012-09-25T18:28:30Z</time>
      </trkpt>
      <trkpt lat="59.4798054122" lon="17.7838668364">
        <ele>47.2</ele>
        <time>2012-09-25T18:28:35Z</time>
      </trkpt>
      <trkpt lat="59.4797431347" lon="17.7839872005">
        <ele>46.8</ele>
        <time>2012-09-25T18:28:36Z</time>
      </trkpt>
      <trkpt lat="59.4796775882" lon="17.7841077322">
        <ele>46.2</ele>
        <time>2012-09-25T18:28:37Z</time>
      </trkpt>
      <trkpt lat="59.4796082699" lon="17.7842305271">
        <ele>45.8</ele>
        <time>2012-09-25T18:28:38Z</time>
      </trkpt>
      <trkpt lat="59.4795319108" lon="17.7843603627">
        <ele>45.4</ele>
        <time>2012-09-25T18:28:39Z</time>
      </trkpt>
      <trkpt lat="59.4792910988" lon="17.7847098041">
        <ele>45.4</ele>
        <time>2012-09-25T18:28:42Z</time>
      </trkpt>
      <trkpt lat="59.4787508015" lon="17.7853090262">
        <ele>44.8</ele>
        <time>2012-09-25T18:28:48Z</time>
      </trkpt>
      <trkpt lat="59.4786599417" lon="17.7853866426">
        <ele>44.4</ele>
        <time>2012-09-25T18:28:49Z</time>
      </trkpt>
      <trkpt lat="59.478569501" lon="17.7854595651">
        <ele>43.6</ele>
        <time>2012-09-25T18:28:50Z</time>
      </trkpt>
      <trkpt lat="59.4784789765" lon="17.7855292187">
        <ele>42.8</ele>
        <time>2012-09-25T18:28:51Z</time>
      </trkpt>
      <trkpt lat="59.4783887034" lon="17.7855936755">
        <ele>42</ele>
        <time>2012-09-25T18:28:52Z</time>
      </trkpt>
      <trkpt lat="59.4783003582" lon="17.785654109">
        <ele>41.4</ele>
        <time>2012-09-25T18:28:53Z</time>
      </trkpt>
      <trkpt lat="59.4782114262" lon="17.7857101001">
        <ele>39.8</ele>
        <time>2012-09-25T18:28:54Z</time>
      </trkpt>
      <trkpt lat="59.4781183872" lon="17.7857644986">
        <ele>39.2</ele>
        <time>2012-09-25T18:28:55Z</time>
      </trkpt>
      <trkpt lat="59.4780305448" lon="17.7858134489">
        <ele>38.4</ele>
        <time>2012-09-25T18:28:56Z</time>
      </trkpt>
      <trkpt lat="59.477666016" lon="17.7859660833">
        <ele>38</ele>
        <time>2012-09-25T18:29:00Z</time>
      </trkpt>
      <trkpt lat="59.4775718873" lon="17.7859941627">
        <ele>37.6</ele>
        <time>2012-09-25T18:29:01Z</time>
      </trkpt>
      <trkpt lat="59.4774703825" lon="17.7860224935">
        <ele>37.2</ele>
        <time>2012-09-25T18:29:02Z</time>
      </trkpt>
      <trkpt lat="59.477372901" lon="17.7860499861">
        <ele>36.8</ele>
        <time>2012-09-25T18:29:03Z</time>
      </trkpt>
      <trkpt lat="59.477277012" lon="17.7860758024">
        <ele>36.4</ele>
        <time>2012-09-25T18:29:04Z</time>
      </trkpt>
      <trkpt lat="59.4768072904" lon="17.7862186299">
        <ele>36.4</ele>
        <time>2012-09-25T18:29:09Z</time>
      </trkpt>
      <trkpt lat="59.4762666578" lon="17.7863835857">
        <ele>36.4</ele>
        <time>2012-09-25T18:29:15Z</time>
      </trkpt>
      <trkpt lat="59.4760872013" lon="17.7864441031">
        <ele>36.4</ele>
        <time>2012-09-25T18:29:17Z</time>
      </trkpt>
      <trkpt lat="59.4754777534" lon="17.7866496272">
        <ele>36.4</ele>
        <time>2012-09-25T18:29:24Z</time>
      </trkpt>
      <trkpt lat="59.4753932638" lon="17.7866842445">
        <ele>36.4</ele>
        <time>2012-09-25T18:29:25Z</time>
      </trkpt>
      <trkpt lat="59.4748004959" lon="17.7869487773">
        <ele>36.4</ele>
        <time>2012-09-25T18:29:32Z</time>
      </trkpt>
      <trkpt lat="59.4744347936" lon="17.7872006534">
        <ele>36.4</ele>
        <time>2012-09-25T18:29:37Z</time>
      </trkpt>
      <trkpt lat="59.4740721926" lon="17.7875274636">
        <ele>36.4</ele>
        <time>2012-09-25T18:29:43Z</time>
      </trkpt>
      <trkpt lat="59.4740277685" lon="17.7875809402">
        <ele>36.4</ele>
        <time>2012-09-25T18:29:44Z</time>
      </trkpt>
      <trkpt lat="59.4738919817" lon="17.787772718">
        <ele>36.8</ele>
        <time>2012-09-25T18:29:47Z</time>
      </trkpt>
      <trkpt lat="59.4738401816" lon="17.787830637">
        <ele>37.2</ele>
        <time>2012-09-25T18:29:48Z</time>
      </trkpt>
      <trkpt lat="59.4737913989" lon="17.78789962">
        <ele>37.6</ele>
        <time>2012-09-25T18:29:49Z</time>
      </trkpt>
      <trkpt lat="59.4737481483" lon="17.787977404">
        <ele>38</ele>
        <time>2012-09-25T18:29:50Z</time>
      </trkpt>
      <trkpt lat="59.4737080828" lon="17.7880633185">
        <ele>38.4</ele>
        <time>2012-09-25T18:29:51Z</time>
      </trkpt>
      <trkpt lat="59.4736754772" lon="17.7881642366">
        <ele>38.4</ele>
        <time>2012-09-25T18:29:52Z</time>
      </trkpt>
      <trkpt lat="59.4736507506" lon="17.7882666634">
        <ele>39</ele>
        <time>2012-09-25T18:29:53Z</time>
      </trkpt>
      <trkpt lat="59.4736302988" lon="17.7883665756">
        <ele>39.4</ele>
        <time>2012-09-25T18:29:54Z</time>
      </trkpt>
      <trkpt lat="59.4736119424" lon="17.7884690863">
        <ele>40</ele>
        <time>2012-09-25T18:29:55Z</time>
      </trkpt>
      <trkpt lat="59.4735949272" lon="17.7885727704">
        <ele>40.4</ele>
        <time>2012-09-25T18:29:56Z</time>
      </trkpt>
      <trkpt lat="59.4735752297" lon="17.7886855908">
        <ele>40.8</ele>
        <time>2012-09-25T18:29:57Z</time>
      </trkpt>
      <trkpt lat="59.4733820269" lon="17.789614892">
        <ele>40.8</ele>
        <time>2012-09-25T18:30:05Z</time>
      </trkpt>
      <trkpt lat="59.4732813603" lon="17.7899567897">
        <ele>40.4</ele>
        <time>2012-09-25T18:30:08Z</time>
      </trkpt>
      <trkpt lat="59.4732529457" lon="17.7900516728">
        <ele>39.8</ele>
        <time>2012-09-25T18:30:09Z</time>
      </trkpt>
      <trkpt lat="59.4732236928" lon="17.7901561113">
        <ele>39.4</ele>
        <time>2012-09-25T18:30:10Z</time>
      </trkpt>
      <trkpt lat="59.4731910872" lon="17.7902568617">
        <ele>38.8</ele>
        <time>2012-09-25T18:30:11Z</time>
      </trkpt>
      <trkpt lat="59.4731595713" lon="17.7903562711">
        <ele>38.4</ele>
        <time>2012-09-25T18:30:12Z</time>
      </trkpt>
      <trkpt lat="59.4731286421" lon="17.7904520762">
        <ele>37.8</ele>
        <time>2012-09-25T18:30:13Z</time>
      </trkpt>
      <trkpt lat="59.4731034964" lon="17.7905344703">
        <ele>37.4</ele>
        <time>2012-09-25T18:30:14Z</time>
      </trkpt>
      <trkpt lat="59.4730830446" lon="17.7906006873">
        <ele>37</ele>
        <time>2012-09-25T18:30:15Z</time>
      </trkpt>
      <trkpt lat="59.4730806976" lon="17.7906602826">
        <ele>36.6</ele>
        <time>2012-09-25T18:30:16Z</time>
      </trkpt>
      <trkpt lat="59.4730972938" lon="17.7906910441">
        <ele>36</ele>
        <time>2012-09-25T18:30:17Z</time>
      </trkpt>
      <trkpt lat="59.4731213498" lon="17.7906876076">
        <ele>35.6</ele>
        <time>2012-09-25T18:30:18Z</time>
      </trkpt>
      <trkpt lat="59.4731448192" lon="17.7906536609">
        <ele>35</ele>
        <time>2012-09-25T18:30:19Z</time>
      </trkpt>
      <trkpt lat="59.4731635108" lon="17.7905978374">
        <ele>34.4</ele>
        <time>2012-09-25T18:30:20Z</time>
      </trkpt>
      <trkpt lat="59.4731816995" lon="17.7905353084">
        <ele>34</ele>
        <time>2012-09-25T18:30:21Z</time>
      </trkpt>
      <trkpt lat="59.4732350084" lon="17.7903247551">
        <ele>34</ele>
        <time>2012-09-25T18:30:24Z</time>
      </trkpt>
      <trkpt lat="59.4732829529" lon="17.7901736295">
        <ele>34</ele>
        <time>2012-09-25T18:30:26Z</time>
      </trkpt>
      <trkpt lat="59.4733904088" lon="17.789866349">
        <ele>34.4</ele>
        <time>2012-09-25T18:30:30Z</time>
      </trkpt>
      <trkpt lat="59.4734174824" lon="17.7897906605">
        <ele>34.8</ele>
        <time>2012-09-25T18:30:31Z</time>
      </trkpt>
      <trkpt lat="59.4734427119" lon="17.7897063385">
        <ele>35.6</ele>
        <time>2012-09-25T18:30:32Z</time>
      </trkpt>
      <trkpt lat="59.4734637505" lon="17.7896192506">
        <ele>36</ele>
        <time>2012-09-25T18:30:33Z</time>
      </trkpt>
      <trkpt lat="59.4735061629" lon="17.789427808">
        <ele>36.4</ele>
        <time>2012-09-25T18:30:35Z</time>
      </trkpt>
      <trkpt lat="59.4735289616" lon="17.7893313323">
        <ele>36.8</ele>
        <time>2012-09-25T18:30:36Z</time>
      </trkpt>
      <trkpt lat="59.4735566219" lon="17.7892323421">
        <ele>37.4</ele>
        <time>2012-09-25T18:30:37Z</time>
      </trkpt>
      <trkpt lat="59.4735769899" lon="17.7891350282">
        <ele>37.8</ele>
        <time>2012-09-25T18:30:38Z</time>
      </trkpt>
      <trkpt lat="59.4735912392" lon="17.7890399775">
        <ele>38.2</ele>
        <time>2012-09-25T18:30:39Z</time>
      </trkpt>
      <trkpt lat="59.4736051531" lon="17.7889457649">
        <ele>38.6</ele>
        <time>2012-09-25T18:30:40Z</time>
      </trkpt>
      <trkpt lat="59.4736228389" lon="17.788855911">
        <ele>39</ele>
        <time>2012-09-25T18:30:41Z</time>
      </trkpt>
      <trkpt lat="59.4736419496" lon="17.7887620337">
        <ele>39.4</ele>
        <time>2012-09-25T18:30:42Z</time>
      </trkpt>
      <trkpt lat="59.4736613957" lon="17.7886677373">
        <ele>39.8</ele>
        <time>2012-09-25T18:30:43Z</time>
      </trkpt>
      <trkpt lat="59.4736805902" lon="17.7885715131">
        <ele>40.2</ele>
        <time>2012-09-25T18:30:44Z</time>
      </trkpt>
      <trkpt lat="59.4738160417" lon="17.7880887995">
        <ele>40.2</ele>
        <time>2012-09-25T18:30:49Z</time>
      </trkpt>
      <trkpt lat="59.4738597952" lon="17.7879907312">
        <ele>40.2</ele>
        <time>2012-09-25T18:30:50Z</time>
      </trkpt>
      <trkpt lat="59.474033552" lon="17.7877408668">
        <ele>40.2</ele>
        <time>2012-09-25T18:30:53Z</time>
      </trkpt>
      <trkpt lat="59.474103038" lon="17.7876614902">
        <ele>40.2</ele>
        <time>2012-09-25T18:30:54Z</time>
      </trkpt>
      <trkpt lat="59.4745007591" lon="17.7873190058">
        <ele>40.2</ele>
        <time>2012-09-25T18:30:59Z</time>
      </trkpt>
      <trkpt lat="59.4747495339" lon="17.7871284852">
        <ele>39.8</ele>
        <time>2012-09-25T18:31:02Z</time>
      </trkpt>
      <trkpt lat="59.4748323471" lon="17.7870779423">
        <ele>39.2</ele>
        <time>2012-09-25T18:31:03Z</time>
      </trkpt>
      <trkpt lat="59.4749190997" lon="17.7870284053">
        <ele>38.6</ele>
        <time>2012-09-25T18:31:04Z</time>
      </trkpt>
      <trkpt lat="59.4750021644" lon="17.7869877531">
        <ele>38.2</ele>
        <time>2012-09-25T18:31:05Z</time>
      </trkpt>
      <trkpt lat="59.4750838041" lon="17.7869491125">
        <ele>37.6</ele>
        <time>2012-09-25T18:31:06Z</time>
      </trkpt>
      <trkpt lat="59.4755656795" lon="17.7867661357">
        <ele>37.6</ele>
        <time>2012-09-25T18:31:12Z</time>
      </trkpt>
      <trkpt lat="59.4761677514" lon="17.7865625393">
        <ele>37.6</ele>
        <time>2012-09-25T18:31:20Z</time>
      </trkpt>
      <trkpt lat="59.4766209607" lon="17.7864192926">
        <ele>37.6</ele>
        <time>2012-09-25T18:31:26Z</time>
      </trkpt>
      <trkpt lat="59.4769336056" lon="17.7863314503">
        <ele>37.2</ele>
        <time>2012-09-25T18:31:30Z</time>
      </trkpt>
      <trkpt lat="59.4770125631" lon="17.7863105794">
        <ele>36.8</ele>
        <time>2012-09-25T18:31:31Z</time>
      </trkpt>
      <trkpt lat="59.4770901795" lon="17.7862881997">
        <ele>36.4</ele>
        <time>2012-09-25T18:31:32Z</time>
      </trkpt>
      <trkpt lat="59.4771684664" lon="17.7862563485">
        <ele>36</ele>
        <time>2012-09-25T18:31:33Z</time>
      </trkpt>
      <trkpt lat="59.4772468372" lon="17.7862301131">
        <ele>35.6</ele>
        <time>2012-09-25T18:31:34Z</time>
      </trkpt>
      <trkpt lat="59.4777532716" lon="17.7860638163">
        <ele>35.6</ele>
        <time>2012-09-25T18:31:41Z</time>
      </trkpt>
      <trkpt lat="59.4782290282" lon="17.7858364991">
        <ele>35.6</ele>
        <time>2012-09-25T18:31:48Z</time>
      </trkpt>
      <trkpt lat="59.4786728498" lon="17.7855230999">
        <ele>35.6</ele>
        <time>2012-09-25T18:31:55Z</time>
      </trkpt>
      <trkpt lat="59.4789937928" lon="17.7852135563">
        <ele>35.6</ele>
        <time>2012-09-25T18:32:01Z</time>
      </trkpt>
      <trkpt lat="59.4790919448" lon="17.7851019932">
        <ele>35.6</ele>
        <time>2012-09-25T18:32:03Z</time>
      </trkpt>
      <trkpt lat="59.4792399692" lon="17.7849278173">
        <ele>36</ele>
        <time>2012-09-25T18:32:06Z</time>
      </trkpt>
      <trkpt lat="59.4792873269" lon="17.784860846">
        <ele>36.4</ele>
        <time>2012-09-25T18:32:07Z</time>
      </trkpt>
      <trkpt lat="59.4793366963" lon="17.7847971435">
        <ele>36.8</ele>
        <time>2012-09-25T18:32:08Z</time>
      </trkpt>
      <trkpt lat="59.479388245" lon="17.7847303398">
        <ele>37.2</ele>
        <time>2012-09-25T18:32:09Z</time>
      </trkpt>
      <trkpt lat="59.4794374468" lon="17.78465616">
        <ele>37.6</ele>
        <time>2012-09-25T18:32:10Z</time>
      </trkpt>
      <trkpt lat="59.4794861456" lon="17.7845796332">
        <ele>37.6</ele>
        <time>2012-09-25T18:32:11Z</time>
      </trkpt>
      <trkpt lat="59.4795309888" lon="17.7845036094">
        <ele>38</ele>
        <time>2012-09-25T18:32:12Z</time>
      </trkpt>
      <trkpt lat="59.4795734012" lon="17.7844275856">
        <ele>38.6</ele>
        <time>2012-09-25T18:32:13Z</time>
      </trkpt>
      <trkpt lat="59.4796204236" lon="17.7843523999">
        <ele>39</ele>
        <time>2012-09-25T18:32:14Z</time>
      </trkpt>
      <trkpt lat="59.4796647639" lon="17.784279645">
        <ele>39.6</ele>
        <time>2012-09-25T18:32:15Z</time>
      </trkpt>
      <trkpt lat="59.4797073439" lon="17.7842054652">
        <ele>40</ele>
        <time>2012-09-25T18:32:16Z</time>
      </trkpt>
      <trkpt lat="59.4797490858" lon="17.7841310339">
        <ele>40</ele>
        <time>2012-09-25T18:32:17Z</time>
      </trkpt>
      <trkpt lat="59.47979066" lon="17.7840517412">
        <ele>40.6</ele>
        <time>2012-09-25T18:32:18Z</time>
      </trkpt>
      <trkpt lat="59.4798331563" lon="17.7839694309">
        <ele>41</ele>
        <time>2012-09-25T18:32:19Z</time>
      </trkpt>
      <trkpt lat="59.4798769098" lon="17.7838803313">
        <ele>41.4</ele>
        <time>2012-09-25T18:32:20Z</time>
      </trkpt>
      <trkpt lat="59.4799192384" lon="17.783792489">
        <ele>41.8</ele>
        <time>2012-09-25T18:32:21Z</time>
      </trkpt>
      <trkpt lat="59.4799611479" lon="17.783705401">
        <ele>42.4</ele>
        <time>2012-09-25T18:32:22Z</time>
      </trkpt>
      <trkpt lat="59.4800788298" lon="17.7834429638">
        <ele>42.4</ele>
        <time>2012-09-25T18:32:25Z</time>
      </trkpt>
      <trkpt lat="59.4801902252" lon="17.783167786">
        <ele>42.8</ele>
        <time>2012-09-25T18:32:28Z</time>
      </trkpt>
      <trkpt lat="59.4802280276" lon="17.7830694663">
        <ele>43.2</ele>
        <time>2012-09-25T18:32:29Z</time>
      </trkpt>
      <trkpt lat="59.4802666681" lon="17.7829729068">
        <ele>43.6</ele>
        <time>2012-09-25T18:32:30Z</time>
      </trkpt>
      <trkpt lat="59.4803012854" lon="17.7828746709">
        <ele>44</ele>
        <time>2012-09-25T18:32:31Z</time>
      </trkpt>
      <trkpt lat="59.4803351483" lon="17.7827756807">
        <ele>44.4</ele>
        <time>2012-09-25T18:32:32Z</time>
      </trkpt>
      <trkpt lat="59.4805726075" lon="17.7819737843">
        <ele>44.4</ele>
        <time>2012-09-25T18:32:40Z</time>
      </trkpt>
      <trkpt lat="59.4807711747" lon="17.7811821139">
        <ele>44.4</ele>
        <time>2012-09-25T18:32:48Z</time>
      </trkpt>
      <trkpt lat="59.480863627" lon="17.7807983067">
        <ele>44.8</ele>
        <time>2012-09-25T18:32:52Z</time>
      </trkpt>
      <trkpt lat="59.4808819834" lon="17.7806966342">
        <ele>45.2</ele>
        <time>2012-09-25T18:32:53Z</time>
      </trkpt>
      <trkpt lat="59.4809090569" lon="17.7806023379">
        <ele>45.6</ele>
        <time>2012-09-25T18:32:54Z</time>
      </trkpt>
      <trkpt lat="59.4809372201" lon="17.7804988214">
        <ele>46</ele>
        <time>2012-09-25T18:32:55Z</time>
      </trkpt>
      <trkpt lat="59.4809647966" lon="17.780389689">
        <ele>46.4</ele>
        <time>2012-09-25T18:32:56Z</time>
      </trkpt>
      <trkpt lat="59.4810427483" lon="17.7800816542">
        <ele>46.4</ele>
        <time>2012-09-25T18:32:59Z</time>
      </trkpt>
      <trkpt lat="59.4810867532" lon="17.7799023654">
        <ele>46.8</ele>
        <time>2012-09-25T18:33:01Z</time>
      </trkpt>
      <trkpt lat="59.4811046905" lon="17.7798088234">
        <ele>47.2</ele>
        <time>2012-09-25T18:33:02Z</time>
      </trkpt>
      <trkpt lat="59.4811260643" lon="17.7797206458">
        <ele>47.6</ele>
        <time>2012-09-25T18:33:03Z</time>
      </trkpt>
      <trkpt lat="59.4811481926" lon="17.7796328873">
        <ele>48.2</ele>
        <time>2012-09-25T18:33:04Z</time>
      </trkpt>
      <trkpt lat="59.4811734221" lon="17.7795386747">
        <ele>48.6</ele>
        <time>2012-09-25T18:33:05Z</time>
      </trkpt>
      <trkpt lat="59.481254475" lon="17.779198202">
        <ele>48.6</ele>
        <time>2012-09-25T18:33:09Z</time>
      </trkpt>
      <trkpt lat="59.4812023396" lon="17.7790976192">
        <ele>48.6</ele>
        <time>2012-09-25T18:33:11Z</time>
      </trkpt>
      <trkpt lat="59.4811376314" lon="17.7792336574">
        <ele>48.6</ele>
        <time>2012-09-25T18:33:13Z</time>
      </trkpt>
      <trkpt lat="59.4811142459" lon="17.7793308874">
        <ele>48.6</ele>
        <time>2012-09-25T18:33:14Z</time>
      </trkpt>
      <trkpt lat="59.4809848293" lon="17.7798992641">
        <ele>48.6</ele>
        <time>2012-09-25T18:33:19Z</time>
      </trkpt>
      <trkpt lat="59.4807951469" lon="17.7807164993">
        <ele>48.6</ele>
        <time>2012-09-25T18:33:25Z</time>
      </trkpt>
      <trkpt lat="59.4805534129" lon="17.7817132749">
        <ele>48.6</ele>
        <time>2012-09-25T18:33:32Z</time>
      </trkpt>
      <trkpt lat="59.4805171193" lon="17.7818501513">
        <ele>48.6</ele>
        <time>2012-09-25T18:33:33Z</time>
      </trkpt>
      <trkpt lat="59.4803304544" lon="17.782507879">
        <ele>48</ele>
        <time>2012-09-25T18:33:38Z</time>
      </trkpt>
      <trkpt lat="59.4802913109" lon="17.7826349486">
        <ele>47.6</ele>
        <time>2012-09-25T18:33:39Z</time>
      </trkpt>
      <trkpt lat="59.4802514969" lon="17.7827631917">
        <ele>47.2</ele>
        <time>2012-09-25T18:33:40Z</time>
      </trkpt>
      <trkpt lat="59.480212102" lon="17.7828891716">
        <ele>46.6</ele>
        <time>2012-09-25T18:33:41Z</time>
      </trkpt>
      <trkpt lat="59.4801700248" lon="17.7830120503">
        <ele>46.2</ele>
        <time>2012-09-25T18:33:42Z</time>
      </trkpt>
      <trkpt lat="59.4799251057" lon="17.7836106856">
        <ele>46.2</ele>
        <time>2012-09-25T18:33:47Z</time>
      </trkpt>
      <trkpt lat="59.4797619939" lon="17.7839571933">
        <ele>45.4</ele>
        <time>2012-09-25T18:33:50Z</time>
      </trkpt>
      <trkpt lat="59.4797021472" lon="17.7840704328">
        <ele>45</ele>
        <time>2012-09-25T18:33:51Z</time>
      </trkpt>
      <trkpt lat="59.4796376904" lon="17.7841877794">
        <ele>44.6</ele>
        <time>2012-09-25T18:33:52Z</time>
      </trkpt>
      <trkpt lat="59.479571641" lon="17.784300516">
        <ele>44</ele>
        <time>2012-09-25T18:33:53Z</time>
      </trkpt>
      <trkpt lat="59.4795039152" lon="17.7844170244">
        <ele>44</ele>
        <time>2012-09-25T18:33:54Z</time>
      </trkpt>
      <trkpt lat="59.4792725748" lon="17.7847414039">
        <ele>43.6</ele>
        <time>2012-09-25T18:33:57Z</time>
      </trkpt>
      <trkpt lat="59.4791894263" lon="17.7848437469">
        <ele>43.2</ele>
        <time>2012-09-25T18:33:58Z</time>
      </trkpt>
      <trkpt lat="59.479104853" lon="17.7849434077">
        <ele>42.8</ele>
        <time>2012-09-25T18:33:59Z</time>
      </trkpt>
      <trkpt lat="59.4790129873" lon="17.7850451639">
        <ele>42.4</ele>
        <time>2012-09-25T18:34:00Z</time>
      </trkpt>
      <trkpt lat="59.4789239716" lon="17.7851406338">
        <ele>42</ele>
        <time>2012-09-25T18:34:01Z</time>
      </trkpt>
      <trkpt lat="59.4787435931" lon="17.7853202579">
        <ele>41.6</ele>
        <time>2012-09-25T18:34:03Z</time>
      </trkpt>
      <trkpt lat="59.4786543258" lon="17.785400305">
        <ele>41.2</ele>
        <time>2012-09-25T18:34:04Z</time>
      </trkpt>
      <trkpt lat="59.4785653101" lon="17.7854764127">
        <ele>40.6</ele>
        <time>2012-09-25T18:34:05Z</time>
      </trkpt>
      <trkpt lat="59.4784753723" lon="17.7855443061">
        <ele>40.2</ele>
        <time>2012-09-25T18:34:06Z</time>
      </trkpt>
      <trkpt lat="59.478384261" lon="17.7856050749">
        <ele>39.8</ele>
        <time>2012-09-25T18:34:07Z</time>
      </trkpt>
      <trkpt lat="59.4782941556" lon="17.7856627423">
        <ele>39.4</ele>
        <time>2012-09-25T18:34:08Z</time>
      </trkpt>
      <trkpt lat="59.4782052236" lon="17.7857160512">
        <ele>38.8</ele>
        <time>2012-09-25T18:34:09Z</time>
      </trkpt>
      <trkpt lat="59.4781129389" lon="17.7857659235">
        <ele>38.4</ele>
        <time>2012-09-25T18:34:10Z</time>
      </trkpt>
      <trkpt lat="59.4780257672" lon="17.7858105152">
        <ele>38</ele>
        <time>2012-09-25T18:34:11Z</time>
      </trkpt>
      <trkpt lat="59.4779400203" lon="17.7858530953">
        <ele>37.6</ele>
        <time>2012-09-25T18:34:12Z</time>
      </trkpt>
      <trkpt lat="59.4776852944" lon="17.7859627305">
        <ele>36.8</ele>
        <time>2012-09-25T18:34:15Z</time>
      </trkpt>
      <trkpt lat="59.4776011401" lon="17.7859846911">
        <ele>36.4</ele>
        <time>2012-09-25T18:34:16Z</time>
      </trkpt>
      <trkpt lat="59.47751598" lon="17.7860096692">
        <ele>36</ele>
        <time>2012-09-25T18:34:17Z</time>
      </trkpt>
      <trkpt lat="59.4774300655" lon="17.7860330547">
        <ele>35.6</ele>
        <time>2012-09-25T18:34:18Z</time>
      </trkpt>
      <trkpt lat="59.4770111382" lon="17.7861782292">
        <ele>35.2</ele>
        <time>2012-09-25T18:34:23Z</time>
      </trkpt>
      <trkpt lat="59.4769307557" lon="17.7861962503">
        <ele>34.8</ele>
        <time>2012-09-25T18:34:24Z</time>
      </trkpt>
      <trkpt lat="59.4768497028" lon="17.7862201387">
        <ele>34.2</ele>
        <time>2012-09-25T18:34:25Z</time>
      </trkpt>
      <trkpt lat="59.4767708291" lon="17.7862430213">
        <ele>33.8</ele>
        <time>2012-09-25T18:34:26Z</time>
      </trkpt>
      <trkpt lat="59.4766915363" lon="17.7862674126">
        <ele>33.4</ele>
        <time>2012-09-25T18:34:27Z</time>
      </trkpt>
      <trkpt lat="59.4763855132" lon="17.7863602002">
        <ele>33.4</ele>
        <time>2012-09-25T18:34:31Z</time>
      </trkpt>
      <trkpt lat="59.4759499058" lon="17.7864956517">
        <ele>33.8</ele>
        <time>2012-09-25T18:34:37Z</time>
      </trkpt>
      <trkpt lat="59.4758726247" lon="17.7865140919">
        <ele>34.2</ele>
        <time>2012-09-25T18:34:38Z</time>
      </trkpt>
      <trkpt lat="59.4757975229" lon="17.7865367231">
        <ele>35</ele>
        <time>2012-09-25T18:34:39Z</time>
      </trkpt>
      <trkpt lat="59.4757231754" lon="17.7865685743">
        <ele>35.4</ele>
        <time>2012-09-25T18:34:40Z</time>
      </trkpt>
      <trkpt lat="59.4751802798" lon="17.786788683">
        <ele>35.4</ele>
        <time>2012-09-25T18:34:47Z</time>
      </trkpt>
      <trkpt lat="59.4746445925" lon="17.7870506173">
        <ele>35.4</ele>
        <time>2012-09-25T18:34:54Z</time>
      </trkpt>
      <trkpt lat="59.4745760286" lon="17.7870987294">
        <ele>35.4</ele>
        <time>2012-09-25T18:34:55Z</time>
      </trkpt>
      <trkpt lat="59.4742376513" lon="17.7873613344">
        <ele>35.4</ele>
        <time>2012-09-25T18:35:00Z</time>
      </trkpt>
      <trkpt lat="59.4741752899" lon="17.7874208459">
        <ele>35.4</ele>
        <time>2012-09-25T18:35:01Z</time>
      </trkpt>
      <trkpt lat="59.4740010302" lon="17.7876057506">
        <ele>35.4</ele>
        <time>2012-09-25T18:35:04Z</time>
      </trkpt>
      <trkpt lat="59.4739420217" lon="17.7876826126">
        <ele>35.8</ele>
        <time>2012-09-25T18:35:05Z</time>
      </trkpt>
      <trkpt lat="59.4738823425" lon="17.7877557866">
        <ele>36.4</ele>
        <time>2012-09-25T18:35:06Z</time>
      </trkpt>
      <trkpt lat="59.4738305424" lon="17.7878356661">
        <ele>36.8</ele>
        <time>2012-09-25T18:35:07Z</time>
      </trkpt>
      <trkpt lat="59.4737770659" lon="17.787935746">
        <ele>37.2</ele>
        <time>2012-09-25T18:35:08Z</time>
      </trkpt>
      <trkpt lat="59.473729792" lon="17.7880415256">
        <ele>37.6</ele>
        <time>2012-09-25T18:35:09Z</time>
      </trkpt>
      <trkpt lat="59.4736838591" lon="17.7881551003">
        <ele>38</ele>
        <time>2012-09-25T18:35:10Z</time>
      </trkpt>
      <trkpt lat="59.4736481523" lon="17.7882778951">
        <ele>38.6</ele>
        <time>2012-09-25T18:35:11Z</time>
      </trkpt>
      <trkpt lat="59.4736220845" lon="17.7883984269">
        <ele>39.2</ele>
        <time>2012-09-25T18:35:12Z</time>
      </trkpt>
      <trkpt lat="59.4735987829" lon="17.788520132">
        <ele>39.6</ele>
        <time>2012-09-25T18:35:13Z</time>
      </trkpt>
      <trkpt lat="59.4735766546" lon="17.7886476207">
        <ele>40.2</ele>
        <time>2012-09-25T18:35:14Z</time>
      </trkpt>
      <trkpt lat="59.4734476572" lon="17.7893104614">
        <ele>40.2</ele>
        <time>2012-09-25T18:35:19Z</time>
      </trkpt>
      <trkpt lat="59.4732593159" lon="17.7900422851">
        <ele>40.2</ele>
        <time>2012-09-25T18:35:24Z</time>
      </trkpt>
      <trkpt lat="59.473026802" lon="17.7908601071">
        <ele>39.8</ele>
        <time>2012-09-25T18:35:29Z</time>
      </trkpt>
      <trkpt lat="59.4729826294" lon="17.7910394797">
        <ele>39.4</ele>
        <time>2012-09-25T18:35:30Z</time>
      </trkpt>
      <trkpt lat="59.4729410552" lon="17.791232934">
        <ele>39</ele>
        <time>2012-09-25T18:35:31Z</time>
      </trkpt>
      <trkpt lat="59.4729053483" lon="17.7914281484">
        <ele>38.6</ele>
        <time>2012-09-25T18:35:32Z</time>
      </trkpt>
      <trkpt lat="59.4728719883" lon="17.7916248716">
        <ele>38</ele>
        <time>2012-09-25T18:35:33Z</time>
      </trkpt>
      <trkpt lat="59.4728422326" lon="17.7918174039">
        <ele>37.6</ele>
        <time>2012-09-25T18:35:34Z</time>
      </trkpt>
      <trkpt lat="59.4728132312" lon="17.7920041526">
        <ele>37</ele>
        <time>2012-09-25T18:35:35Z</time>
      </trkpt>
      <trkpt lat="59.4727842298" lon="17.792179502">
        <ele>36.4</ele>
        <time>2012-09-25T18:35:36Z</time>
      </trkpt>
      <trkpt lat="59.472756821" lon="17.7923492354">
        <ele>36</ele>
        <time>2012-09-25T18:35:37Z</time>
      </trkpt>
      <trkpt lat="59.4727255565" lon="17.7925219026">
        <ele>35.4</ele>
        <time>2012-09-25T18:35:38Z</time>
      </trkpt>
      <trkpt lat="59.4726708227" lon="17.7928487128">
        <ele>35.4</ele>
        <time>2012-09-25T18:35:40Z</time>
      </trkpt>
      <trkpt lat="59.4725422444" lon="17.7936093703">
        <ele>35</ele>
        <time>2012-09-25T18:35:45Z</time>
      </trkpt>
      <trkpt lat="59.472519278" lon="17.7937467496">
        <ele>34.6</ele>
        <time>2012-09-25T18:35:46Z</time>
      </trkpt>
      <trkpt lat="59.4724953057" lon="17.793881782">
        <ele>34.2</ele>
        <time>2012-09-25T18:35:47Z</time>
      </trkpt>
      <trkpt lat="59.4724690704" lon="17.7940143837">
        <ele>33.8</ele>
        <time>2012-09-25T18:35:48Z</time>
      </trkpt>
      <trkpt lat="59.4724413263" lon="17.7941452251">
        <ele>33.4</ele>
        <time>2012-09-25T18:35:49Z</time>
      </trkpt>
      <trkpt lat="59.4723665597" lon="17.7943924074">
        <ele>33.4</ele>
        <time>2012-09-25T18:35:51Z</time>
      </trkpt>
      <trkpt lat="59.4723171904" lon="17.7945030484">
        <ele>33.4</ele>
        <time>2012-09-25T18:35:52Z</time>
      </trkpt>
      <trkpt lat="59.4720666554" lon="17.7948122567">
        <ele>33.4</ele>
        <time>2012-09-25T18:35:56Z</time>
      </trkpt>
      <trkpt lat="59.4719992649" lon="17.7948607041">
        <ele>33.4</ele>
        <time>2012-09-25T18:35:57Z</time>
      </trkpt>
      <trkpt lat="59.4716022981" lon="17.7951305175">
        <ele>33.4</ele>
        <time>2012-09-25T18:36:03Z</time>
      </trkpt>
      <trkpt lat="59.4712792597" lon="17.79547669">
        <ele>33.4</ele>
        <time>2012-09-25T18:36:08Z</time>
      </trkpt>
      <trkpt lat="59.4709101208" lon="17.795891594">
        <ele>33.4</ele>
        <time>2012-09-25T18:36:14Z</time>
      </trkpt>
      <trkpt lat="59.4708379526" lon="17.7959467469">
        <ele>33.4</ele>
        <time>2012-09-25T18:36:15Z</time>
      </trkpt>
      <trkpt lat="59.470299667" lon="17.7963672668">
        <ele>33.4</ele>
        <time>2012-09-25T18:36:23Z</time>
      </trkpt>
      <trkpt lat="59.470236719" lon="17.7964295443">
        <ele>33.4</ele>
        <time>2012-09-25T18:36:24Z</time>
      </trkpt>
      <trkpt lat="59.469992638" lon="17.7967183846">
        <ele>33.8</ele>
        <time>2012-09-25T18:36:28Z</time>
      </trkpt>
      <trkpt lat="59.4699345515" lon="17.7967940732">
        <ele>34.2</ele>
        <time>2012-09-25T18:36:29Z</time>
      </trkpt>
      <trkpt lat="59.4698768002" lon="17.7968702646">
        <ele>34.6</ele>
        <time>2012-09-25T18:36:30Z</time>
      </trkpt>
      <trkpt lat="59.4698154447" lon="17.7969490545">
        <ele>35</ele>
        <time>2012-09-25T18:36:31Z</time>
      </trkpt>
      <trkpt lat="59.4697566875" lon="17.7970288502">
        <ele>35.4</ele>
        <time>2012-09-25T18:36:32Z</time>
      </trkpt>
      <trkpt lat="59.4694483174" lon="17.7973971509">
        <ele>35.4</ele>
        <time>2012-09-25T18:36:37Z</time>
      </trkpt>
      <trkpt lat="59.4690610737" lon="17.7979147332">
        <ele>35.4</ele>
        <time>2012-09-25T18:36:43Z</time>
      </trkpt>
      <trkpt lat="59.4688903344" lon="17.7984573774">
        <ele>35.4</ele>
        <time>2012-09-25T18:36:47Z</time>
      </trkpt>
      <trkpt lat="59.4688630932" lon="17.7991166138">
        <ele>35.4</ele>
        <time>2012-09-25T18:36:51Z</time>
      </trkpt>
      <trkpt lat="59.4689520251" lon="17.7995950527">
        <ele>35.4</ele>
        <time>2012-09-25T18:36:54Z</time>
      </trkpt>
      <trkpt lat="59.4691117842" lon="17.799956145">
        <ele>35.4</ele>
        <time>2012-09-25T18:36:57Z</time>
      </trkpt>
      <trkpt lat="59.4691700384" lon="17.800066786">
        <ele>35.4</ele>
        <time>2012-09-25T18:36:58Z</time>
      </trkpt>
      <trkpt lat="59.4694366666" lon="17.8006227575">
        <ele>35</ele>
        <time>2012-09-25T18:37:03Z</time>
      </trkpt>
      <trkpt lat="59.4694837729" lon="17.8007198199">
        <ele>34.6</ele>
        <time>2012-09-25T18:37:04Z</time>
      </trkpt>
      <trkpt lat="59.4695321364" lon="17.8008152059">
        <ele>34.2</ele>
        <time>2012-09-25T18:37:05Z</time>
      </trkpt>
      <trkpt lat="59.4695780692" lon="17.8009075744">
        <ele>33.8</ele>
        <time>2012-09-25T18:37:06Z</time>
      </trkpt>
      <trkpt lat="59.469622661" lon="17.801002709">
        <ele>33.2</ele>
        <time>2012-09-25T18:37:07Z</time>
      </trkpt>
      <trkpt lat="59.4697046359" lon="17.801209239">
        <ele>33.2</ele>
        <time>2012-09-25T18:37:09Z</time>
      </trkpt>
      <trkpt lat="59.4698924743" lon="17.8016666393">
        <ele>33.2</ele>
        <time>2012-09-25T18:37:14Z</time>
      </trkpt>
      <trkpt lat="59.4699794784" lon="17.8019681362">
        <ele>33.8</ele>
        <time>2012-09-25T18:37:17Z</time>
      </trkpt>
      <trkpt lat="59.4700031992" lon="17.8020642766">
        <ele>34.2</ele>
        <time>2012-09-25T18:37:18Z</time>
      </trkpt>
      <trkpt lat="59.4700210527" lon="17.8021654462">
        <ele>34.6</ele>
        <time>2012-09-25T18:37:19Z</time>
      </trkpt>
      <trkpt lat="59.4700350504" lon="17.8022723154">
        <ele>35.2</ele>
        <time>2012-09-25T18:37:20Z</time>
      </trkpt>
      <trkpt lat="59.4700414207" lon="17.8023782626">
        <ele>35.6</ele>
        <time>2012-09-25T18:37:21Z</time>
      </trkpt>
      <trkpt lat="59.4700472042" lon="17.8026028137">
        <ele>36</ele>
        <time>2012-09-25T18:37:23Z</time>
      </trkpt>
      <trkpt lat="59.47004821" lon="17.8027232616">
        <ele>36.6</ele>
        <time>2012-09-25T18:37:24Z</time>
      </trkpt>
      <trkpt lat="59.4700458631" lon="17.8028381774">
        <ele>37</ele>
        <time>2012-09-25T18:37:25Z</time>
      </trkpt>
      <trkpt lat="59.4700382356" lon="17.802952758">
        <ele>37.6</ele>
        <time>2012-09-25T18:37:26Z</time>
      </trkpt>
      <trkpt lat="59.4700270038" lon="17.8030608845">
        <ele>38</ele>
        <time>2012-09-25T18:37:27Z</time>
      </trkpt>
      <trkpt lat="59.4699966613" lon="17.8032693424">
        <ele>38.4</ele>
        <time>2012-09-25T18:37:29Z</time>
      </trkpt>
      <trkpt lat="59.4699727729" lon="17.8033759602">
        <ele>38.8</ele>
        <time>2012-09-25T18:37:30Z</time>
      </trkpt>
      <trkpt lat="59.4699462023" lon="17.803482075">
        <ele>39.2</ele>
        <time>2012-09-25T18:37:31Z</time>
      </trkpt>
      <trkpt lat="59.4699217271" lon="17.8035974938">
        <ele>39.6</ele>
        <time>2012-09-25T18:37:32Z</time>
      </trkpt>
      <trkpt lat="59.469899096" lon="17.8037145889">
        <ele>40</ele>
        <time>2012-09-25T18:37:33Z</time>
      </trkpt>
      <trkpt lat="59.4698488046" lon="17.8039408164">
        <ele>40.4</ele>
        <time>2012-09-25T18:37:35Z</time>
      </trkpt>
      <trkpt lat="59.4698202223" lon="17.8040494458">
        <ele>40.8</ele>
        <time>2012-09-25T18:37:36Z</time>
      </trkpt>
      <trkpt lat="59.4697907181" lon="17.8041554769">
        <ele>41.4</ele>
        <time>2012-09-25T18:37:37Z</time>
      </trkpt>
      <trkpt lat="59.4697607109" lon="17.8042583228">
        <ele>41.8</ele>
        <time>2012-09-25T18:37:38Z</time>
      </trkpt>
      <trkpt lat="59.4697311227" lon="17.8043673713">
        <ele>42.2</ele>
        <time>2012-09-25T18:37:39Z</time>
      </trkpt>
      <trkpt lat="59.4696796579" lon="17.8045697103">
        <ele>42.8</ele>
        <time>2012-09-25T18:37:41Z</time>
      </trkpt>
      <trkpt lat="59.4696562724" lon="17.8046754899">
        <ele>43.2</ele>
        <time>2012-09-25T18:37:42Z</time>
      </trkpt>
      <trkpt lat="59.4696294503" lon="17.8047817724">
        <ele>43.6</ele>
        <time>2012-09-25T18:37:43Z</time>
      </trkpt>
      <trkpt lat="59.4696022929" lon="17.8048867138">
        <ele>44</ele>
        <time>2012-09-25T18:37:44Z</time>
      </trkpt>
      <trkpt lat="59.4695742136" lon="17.8049919067">
        <ele>44.4</ele>
        <time>2012-09-25T18:37:45Z</time>
      </trkpt>
      <trkpt lat="59.4694991118" lon="17.8053087425">
        <ele>45</ele>
        <time>2012-09-25T18:37:48Z</time>
      </trkpt>
      <trkpt lat="59.4694736308" lon="17.8054084033">
        <ele>45.4</ele>
        <time>2012-09-25T18:37:49Z</time>
      </trkpt>
      <trkpt lat="59.4694472278" lon="17.8055108301">
        <ele>45.8</ele>
        <time>2012-09-25T18:37:50Z</time>
      </trkpt>
      <trkpt lat="59.4694209924" lon="17.8056160229">
        <ele>46.2</ele>
        <time>2012-09-25T18:37:51Z</time>
      </trkpt>
      <trkpt lat="59.4693967688" lon="17.8057217187">
        <ele>46.8</ele>
        <time>2012-09-25T18:37:52Z</time>
      </trkpt>
      <trkpt lat="59.4693717069" lon="17.8058252351">
        <ele>46.8</ele>
        <time>2012-09-25T18:37:53Z</time>
      </trkpt>
      <trkpt lat="59.4693448848" lon="17.8059377202">
        <ele>47.2</ele>
        <time>2012-09-25T18:37:54Z</time>
      </trkpt>
      <trkpt lat="59.4693192362" lon="17.8060414044">
        <ele>47.6</ele>
        <time>2012-09-25T18:37:55Z</time>
      </trkpt>
      <trkpt lat="59.4692930008" lon="17.8061447532">
        <ele>48.2</ele>
        <time>2012-09-25T18:37:56Z</time>
      </trkpt>
      <trkpt lat="59.4692684419" lon="17.8062470962">
        <ele>49</ele>
        <time>2012-09-25T18:37:57Z</time>
      </trkpt>
      <trkpt lat="59.4692422903" lon="17.8063470084">
        <ele>49.4</ele>
        <time>2012-09-25T18:37:58Z</time>
      </trkpt>
      <trkpt lat="59.4692185696" lon="17.8064486809">
        <ele>49.8</ele>
        <time>2012-09-25T18:37:59Z</time>
      </trkpt>
      <trkpt lat="59.4691979501" lon="17.8065475035">
        <ele>50.4</ele>
        <time>2012-09-25T18:38:00Z</time>
      </trkpt>
      <trkpt lat="59.469178085" lon="17.8066454879">
        <ele>50.8</ele>
        <time>2012-09-25T18:38:01Z</time>
      </trkpt>
      <trkpt lat="59.4691601477" lon="17.8067378564">
        <ele>51.2</ele>
        <time>2012-09-25T18:38:02Z</time>
      </trkpt>
      <trkpt lat="59.4690745685" lon="17.8072591268">
        <ele>51.2</ele>
        <time>2012-09-25T18:38:08Z</time>
      </trkpt>
      <trkpt lat="59.4690619957" lon="17.80734655">
        <ele>51.6</ele>
        <time>2012-09-25T18:38:09Z</time>
      </trkpt>
      <trkpt lat="59.4690490037" lon="17.8074347276">
        <ele>52.2</ele>
        <time>2012-09-25T18:38:10Z</time>
      </trkpt>
      <trkpt lat="59.4690345869" lon="17.8075234081">
        <ele>52.6</ele>
        <time>2012-09-25T18:38:11Z</time>
      </trkpt>
      <trkpt lat="59.4690226007" lon="17.8076122562">
        <ele>53</ele>
        <time>2012-09-25T18:38:12Z</time>
      </trkpt>
      <trkpt lat="59.4690106984" lon="17.8077018587">
        <ele>53.6</ele>
        <time>2012-09-25T18:38:13Z</time>
      </trkpt>
      <trkpt lat="59.4689771708" lon="17.8079834068">
        <ele>53.6</ele>
        <time>2012-09-25T18:38:16Z</time>
      </trkpt>
      <trkpt lat="59.4689060923" lon="17.8086208503">
        <ele>53.6</ele>
        <time>2012-09-25T18:38:23Z</time>
      </trkpt>
      <trkpt lat="59.4688480058" lon="17.8089714651">
        <ele>53.6</ele>
        <time>2012-09-25T18:38:27Z</time>
      </trkpt>
      <trkpt lat="59.4688278054" lon="17.809055368">
        <ele>54</ele>
        <time>2012-09-25T18:38:28Z</time>
      </trkpt>
      <trkpt lat="59.4688042522" lon="17.8091354989">
        <ele>54.4</ele>
        <time>2012-09-25T18:38:29Z</time>
      </trkpt>
      <trkpt lat="59.4687759214" lon="17.8092135344">
        <ele>54.8</ele>
        <time>2012-09-25T18:38:30Z</time>
      </trkpt>
      <trkpt lat="59.4687448246" lon="17.809283188">
        <ele>55.2</ele>
        <time>2012-09-25T18:38:31Z</time>
      </trkpt>
      <trkpt lat="59.4687083633" lon="17.8093540989">
        <ele>55.8</ele>
        <time>2012-09-25T18:38:32Z</time>
      </trkpt>
      <trkpt lat="59.46864508" lon="17.8095037158">
        <ele>55.8</ele>
        <time>2012-09-25T18:38:34Z</time>
      </trkpt>
      <trkpt lat="59.4686197666" lon="17.8095816675">
        <ele>55.8</ele>
        <time>2012-09-25T18:38:35Z</time>
      </trkpt>
      <trkpt lat="59.4685808746" lon="17.8097526582">
        <ele>55.8</ele>
        <time>2012-09-25T18:38:37Z</time>
      </trkpt>
      <trkpt lat="59.4685775218" lon="17.8099473698">
        <ele>55.8</ele>
        <time>2012-09-25T18:38:39Z</time>
      </trkpt>
      <trkpt lat="59.4685972193" lon="17.8101406564">
        <ele>55.8</ele>
        <time>2012-09-25T18:38:41Z</time>
      </trkpt>
      <trkpt lat="59.4686299087" lon="17.8104198575">
        <ele>55.8</ele>
        <time>2012-09-25T18:38:44Z</time>
      </trkpt>
      <trkpt lat="59.4686392126" lon="17.8106021638">
        <ele>56.2</ele>
        <time>2012-09-25T18:38:46Z</time>
      </trkpt>
      <trkpt lat="59.4686386259" lon="17.8106890841">
        <ele>57</ele>
        <time>2012-09-25T18:38:47Z</time>
      </trkpt>
      <trkpt lat="59.4686364466" lon="17.8107820394">
        <ele>57.4</ele>
        <time>2012-09-25T18:38:48Z</time>
      </trkpt>
      <trkpt lat="59.4686319204" lon="17.8108686244">
        <ele>58</ele>
        <time>2012-09-25T18:38:49Z</time>
      </trkpt>
      <trkpt lat="59.4686243767" lon="17.8109505155">
        <ele>58</ele>
        <time>2012-09-25T18:38:50Z</time>
      </trkpt>
      <trkpt lat="59.46860711" lon="17.8111098555">
        <ele>58</ele>
        <time>2012-09-25T18:38:52Z</time>
      </trkpt>
      <trkpt lat="59.4685771866" lon="17.8113803394">
        <ele>58</ele>
        <time>2012-09-25T18:38:55Z</time>
      </trkpt>
      <trkpt lat="59.4685437428" lon="17.8116566906">
        <ele>58.4</ele>
        <time>2012-09-25T18:38:58Z</time>
      </trkpt>
      <trkpt lat="59.4685343551" lon="17.8117514061">
        <ele>58.8</ele>
        <time>2012-09-25T18:38:59Z</time>
      </trkpt>
      <trkpt lat="59.4685207764" lon="17.8118387455">
        <ele>59.4</ele>
        <time>2012-09-25T18:39:00Z</time>
      </trkpt>
      <trkpt lat="59.4685100476" lon="17.8119363108">
        <ele>59.8</ele>
        <time>2012-09-25T18:39:01Z</time>
      </trkpt>
      <trkpt lat="59.4685043479" lon="17.8120301881">
        <ele>60.2</ele>
        <time>2012-09-25T18:39:02Z</time>
      </trkpt>
      <trkpt lat="59.4684754303" lon="17.812224732">
        <ele>60.8</ele>
        <time>2012-09-25T18:39:04Z</time>
      </trkpt>
      <trkpt lat="59.4684630251" lon="17.8123259853">
        <ele>61.2</ele>
        <time>2012-09-25T18:39:05Z</time>
      </trkpt>
      <trkpt lat="59.4684403101" lon="17.8124259814">
        <ele>61.6</ele>
        <time>2012-09-25T18:39:06Z</time>
      </trkpt>
      <trkpt lat="59.4684214509" lon="17.8125368739">
        <ele>62.2</ele>
        <time>2012-09-25T18:39:07Z</time>
      </trkpt>
      <trkpt lat="59.4684066987" lon="17.8126354451">
        <ele>62.6</ele>
        <time>2012-09-25T18:39:08Z</time>
      </trkpt>
      <trkpt lat="59.4683916113" lon="17.8127292385">
        <ele>63.2</ele>
        <time>2012-09-25T18:39:09Z</time>
      </trkpt>
      <trkpt lat="59.4683745122" lon="17.8128208527">
        <ele>63.6</ele>
        <time>2012-09-25T18:39:10Z</time>
      </trkpt>
      <trkpt lat="59.4683532222" lon="17.8129254588">
        <ele>64</ele>
        <time>2012-09-25T18:39:11Z</time>
      </trkpt>
      <trkpt lat="59.46833386" lon="17.8130288076">
        <ele>65</ele>
        <time>2012-09-25T18:39:12Z</time>
      </trkpt>
      <trkpt lat="59.4682895198" lon="17.8132320687">
        <ele>65</ele>
        <time>2012-09-25T18:39:14Z</time>
      </trkpt>
      <trkpt lat="59.4682650446" lon="17.8133353337">
        <ele>65.4</ele>
        <time>2012-09-25T18:39:15Z</time>
      </trkpt>
      <trkpt lat="59.4682389769" lon="17.8134347431">
        <ele>66</ele>
        <time>2012-09-25T18:39:16Z</time>
      </trkpt>
      <trkpt lat="59.4682124901" lon="17.8135369184">
        <ele>66.4</ele>
        <time>2012-09-25T18:39:17Z</time>
      </trkpt>
      <trkpt lat="59.4681818123" lon="17.8136433686">
        <ele>66.8</ele>
        <time>2012-09-25T18:39:18Z</time>
      </trkpt>
      <trkpt lat="59.4681510508" lon="17.8137340607">
        <ele>67.2</ele>
        <time>2012-09-25T18:39:19Z</time>
      </trkpt>
      <trkpt lat="59.4681201216" lon="17.8138204781">
        <ele>67.2</ele>
        <time>2012-09-25T18:39:20Z</time>
      </trkpt>
      <trkpt lat="59.4679420062" lon="17.8142226417">
        <ele>67.2</ele>
        <time>2012-09-25T18:39:25Z</time>
      </trkpt>
      <trkpt lat="59.4678945646" lon="17.8142979111">
        <ele>67.2</ele>
        <time>2012-09-25T18:39:26Z</time>
      </trkpt>
      <trkpt lat="59.4677151082" lon="17.8145801297">
        <ele>67.2</ele>
        <time>2012-09-25T18:39:30Z</time>
      </trkpt>
      <trkpt lat="59.4674396789" lon="17.8149984703">
        <ele>68</ele>
        <time>2012-09-25T18:39:36Z</time>
      </trkpt>
      <trkpt lat="59.4673941652" lon="17.8150704708">
        <ele>68.4</ele>
        <time>2012-09-25T18:39:37Z</time>
      </trkpt>
      <trkpt lat="59.4673477295" lon="17.8151418008">
        <ele>68.8</ele>
        <time>2012-09-25T18:39:38Z</time>
      </trkpt>
      <trkpt lat="59.4673041436" lon="17.8152120411">
        <ele>69.2</ele>
        <time>2012-09-25T18:39:39Z</time>
      </trkpt>
      <trkpt lat="59.4671238489" lon="17.8154869675">
        <ele>69.2</ele>
        <time>2012-09-25T18:39:43Z</time>
      </trkpt>
      <trkpt lat="59.4668175743" lon="17.8159622212">
        <ele>69.2</ele>
        <time>2012-09-25T18:39:50Z</time>
      </trkpt>
      <trkpt lat="59.4666876549" lon="17.8161700085">
        <ele>69.6</ele>
        <time>2012-09-25T18:39:53Z</time>
      </trkpt>
      <trkpt lat="59.4666436499" lon="17.8162326213">
        <ele>70.2</ele>
        <time>2012-09-25T18:39:54Z</time>
      </trkpt>
      <trkpt lat="59.4666022433" lon="17.8162990059">
        <ele>70.6</ele>
        <time>2012-09-25T18:39:55Z</time>
      </trkpt>
      <trkpt lat="59.4665555561" lon="17.8163679052">
        <ele>71</ele>
        <time>2012-09-25T18:39:56Z</time>
      </trkpt>
      <trkpt lat="59.4665113835" lon="17.8164321943">
        <ele>71.4</ele>
        <time>2012-09-25T18:39:57Z</time>
      </trkpt>
      <trkpt lat="59.4661963079" lon="17.8169115552">
        <ele>71.4</ele>
        <time>2012-09-25T18:40:04Z</time>
      </trkpt>
      <trkpt lat="59.466011487" lon="17.8171821229">
        <ele>71.4</ele>
        <time>2012-09-25T18:40:08Z</time>
      </trkpt>
      <trkpt lat="59.4658759517" lon="17.817398795">
        <ele>71.4</ele>
        <time>2012-09-25T18:40:11Z</time>
      </trkpt>
      <trkpt lat="59.4655616304" lon="17.8179073249">
        <ele>71.4</ele>
        <time>2012-09-25T18:40:18Z</time>
      </trkpt>
      <trkpt lat="59.4655448666" lon="17.8182309501">
        <ele>71.4</ele>
        <time>2012-09-25T18:40:21Z</time>
      </trkpt>
      <trkpt lat="59.4656254167" lon="17.8184775456">
        <ele>71.4</ele>
        <time>2012-09-25T18:40:24Z</time>
      </trkpt>
      <trkpt lat="59.4656587766" lon="17.81855885">
        <ele>72.2</ele>
        <time>2012-09-25T18:40:25Z</time>
      </trkpt>
      <trkpt lat="59.465701692" lon="17.8186305152">
        <ele>72.6</ele>
        <time>2012-09-25T18:40:26Z</time>
      </trkpt>
      <trkpt lat="59.46573874" lon="17.81869405">
        <ele>73</ele>
        <time>2012-09-25T18:40:27Z</time>
      </trkpt>
      <trkpt lat="59.4657783025" lon="17.8187693195">
        <ele>73.4</ele>
        <time>2012-09-25T18:40:28Z</time>
      </trkpt>
      <trkpt lat="59.4658207988" lon="17.8188344469">
        <ele>73.8</ele>
        <time>2012-09-25T18:40:29Z</time>
      </trkpt>
      <trkpt lat="59.4658670668" lon="17.8188951318">
        <ele>74.2</ele>
        <time>2012-09-25T18:40:30Z</time>
      </trkpt>
      <trkpt lat="59.4659134188" lon="17.8189589181">
        <ele>74.6</ele>
        <time>2012-09-25T18:40:31Z</time>
      </trkpt>
      <trkpt lat="59.4659466949" lon="17.819034439">
        <ele>75</ele>
        <time>2012-09-25T18:40:32Z</time>
      </trkpt>
      <trkpt lat="59.4659778756" lon="17.8191221137">
        <ele>75.4</ele>
        <time>2012-09-25T18:40:33Z</time>
      </trkpt>
      <trkpt lat="59.4660015125" lon="17.8192058489">
        <ele>75.8</ele>
        <time>2012-09-25T18:40:34Z</time>
      </trkpt>
      <trkpt lat="59.4660214614" lon="17.8193006481">
        <ele>76.4</ele>
        <time>2012-09-25T18:40:35Z</time>
      </trkpt>
      <trkpt lat="59.4660375547" lon="17.8193752471">
        <ele>76.8</ele>
        <time>2012-09-25T18:40:36Z</time>
      </trkpt>
      <trkpt lat="59.4660140854" lon="17.8194360996">
        <ele>77.2</ele>
        <time>2012-09-25T18:40:37Z</time>
      </trkpt>
      <trkpt lat="59.4659756963" lon="17.8194821163">
        <ele>77.8</ele>
        <time>2012-09-25T18:40:38Z</time>
      </trkpt>
      <trkpt lat="59.4659312722" lon="17.8195341679">
        <ele>78.4</ele>
        <time>2012-09-25T18:40:39Z</time>
      </trkpt>
      <trkpt lat="59.4658868481" lon="17.8195863871">
        <ele>78.8</ele>
        <time>2012-09-25T18:40:40Z</time>
      </trkpt>
      <trkpt lat="59.4658351318" lon="17.8196368462">
        <ele>79.4</ele>
        <time>2012-09-25T18:40:41Z</time>
      </trkpt>
      <trkpt lat="59.4657840022" lon="17.8196867185">
        <ele>79.8</ele>
        <time>2012-09-25T18:40:42Z</time>
      </trkpt>
      <trkpt lat="59.4654837626" lon="17.8200014588">
        <ele>79.8</ele>
        <time>2012-09-25T18:40:48Z</time>
      </trkpt>
      <trkpt lat="59.4652032204" lon="17.8202806599">
        <ele>79.8</ele>
        <time>2012-09-25T18:40:54Z</time>
      </trkpt>
      <trkpt lat="59.4649915774" lon="17.8205078932">
        <ele>79.8</ele>
        <time>2012-09-25T18:40:59Z</time>
      </trkpt>
      <trkpt lat="59.4647352589" lon="17.8207950571">
        <ele>79.8</ele>
        <time>2012-09-25T18:41:04Z</time>
      </trkpt>
      <trkpt lat="59.4646842969" lon="17.8208533113">
        <ele>79.8</ele>
        <time>2012-09-25T18:41:05Z</time>
      </trkpt>
      <trkpt lat="59.4643780223" lon="17.8211931135">
        <ele>80.2</ele>
        <time>2012-09-25T18:41:11Z</time>
      </trkpt>
      <trkpt lat="59.4643273956" lon="17.8212440755">
        <ele>80.6</ele>
        <time>2012-09-25T18:41:12Z</time>
      </trkpt>
      <trkpt lat="59.464278613" lon="17.8212931934">
        <ele>81.2</ele>
        <time>2012-09-25T18:41:13Z</time>
      </trkpt>
      <trkpt lat="59.4642306685" lon="17.8213460832">
        <ele>82</ele>
        <time>2012-09-25T18:41:14Z</time>
      </trkpt>
      <trkpt lat="59.4639198677" lon="17.8216901602">
        <ele>82</ele>
        <time>2012-09-25T18:41:21Z</time>
      </trkpt>
      <trkpt lat="59.4638509684" lon="17.8216134658">
        <ele>82</ele>
        <time>2012-09-25T18:41:23Z</time>
      </trkpt>
      <trkpt lat="59.4638066282" lon="17.8214375297">
        <ele>82</ele>
        <time>2012-09-25T18:41:25Z</time>
      </trkpt>
      <trkpt lat="59.4637666465" lon="17.8212747532">
        <ele>82</ele>
        <time>2012-09-25T18:41:27Z</time>
      </trkpt>
      <trkpt lat="59.4637538222" lon="17.821209542">
        <ele>81.4</ele>
        <time>2012-09-25T18:41:28Z</time>
      </trkpt>
      <trkpt lat="59.4637624556" lon="17.821135949">
        <ele>80.8</ele>
        <time>2012-09-25T18:41:29Z</time>
      </trkpt>
      <trkpt lat="59.4637819016" lon="17.8210778624">
        <ele>80.4</ele>
        <time>2012-09-25T18:41:30Z</time>
      </trkpt>
      <trkpt lat="59.4638120764" lon="17.8210126512">
        <ele>79.8</ele>
        <time>2012-09-25T18:41:31Z</time>
      </trkpt>
      <trkpt lat="59.4638541536" lon="17.8209681433">
        <ele>79.2</ele>
        <time>2012-09-25T18:41:32Z</time>
      </trkpt>
      <trkpt lat="59.4638964822" lon="17.820927994">
        <ele>79.2</ele>
        <time>2012-09-25T18:41:33Z</time>
      </trkpt>
      <trkpt lat="59.4641533874" lon="17.8206906186">
        <ele>79.2</ele>
        <time>2012-09-25T18:41:38Z</time>
      </trkpt>
      <trkpt lat="59.4645264658" lon="17.8203112538">
        <ele>79.2</ele>
        <time>2012-09-25T18:41:45Z</time>
      </trkpt>
      <trkpt lat="59.4648173177" lon="17.8200038896">
        <ele>79.2</ele>
        <time>2012-09-25T18:41:51Z</time>
      </trkpt>
      <trkpt lat="59.4649234325" lon="17.8199092579">
        <ele>79.2</ele>
        <time>2012-09-25T18:41:53Z</time>
      </trkpt>
      <trkpt lat="59.4650589679" lon="17.8197561206">
        <ele>79.2</ele>
        <time>2012-09-25T18:41:56Z</time>
      </trkpt>
      <trkpt lat="59.4652302101" lon="17.8195607385">
        <ele>79.2</ele>
        <time>2012-09-25T18:42:00Z</time>
      </trkpt>
      <trkpt lat="59.4652759753" lon="17.8194963655">
        <ele>79.2</ele>
        <time>2012-09-25T18:42:01Z</time>
      </trkpt>
      <trkpt lat="59.4655059746" lon="17.8192380353">
        <ele>79.2</ele>
        <time>2012-09-25T18:42:06Z</time>
      </trkpt>
      <trkpt lat="59.4655962477" lon="17.8191627659">
        <ele>78.8</ele>
        <time>2012-09-25T18:42:08Z</time>
      </trkpt>
      <trkpt lat="59.4656358102" lon="17.8191154082">
        <ele>78.4</ele>
        <time>2012-09-25T18:42:09Z</time>
      </trkpt>
      <trkpt lat="59.4656633029" lon="17.8190504484">
        <ele>78</ele>
        <time>2012-09-25T18:42:10Z</time>
      </trkpt>
      <trkpt lat="59.4656880295" lon="17.8189802081">
        <ele>77.6</ele>
        <time>2012-09-25T18:42:11Z</time>
      </trkpt>
      <trkpt lat="59.4657050447" lon="17.8188927011">
        <ele>77.2</ele>
        <time>2012-09-25T18:42:12Z</time>
      </trkpt>
      <trkpt lat="59.4656719362" lon="17.8186293418">
        <ele>77.2</ele>
        <time>2012-09-25T18:42:14Z</time>
      </trkpt>
      <trkpt lat="59.4656038752" lon="17.8184040363">
        <ele>76.8</ele>
        <time>2012-09-25T18:42:16Z</time>
      </trkpt>
      <trkpt lat="59.465572946" lon="17.8183079797">
        <ele>76.4</ele>
        <time>2012-09-25T18:42:17Z</time>
      </trkpt>
      <trkpt lat="59.4655287734" lon="17.8182479653">
        <ele>76</ele>
        <time>2012-09-25T18:42:18Z</time>
      </trkpt>
      <trkpt lat="59.4654780629" lon="17.8182183772">
        <ele>75.6</ele>
        <time>2012-09-25T18:42:19Z</time>
      </trkpt>
      <trkpt lat="59.4654239996" lon="17.8182110011">
        <ele>75.2</ele>
        <time>2012-09-25T18:42:20Z</time>
      </trkpt>
      <trkpt lat="59.4653676732" lon="17.8182400863">
        <ele>75.2</ele>
        <time>2012-09-25T18:42:21Z</time>
      </trkpt>
      <trkpt lat="59.4653128556" lon="17.8182960774">
        <ele>74.6</ele>
        <time>2012-09-25T18:42:22Z</time>
      </trkpt>
      <trkpt lat="59.4652578704" lon="17.818363887">
        <ele>74.2</ele>
        <time>2012-09-25T18:42:23Z</time>
      </trkpt>
      <trkpt lat="59.4652011249" lon="17.8184316128">
        <ele>73.8</ele>
        <time>2012-09-25T18:42:24Z</time>
      </trkpt>
      <trkpt lat="59.4651442956" lon="17.8184978298">
        <ele>73.4</ele>
        <time>2012-09-25T18:42:25Z</time>
      </trkpt>
      <trkpt lat="59.4650826886" lon="17.8185529827">
        <ele>72.8</ele>
        <time>2012-09-25T18:42:26Z</time>
      </trkpt>
      <trkpt lat="59.4649574631" lon="17.8186445968">
        <ele>72.8</ele>
        <time>2012-09-25T18:42:28Z</time>
      </trkpt>
      <trkpt lat="59.4648307287" lon="17.8186950559">
        <ele>72.8</ele>
        <time>2012-09-25T18:42:30Z</time>
      </trkpt>
      <trkpt lat="59.4644931058" lon="17.8186406573">
        <ele>72.8</ele>
        <time>2012-09-25T18:42:35Z</time>
      </trkpt>
      <trkpt lat="59.4644268888" lon="17.8186026035">
        <ele>72.8</ele>
        <time>2012-09-25T18:42:36Z</time>
      </trkpt>
      <trkpt lat="59.4642381284" lon="17.8185031104">
        <ele>72.8</ele>
        <time>2012-09-25T18:42:39Z</time>
      </trkpt>
      <trkpt lat="59.4641229611" lon="17.8184169444">
        <ele>72.8</ele>
        <time>2012-09-25T18:42:41Z</time>
      </trkpt>
      <trkpt lat="59.4640134935" lon="17.8183677427">
        <ele>72.8</ele>
        <time>2012-09-25T18:42:43Z</time>
      </trkpt>
      <trkpt lat="59.4639885992" lon="17.8183929722">
        <ele>72.8</ele>
        <time>2012-09-25T18:42:44Z</time>
      </trkpt>
      <trkpt lat="59.4639471926" lon="17.8184265836">
        <ele>72.8</ele>
        <time>2012-09-25T18:42:48Z</time>
      </trkpt>
      <trkpt lat="59.4639452648" lon="17.8184233147">
        <ele>72.8</ele>
        <time>2012-09-25T18:42:49Z</time>
      </trkpt>
      <trkpt lat="59.4639471088" lon="17.8184256616">
        <ele>72.8</ele>
        <time>2012-09-25T18:42:53Z</time>
      </trkpt>
      <trkpt lat="59.4638999187" lon="17.8184575128">
        <ele>72.8</ele>
        <time>2012-09-25T18:42:55Z</time>
      </trkpt>
      <trkpt lat="59.4638647148" lon="17.8185559163">
        <ele>72.8</ele>
        <time>2012-09-25T18:42:57Z</time>
      </trkpt>
      <trkpt lat="59.4638168541" lon="17.8188137436">
        <ele>72.8</ele>
        <time>2012-09-25T18:43:00Z</time>
      </trkpt>
      <trkpt lat="59.4637984977" lon="17.8189248876">
        <ele>72.8</ele>
        <time>2012-09-25T18:43:01Z</time>
      </trkpt>
      <trkpt lat="59.4636772955" lon="17.8197682743">
        <ele>73.4</ele>
        <time>2012-09-25T18:43:08Z</time>
      </trkpt>
      <trkpt lat="59.4636547482" lon="17.8198953439">
        <ele>73.8</ele>
        <time>2012-09-25T18:43:09Z</time>
      </trkpt>
      <trkpt lat="59.4636306083" lon="17.8200203181">
        <ele>74.2</ele>
        <time>2012-09-25T18:43:10Z</time>
      </trkpt>
      <trkpt lat="59.4636052111" lon="17.8201455437">
        <ele>74.6</ele>
        <time>2012-09-25T18:43:11Z</time>
      </trkpt>
      <trkpt lat="59.4635782214" lon="17.8202776424">
        <ele>75.2</ele>
        <time>2012-09-25T18:43:12Z</time>
      </trkpt>
      <trkpt lat="59.4634621321" lon="17.8207694923">
        <ele>75.2</ele>
        <time>2012-09-25T18:43:16Z</time>
      </trkpt>
      <trkpt lat="59.4633480544" lon="17.8211344402">
        <ele>75.2</ele>
        <time>2012-09-25T18:43:19Z</time>
      </trkpt>
      <trkpt lat="59.4632138602" lon="17.8214819538">
        <ele>75.2</ele>
        <time>2012-09-25T18:43:22Z</time>
      </trkpt>
      <trkpt lat="59.4629514229" lon="17.8221703592">
        <ele>74.6</ele>
        <time>2012-09-25T18:43:27Z</time>
      </trkpt>
      <trkpt lat="59.4628932525" lon="17.8223146956">
        <ele>74.2</ele>
        <time>2012-09-25T18:43:28Z</time>
      </trkpt>
      <trkpt lat="59.4628306397" lon="17.8224586128">
        <ele>73.8</ele>
        <time>2012-09-25T18:43:29Z</time>
      </trkpt>
      <trkpt lat="59.4627644227" lon="17.8226058828">
        <ele>73.4</ele>
        <time>2012-09-25T18:43:30Z</time>
      </trkpt>
      <trkpt lat="59.4626915002" lon="17.8227452738">
        <ele>73</ele>
        <time>2012-09-25T18:43:31Z</time>
      </trkpt>
      <trkpt lat="59.4626080165" lon="17.822881312">
        <ele>72.4</ele>
        <time>2012-09-25T18:43:32Z</time>
      </trkpt>
      <trkpt lat="59.4625218506" lon="17.8230239719">
        <ele>72</ele>
        <time>2012-09-25T18:43:33Z</time>
      </trkpt>
      <trkpt lat="59.4624330024" lon="17.8231643688">
        <ele>71.6</ele>
        <time>2012-09-25T18:43:34Z</time>
      </trkpt>
      <trkpt lat="59.4623312461" lon="17.8232999041">
        <ele>71.2</ele>
        <time>2012-09-25T18:43:35Z</time>
      </trkpt>
      <trkpt lat="59.4622242093" lon="17.8234107128">
        <ele>70.6</ele>
        <time>2012-09-25T18:43:36Z</time>
      </trkpt>
      <trkpt lat="59.4621153284" lon="17.823503249">
        <ele>70</ele>
        <time>2012-09-25T18:43:37Z</time>
      </trkpt>
      <trkpt lat="59.462005777" lon="17.8235941088">
        <ele>69.4</ele>
        <time>2012-09-25T18:43:38Z</time>
      </trkpt>
      <trkpt lat="59.4618974828" lon="17.8236873155">
        <ele>68.8</ele>
        <time>2012-09-25T18:43:39Z</time>
      </trkpt>
      <trkpt lat="59.461789021" lon="17.8237784268">
        <ele>68.2</ele>
        <time>2012-09-25T18:43:40Z</time>
      </trkpt>
      <trkpt lat="59.4616768712" lon="17.823846404">
        <ele>67.4</ele>
        <time>2012-09-25T18:43:41Z</time>
      </trkpt>
      <trkpt lat="59.4615574291" lon="17.8239003834">
        <ele>67</ele>
        <time>2012-09-25T18:43:42Z</time>
      </trkpt>
      <trkpt lat="59.4614446088" lon="17.8239391916">
        <ele>66.6</ele>
        <time>2012-09-25T18:43:43Z</time>
      </trkpt>
      <trkpt lat="59.4613326266" lon="17.8239785865">
        <ele>66.2</ele>
        <time>2012-09-25T18:43:44Z</time>
      </trkpt>
      <trkpt lat="59.4611077402" lon="17.8240095157">
        <ele>65.6</ele>
        <time>2012-09-25T18:43:46Z</time>
      </trkpt>
      <trkpt lat="59.4609945007" lon="17.8240139582">
        <ele>65.2</ele>
        <time>2012-09-25T18:43:47Z</time>
      </trkpt>
      <trkpt lat="59.4608783276" lon="17.8240169756">
        <ele>64.6</ele>
        <time>2012-09-25T18:43:48Z</time>
      </trkpt>
      <trkpt lat="59.4607542755" lon="17.8240198255">
        <ele>64.2</ele>
        <time>2012-09-25T18:43:49Z</time>
      </trkpt>
      <trkpt lat="59.4606342467" lon="17.8240266986">
        <ele>63.6</ele>
        <time>2012-09-25T18:43:50Z</time>
      </trkpt>
      <trkpt lat="59.4601800315" lon="17.8240734696">
        <ele>63.6</ele>
        <time>2012-09-25T18:43:54Z</time>
      </trkpt>
      <trkpt lat="59.4596803026" lon="17.8241588812">
        <ele>63.6</ele>
        <time>2012-09-25T18:43:59Z</time>
      </trkpt>
      <trkpt lat="59.4594241518" lon="17.8242425326">
        <ele>63</ele>
        <time>2012-09-25T18:44:02Z</time>
      </trkpt>
      <trkpt lat="59.4593367286" lon="17.8242823466">
        <ele>62.6</ele>
        <time>2012-09-25T18:44:03Z</time>
      </trkpt>
      <trkpt lat="59.4592441924" lon="17.8243241723">
        <ele>62</ele>
        <time>2012-09-25T18:44:04Z</time>
      </trkpt>
      <trkpt lat="59.4591553442" lon="17.8243750504">
        <ele>61</ele>
        <time>2012-09-25T18:44:05Z</time>
      </trkpt>
      <trkpt lat="59.4587862054" lon="17.8246401699">
        <ele>61</ele>
        <time>2012-09-25T18:44:09Z</time>
      </trkpt>
      <trkpt lat="59.4586067489" lon="17.8247927205">
        <ele>61.6</ele>
        <time>2012-09-25T18:44:11Z</time>
      </trkpt>
      <trkpt lat="59.4585212535" lon="17.8248675708">
        <ele>62</ele>
        <time>2012-09-25T18:44:12Z</time>
      </trkpt>
      <trkpt lat="59.4584361772" lon="17.8249529824">
        <ele>62.6</ele>
        <time>2012-09-25T18:44:13Z</time>
      </trkpt>
      <trkpt lat="59.4583563815" lon="17.8250404894">
        <ele>63.2</ele>
        <time>2012-09-25T18:44:14Z</time>
      </trkpt>
      <trkpt lat="59.4582794357" lon="17.8251266554">
        <ele>63.8</ele>
        <time>2012-09-25T18:44:15Z</time>
      </trkpt>
      <trkpt lat="59.4578256396" lon="17.825701067">
        <ele>63.8</ele>
        <time>2012-09-25T18:44:21Z</time>
      </trkpt>
      <trkpt lat="59.4577496996" lon="17.8257980456">
        <ele>63.8</ele>
        <time>2012-09-25T18:44:22Z</time>
      </trkpt>
      <trkpt lat="59.4576730052" lon="17.8258951918">
        <ele>63.2</ele>
        <time>2012-09-25T18:44:23Z</time>
      </trkpt>
      <trkpt lat="59.4575984063" lon="17.8259926733">
        <ele>62.8</ele>
        <time>2012-09-25T18:44:24Z</time>
      </trkpt>
      <trkpt lat="59.4575240589" lon="17.8260827787">
        <ele>62.2</ele>
        <time>2012-09-25T18:44:25Z</time>
      </trkpt>
      <trkpt lat="59.4574466101" lon="17.8261646699">
        <ele>61.6</ele>
        <time>2012-09-25T18:44:26Z</time>
      </trkpt>
      <trkpt lat="59.4573682393" lon="17.8262432083">
        <ele>61</ele>
        <time>2012-09-25T18:44:27Z</time>
      </trkpt>
      <trkpt lat="59.4572860967" lon="17.826321579">
        <ele>61</ele>
        <time>2012-09-25T18:44:28Z</time>
      </trkpt>
      <trkpt lat="59.457131283" lon="17.826472118">
        <ele>60.2</ele>
        <time>2012-09-25T18:44:30Z</time>
      </trkpt>
      <trkpt lat="59.4570550077" lon="17.8265473036">
        <ele>59.8</ele>
        <time>2012-09-25T18:44:31Z</time>
      </trkpt>
      <trkpt lat="59.4569770561" lon="17.8266188012">
        <ele>59.4</ele>
        <time>2012-09-25T18:44:32Z</time>
      </trkpt>
      <trkpt lat="59.456899272" lon="17.8266888739">
        <ele>59</ele>
        <time>2012-09-25T18:44:33Z</time>
      </trkpt>
      <trkpt lat="59.4568274392" lon="17.8267550071">
        <ele>58.6</ele>
        <time>2012-09-25T18:44:34Z</time>
      </trkpt>
      <trkpt lat="59.4567559415" lon="17.8268068072">
        <ele>58.2</ele>
        <time>2012-09-25T18:44:35Z</time>
      </trkpt>
      <trkpt lat="59.4566851145" lon="17.8268015266">
        <ele>57.8</ele>
        <time>2012-09-25T18:44:36Z</time>
      </trkpt>
      <trkpt lat="59.4566212444" lon="17.8267288556">
        <ele>57.4</ele>
        <time>2012-09-25T18:44:37Z</time>
      </trkpt>
      <trkpt lat="59.4565856213" lon="17.8266022051">
        <ele>56.8</ele>
        <time>2012-09-25T18:44:38Z</time>
      </trkpt>
      <trkpt lat="59.4565802569" lon="17.8264728723">
        <ele>56.2</ele>
        <time>2012-09-25T18:44:39Z</time>
      </trkpt>
      <trkpt lat="59.456583945" lon="17.8263370856">
        <ele>55.6</ele>
        <time>2012-09-25T18:44:40Z</time>
      </trkpt>
      <trkpt lat="59.4565890579" lon="17.8261903185">
        <ele>55</ele>
        <time>2012-09-25T18:44:41Z</time>
      </trkpt>
      <trkpt lat="59.4566013793" lon="17.8260359239">
        <ele>54.4</ele>
        <time>2012-09-25T18:44:42Z</time>
      </trkpt>
      <trkpt lat="59.4566178078" lon="17.8257488438">
        <ele>54.4</ele>
        <time>2012-09-25T18:44:44Z</time>
      </trkpt>
      <trkpt lat="59.4566976035" lon="17.8246055527">
        <ele>54.4</ele>
        <time>2012-09-25T18:44:52Z</time>
      </trkpt>
      <trkpt lat="59.4568100886" lon="17.8235312445">
        <ele>54.4</ele>
        <time>2012-09-25T18:45:00Z</time>
      </trkpt>
      <trkpt lat="59.4569462945" lon="17.8226785538">
        <ele>54.4</ele>
        <time>2012-09-25T18:45:07Z</time>
      </trkpt>
      <trkpt lat="59.4571067241" lon="17.8218588878">
        <ele>54.4</ele>
        <time>2012-09-25T18:45:14Z</time>
      </trkpt>
      <trkpt lat="59.4573170259" lon="17.8208393973">
        <ele>54.4</ele>
        <time>2012-09-25T18:45:22Z</time>
      </trkpt>
      <trkpt lat="59.4573407467" lon="17.8207112381">
        <ele>54</ele>
        <time>2012-09-25T18:45:23Z</time>
      </trkpt>
      <trkpt lat="59.457363294" lon="17.8205863478">
        <ele>53.4</ele>
        <time>2012-09-25T18:45:24Z</time>
      </trkpt>
      <trkpt lat="59.4573864281" lon="17.8204605355">
        <ele>53</ele>
        <time>2012-09-25T18:45:25Z</time>
      </trkpt>
      <trkpt lat="59.4574108194" lon="17.8203340526">
        <ele>52.6</ele>
        <time>2012-09-25T18:45:26Z</time>
      </trkpt>
      <trkpt lat="59.4574366356" lon="17.8202050552">
        <ele>52.2</ele>
        <time>2012-09-25T18:45:27Z</time>
      </trkpt>
      <trkpt lat="59.457489274" lon="17.8198187334">
        <ele>52.2</ele>
        <time>2012-09-25T18:45:30Z</time>
      </trkpt>
      <trkpt lat="59.4575212928" lon="17.819616981">
        <ele>52.2</ele>
        <time>2012-09-25T18:45:32Z</time>
      </trkpt>
      <trkpt lat="59.4575574188" lon="17.8195656838">
        <ele>52.2</ele>
        <time>2012-09-25T18:45:33Z</time>
      </trkpt>
      <trkpt lat="59.4576460993" lon="17.8195994629">
        <ele>51.8</ele>
        <time>2012-09-25T18:45:35Z</time>
      </trkpt>
      <trkpt lat="59.4576906072" lon="17.8196623271">
        <ele>51.2</ele>
        <time>2012-09-25T18:45:36Z</time>
      </trkpt>
      <trkpt lat="59.4577265656" lon="17.8197456432">
        <ele>50.8</ele>
        <time>2012-09-25T18:45:37Z</time>
      </trkpt>
      <trkpt lat="59.4577627754" lon="17.8198336532">
        <ele>50.4</ele>
        <time>2012-09-25T18:45:38Z</time>
      </trkpt>
      <trkpt lat="59.4577964706" lon="17.8199276981">
        <ele>50</ele>
        <time>2012-09-25T18:45:39Z</time>
      </trkpt>
      <trkpt lat="59.4579470095" lon="17.820401024">
        <ele>50</ele>
        <time>2012-09-25T18:45:44Z</time>
      </trkpt>
      <trkpt lat="59.4579700598" lon="17.8208412414">
        <ele>50</ele>
        <time>2012-09-25T18:45:48Z</time>
      </trkpt>
      <trkpt lat="59.45799772" lon="17.8211921077">
        <ele>50.4</ele>
        <time>2012-09-25T18:45:51Z</time>
      </trkpt>
      <trkpt lat="59.4580244583" lon="17.8212859012">
        <ele>51</ele>
        <time>2012-09-25T18:45:52Z</time>
      </trkpt>
      <trkpt lat="59.4580571477" lon="17.8213682114">
        <ele>51.4</ele>
        <time>2012-09-25T18:45:53Z</time>
      </trkpt>
      <trkpt lat="59.458095453" lon="17.8214426427">
        <ele>51.8</ele>
        <time>2012-09-25T18:45:54Z</time>
      </trkpt>
      <trkpt lat="59.4581397094" lon="17.8215091112">
        <ele>52.4</ele>
        <time>2012-09-25T18:45:55Z</time>
      </trkpt>
      <trkpt lat="59.4582382806" lon="17.8216001386">
        <ele>52.4</ele>
        <time>2012-09-25T18:45:57Z</time>
      </trkpt>
      <trkpt lat="59.4582904998" lon="17.8216382762">
        <ele>52.4</ele>
        <time>2012-09-25T18:45:58Z</time>
      </trkpt>
      <trkpt lat="59.4585319823" lon="17.8217946825">
        <ele>52.4</ele>
        <time>2012-09-25T18:46:03Z</time>
      </trkpt>
      <trkpt lat="59.4585782504" lon="17.8218222589">
        <ele>52.4</ele>
        <time>2012-09-25T18:46:04Z</time>
      </trkpt>
      <trkpt lat="59.4586252729" lon="17.8218373464">
        <ele>52.4</ele>
        <time>2012-09-25T18:46:05Z</time>
      </trkpt>
      <trkpt lat="59.4588199844" lon="17.8218821895">
        <ele>52.4</ele>
        <time>2012-09-25T18:46:09Z</time>
      </trkpt>
      <trkpt lat="59.4589462997" lon="17.8218914096">
        <ele>52.4</ele>
        <time>2012-09-25T18:46:12Z</time>
      </trkpt>
      <trkpt lat="59.4590204795" lon="17.821869449">
        <ele>52.4</ele>
        <time>2012-09-25T18:46:14Z</time>
      </trkpt>
      <trkpt lat="59.4590497323" lon="17.8218318981">
        <ele>52.4</ele>
        <time>2012-09-25T18:46:15Z</time>
      </trkpt>
      <trkpt lat="59.4591414303" lon="17.8216907469">
        <ele>52.4</ele>
        <time>2012-09-25T18:46:18Z</time>
      </trkpt>
      <trkpt lat="59.4592198849" lon="17.8216006415">
        <ele>52.4</ele>
        <time>2012-09-25T18:46:20Z</time>
      </trkpt>
      <trkpt lat="59.4593063023" lon="17.8216023179">
        <ele>52.4</ele>
        <time>2012-09-25T18:46:22Z</time>
      </trkpt>
      <trkpt lat="59.4594827413" lon="17.8216395335">
        <ele>52.8</ele>
        <time>2012-09-25T18:46:26Z</time>
      </trkpt>
      <trkpt lat="59.4595311048" lon="17.8216535313">
        <ele>53.2</ele>
        <time>2012-09-25T18:46:27Z</time>
      </trkpt>
      <trkpt lat="59.4595815639" lon="17.8216810239">
        <ele>53.6</ele>
        <time>2012-09-25T18:46:28Z</time>
      </trkpt>
      <trkpt lat="59.4596277481" lon="17.821700889">
        <ele>54</ele>
        <time>2012-09-25T18:46:29Z</time>
      </trkpt>
      <trkpt lat="59.4596704958" lon="17.8217197483">
        <ele>54.4</ele>
        <time>2012-09-25T18:46:30Z</time>
      </trkpt>
      <trkpt lat="59.4598350325" lon="17.8218015556">
        <ele>54.4</ele>
        <time>2012-09-25T18:46:34Z</time>
      </trkpt>
      <trkpt lat="59.4598792051" lon="17.8218184033">
        <ele>54.4</ele>
        <time>2012-09-25T18:46:35Z</time>
      </trkpt>
      <trkpt lat="59.4599772734" lon="17.8216810239">
        <ele>54.4</ele>
        <time>2012-09-25T18:46:38Z</time>
      </trkpt>
      <trkpt lat="59.459994121" lon="17.8214277229">
        <ele>54.4</ele>
        <time>2012-09-25T18:46:41Z</time>
      </trkpt>
      <trkpt lat="59.4599935342" lon="17.8213311634">
        <ele>54.4</ele>
        <time>2012-09-25T18:46:42Z</time>
      </trkpt>
      <trkpt lat="59.4599897624" lon="17.8210305885">
        <ele>54.8</ele>
        <time>2012-09-25T18:46:45Z</time>
      </trkpt>
      <trkpt lat="59.4599914388" lon="17.8209366274">
        <ele>55.2</ele>
        <time>2012-09-25T18:46:46Z</time>
      </trkpt>
      <trkpt lat="59.4599902653" lon="17.820846522">
        <ele>55.6</ele>
        <time>2012-09-25T18:46:47Z</time>
      </trkpt>
      <trkpt lat="59.4599951268" lon="17.8207629544">
        <ele>56.2</ele>
        <time>2012-09-25T18:46:48Z</time>
      </trkpt>
      <trkpt lat="59.4600004074" lon="17.8206813985">
        <ele>56.6</ele>
        <time>2012-09-25T18:46:49Z</time>
      </trkpt>
      <trkpt lat="59.4600058556" lon="17.8205834979">
        <ele>56.6</ele>
        <time>2012-09-25T18:46:51Z</time>
      </trkpt>
      <trkpt lat="59.4599895947" lon="17.8203569352">
        <ele>56.6</ele>
        <time>2012-09-25T18:46:56Z</time>
      </trkpt>
      <trkpt lat="59.4599609286" lon="17.8202830906">
        <ele>56.6</ele>
        <time>2012-09-25T18:46:57Z</time>
      </trkpt>
      <trkpt lat="59.459863531" lon="17.8201493155">
        <ele>56.6</ele>
        <time>2012-09-25T18:46:59Z</time>
      </trkpt>
      <trkpt lat="59.4596856671" lon="17.8200007044">
        <ele>56.6</ele>
        <time>2012-09-25T18:47:02Z</time>
      </trkpt>
      <trkpt lat="59.4595657221" lon="17.8198714555">
        <ele>56.6</ele>
        <time>2012-09-25T18:47:04Z</time>
      </trkpt>
      <trkpt lat="59.4591916379" lon="17.8194286398">
        <ele>56.6</ele>
        <time>2012-09-25T18:47:10Z</time>
      </trkpt>
      <trkpt lat="59.458708589" lon="17.81889136">
        <ele>56.6</ele>
        <time>2012-09-25T18:47:17Z</time>
      </trkpt>
      <trkpt lat="59.4582263783" lon="17.8183690838">
        <ele>56.6</ele>
        <time>2012-09-25T18:47:24Z</time>
      </trkpt>
      <trkpt lat="59.4581590716" lon="17.818282834">
        <ele>56.6</ele>
        <time>2012-09-25T18:47:25Z</time>
      </trkpt>
      <trkpt lat="59.4576913616" lon="17.8175703725">
        <ele>56.6</ele>
        <time>2012-09-25T18:47:32Z</time>
      </trkpt>
      <trkpt lat="59.4576353705" lon="17.8174412074">
        <ele>56.2</ele>
        <time>2012-09-25T18:47:33Z</time>
      </trkpt>
      <trkpt lat="59.457583738" lon="17.8173060912">
        <ele>55.6</ele>
        <time>2012-09-25T18:47:34Z</time>
      </trkpt>
      <trkpt lat="59.457533698" lon="17.8171703044">
        <ele>55.2</ele>
        <time>2012-09-25T18:47:35Z</time>
      </trkpt>
      <trkpt lat="59.4574790481" lon="17.8170445759">
        <ele>54.8</ele>
        <time>2012-09-25T18:47:36Z</time>
      </trkpt>
      <trkpt lat="59.4574253201" lon="17.8169227031">
        <ele>54.4</ele>
        <time>2012-09-25T18:47:37Z</time>
      </trkpt>
      <trkpt lat="59.4571416766" lon="17.8162777997">
        <ele>54.4</ele>
        <time>2012-09-25T18:47:42Z</time>
      </trkpt>
      <trkpt lat="59.4567996951" lon="17.8156959282">
        <ele>54.4</ele>
        <time>2012-09-25T18:47:47Z</time>
      </trkpt>
      <trkpt lat="59.4563816059" lon="17.8149869033">
        <ele>54.4</ele>
        <time>2012-09-25T18:47:53Z</time>
      </trkpt>
      <trkpt lat="59.4563173167" lon="17.8148608395">
        <ele>54.4</ele>
        <time>2012-09-25T18:47:54Z</time>
      </trkpt>
      <trkpt lat="59.4559644387" lon="17.8140676603">
        <ele>54.4</ele>
        <time>2012-09-25T18:48:00Z</time>
      </trkpt>
      <trkpt lat="59.4558422306" lon="17.8137949971">
        <ele>54.4</ele>
        <time>2012-09-25T18:48:02Z</time>
      </trkpt>
      <trkpt lat="59.455527155" lon="17.8128621755">
        <ele>54.4</ele>
        <time>2012-09-25T18:48:08Z</time>
      </trkpt>
      <trkpt lat="59.4552785478" lon="17.8118848459">
        <ele>54.4</ele>
        <time>2012-09-25T18:48:14Z</time>
      </trkpt>
      <trkpt lat="59.4552390691" lon="17.8117317924">
        <ele>54.4</ele>
        <time>2012-09-25T18:48:15Z</time>
      </trkpt>
      <trkpt lat="59.4550058846" lon="17.8107373638">
        <ele>54.4</ele>
        <time>2012-09-25T18:48:21Z</time>
      </trkpt>
      <trkpt lat="59.4547309583" lon="17.8097904606">
        <ele>54.4</ele>
        <time>2012-09-25T18:48:27Z</time>
      </trkpt>
      <trkpt lat="59.454418062" lon="17.8091355827">
        <ele>54.4</ele>
        <time>2012-09-25T18:48:32Z</time>
      </trkpt>
      <trkpt lat="59.4543556168" lon="17.809015051">
        <ele>54</ele>
        <time>2012-09-25T18:48:33Z</time>
      </trkpt>
      <trkpt lat="59.4542933393" lon="17.8088988779">
        <ele>53.6</ele>
        <time>2012-09-25T18:48:34Z</time>
      </trkpt>
      <trkpt lat="59.4542311456" lon="17.8087851355">
        <ele>53.2</ele>
        <time>2012-09-25T18:48:35Z</time>
      </trkpt>
      <trkpt lat="59.4541701254" lon="17.808670052">
        <ele>52.4</ele>
        <time>2012-09-25T18:48:36Z</time>
      </trkpt>
      <trkpt lat="59.4538734061" lon="17.8081108116">
        <ele>52.4</ele>
        <time>2012-09-25T18:48:41Z</time>
      </trkpt>
      <trkpt lat="59.4537432352" lon="17.8079373901">
        <ele>52.4</ele>
        <time>2012-09-25T18:48:43Z</time>
      </trkpt>
      <trkpt lat="59.453611807" lon="17.8077760386">
        <ele>52.4</ele>
        <time>2012-09-25T18:48:45Z</time>
      </trkpt>
      <trkpt lat="59.4535528823" lon="17.8076684988">
        <ele>52.4</ele>
        <time>2012-09-25T18:48:46Z</time>
      </trkpt>
      <trkpt lat="59.453506698" lon="17.8075526609">
        <ele>52</ele>
        <time>2012-09-25T18:48:47Z</time>
      </trkpt>
      <trkpt lat="59.4534772775" lon="17.8074112583">
        <ele>51.6</ele>
        <time>2012-09-25T18:48:48Z</time>
      </trkpt>
      <trkpt lat="59.4534510422" lon="17.8072779022">
        <ele>51.2</ele>
        <time>2012-09-25T18:48:49Z</time>
      </trkpt>
      <trkpt lat="59.4534139104" lon="17.8071523414">
        <ele>50.8</ele>
        <time>2012-09-25T18:48:50Z</time>
      </trkpt>
      <trkpt lat="59.4533873398" lon="17.807027954">
        <ele>50.4</ele>
        <time>2012-09-25T18:48:51Z</time>
      </trkpt>
      <trkpt lat="59.4533699054" lon="17.8069063326">
        <ele>50.4</ele>
        <time>2012-09-25T18:48:52Z</time>
      </trkpt>
      <trkpt lat="59.45343629" lon="17.8065862279">
        <ele>50.4</ele>
        <time>2012-09-25T18:48:55Z</time>
      </trkpt>
      <trkpt lat="59.4535450871" lon="17.8064092021">
        <ele>50.4</ele>
        <time>2012-09-25T18:48:57Z</time>
      </trkpt>
      <trkpt lat="59.4536735816" lon="17.8062195197">
        <ele>50.4</ele>
        <time>2012-09-25T18:48:59Z</time>
      </trkpt>
      <trkpt lat="59.4539255416" lon="17.8057941383">
        <ele>50.4</ele>
        <time>2012-09-25T18:49:03Z</time>
      </trkpt>
      <trkpt lat="59.4543654237" lon="17.8050805033">
        <ele>50.4</ele>
        <time>2012-09-25T18:49:10Z</time>
      </trkpt>
      <trkpt lat="59.454690809" lon="17.8046080156">
        <ele>50.4</ele>
        <time>2012-09-25T18:49:15Z</time>
      </trkpt>
      <trkpt lat="59.4548455389" lon="17.804482371">
        <ele>50.4</ele>
        <time>2012-09-25T18:49:17Z</time>
      </trkpt>
      <trkpt lat="59.4549231553" lon="17.8044461611">
        <ele>50.4</ele>
        <time>2012-09-25T18:49:18Z</time>
      </trkpt>
      <trkpt lat="59.4551617042" lon="17.8043974623">
        <ele>50.4</ele>
        <time>2012-09-25T18:49:21Z</time>
      </trkpt>
      <trkpt lat="59.455316937" lon="17.8044307384">
        <ele>50.8</ele>
        <time>2012-09-25T18:49:23Z</time>
      </trkpt>
      <trkpt lat="59.4553943857" lon="17.8044622544">
        <ele>51.2</ele>
        <time>2012-09-25T18:49:24Z</time>
      </trkpt>
      <trkpt lat="59.4554735947" lon="17.8045081872">
        <ele>52</ele>
        <time>2012-09-25T18:49:25Z</time>
      </trkpt>
      <trkpt lat="59.455544757" lon="17.8045635916">
        <ele>52.4</ele>
        <time>2012-09-25T18:49:26Z</time>
      </trkpt>
      <trkpt lat="59.4556806276" lon="17.8046926728">
        <ele>52.8</ele>
        <time>2012-09-25T18:49:28Z</time>
      </trkpt>
      <trkpt lat="59.4557459226" lon="17.8047521005">
        <ele>53.2</ele>
        <time>2012-09-25T18:49:29Z</time>
      </trkpt>
      <trkpt lat="59.4558047635" lon="17.8048049065">
        <ele>53.6</ele>
        <time>2012-09-25T18:49:30Z</time>
      </trkpt>
      <trkpt lat="59.4558679631" lon="17.804859305">
        <ele>54.2</ele>
        <time>2012-09-25T18:49:31Z</time>
      </trkpt>
      <trkpt lat="59.4559396283" lon="17.8049210796">
        <ele>54.6</ele>
        <time>2012-09-25T18:49:32Z</time>
      </trkpt>
      <trkpt lat="59.4562315699" lon="17.8051489835">
        <ele>54.6</ele>
        <time>2012-09-25T18:49:36Z</time>
      </trkpt>
      <trkpt lat="59.4566375891" lon="17.8054399192">
        <ele>54.6</ele>
        <time>2012-09-25T18:49:42Z</time>
      </trkpt>
      <trkpt lat="59.457022486" lon="17.8056462816">
        <ele>54.6</ele>
        <time>2012-09-25T18:49:48Z</time>
      </trkpt>
      <trkpt lat="59.4571346358" lon="17.8054972514">
        <ele>54.6</ele>
        <time>2012-09-25T18:49:50Z</time>
      </trkpt>
      <trkpt lat="59.4572744459" lon="17.8052245044">
        <ele>54.6</ele>
        <time>2012-09-25T18:49:53Z</time>
      </trkpt>
      <trkpt lat="59.457408221" lon="17.8049903979">
        <ele>54.6</ele>
        <time>2012-09-25T18:49:56Z</time>
      </trkpt>
      <trkpt lat="59.457700414" lon="17.8046258691">
        <ele>54.6</ele>
        <time>2012-09-25T18:50:02Z</time>
      </trkpt>
      <trkpt lat="59.4577593388" lon="17.8045663576">
        <ele>54.6</ele>
        <time>2012-09-25T18:50:03Z</time>
      </trkpt>
      <trkpt lat="59.4579474286" lon="17.8044269666">
        <ele>54.6</ele>
        <time>2012-09-25T18:50:06Z</time>
      </trkpt>
      <trkpt lat="59.4580133942" lon="17.8044053413">
        <ele>54.6</ele>
        <time>2012-09-25T18:50:07Z</time>
      </trkpt>
      <trkpt lat="59.4582831237" lon="17.8043961212">
        <ele>54.6</ele>
        <time>2012-09-25T18:50:11Z</time>
      </trkpt>
      <trkpt lat="59.4586074194" lon="17.8044425569">
        <ele>54.6</ele>
        <time>2012-09-25T18:50:16Z</time>
      </trkpt>
      <trkpt lat="59.4588175537" lon="17.8044019885">
        <ele>54.6</ele>
        <time>2012-09-25T18:50:20Z</time>
      </trkpt>
    </trkseg>
  </trk>
</gpx>